<?xml version="1.0" encoding="UTF-8" standalone="no" ?>
<gpx xmlns="http://www.topografix.com/GPX/1/1" xmlns:xsi="http://www.w3.org/2001/XMLSchema-instance" xsi:schemaLocation="http://www.topografix.com/GPX/1/1 http://www.topografix.com/GPX/1/1/gpx.xsd" version="1.1" creator="VisuGPX - https://www.visugpx.com">
  <metadata>
    <name>18.05.2021 -Verdon 2 Rougon Gite de vénascle</name>
    <desc><![CDATA[montée portage 20 minutes pour une descente splendide sur les cretes de l'Ourbes ]]></desc>
  </metadata>
  <trk>
    <name><![CDATA[13211152-Verdon 2 Rougon Gite de vénascle]]></name>
    <extensions>
      <line xmlns="http://www.topografix.com/GPX/gpx_style/0/2">
        <color>0000FF</color>
        <width>4</width>
      </line>
    </extensions>
    <trkseg>
      <trkpt lat="43.79904" lon="6.40229">
        <ele>966</ele>
        <time>2022-06-09T17:08:05Z</time>
      </trkpt>
      <trkpt lat="43.79902" lon="6.40231">
        <ele>966</ele>
        <time>2022-06-09T17:08:06Z</time>
      </trkpt>
      <trkpt lat="43.7991" lon="6.4023">
        <ele>966</ele>
        <time>2022-06-09T17:08:07Z</time>
      </trkpt>
      <trkpt lat="43.79911" lon="6.40227">
        <ele>966</ele>
        <time>2022-06-09T17:08:08Z</time>
      </trkpt>
      <trkpt lat="43.79918" lon="6.40191">
        <ele>966</ele>
        <time>2022-06-09T17:08:14Z</time>
      </trkpt>
      <trkpt lat="43.79919" lon="6.40171">
        <ele>966</ele>
        <time>2022-06-09T17:08:18Z</time>
      </trkpt>
      <trkpt lat="43.79929" lon="6.40141">
        <ele>964</ele>
        <time>2022-06-09T17:08:23Z</time>
      </trkpt>
      <trkpt lat="43.7993" lon="6.40123">
        <ele>961</ele>
        <time>2022-06-09T17:08:26Z</time>
      </trkpt>
      <trkpt lat="43.79926" lon="6.40126">
        <ele>961</ele>
        <time>2022-06-09T17:08:27Z</time>
      </trkpt>
      <trkpt lat="43.79925" lon="6.40147">
        <ele>964</ele>
        <time>2022-06-09T17:08:31Z</time>
      </trkpt>
      <trkpt lat="43.79933" lon="6.40136">
        <ele>964</ele>
        <time>2022-06-09T17:08:34Z</time>
      </trkpt>
      <trkpt lat="43.79944" lon="6.40131">
        <ele>965</ele>
        <time>2022-06-09T17:08:36Z</time>
      </trkpt>
      <trkpt lat="43.79961" lon="6.40101">
        <ele>964</ele>
        <time>2022-06-09T17:08:43Z</time>
      </trkpt>
      <trkpt lat="43.79987" lon="6.40007">
        <ele>957</ele>
        <time>2022-06-09T17:09:00Z</time>
      </trkpt>
      <trkpt lat="43.80007" lon="6.39921">
        <ele>956</ele>
        <time>2022-06-09T17:09:15Z</time>
      </trkpt>
      <trkpt lat="43.80011" lon="6.39895">
        <ele>954</ele>
        <time>2022-06-09T17:09:19Z</time>
      </trkpt>
      <trkpt lat="43.80005" lon="6.39873">
        <ele>951</ele>
        <time>2022-06-09T17:09:23Z</time>
      </trkpt>
      <trkpt lat="43.79998" lon="6.3986">
        <ele>949</ele>
        <time>2022-06-09T17:09:26Z</time>
      </trkpt>
      <trkpt lat="43.79987" lon="6.39848">
        <ele>946</ele>
        <time>2022-06-09T17:09:29Z</time>
      </trkpt>
      <trkpt lat="43.79967" lon="6.39836">
        <ele>943</ele>
        <time>2022-06-09T17:09:34Z</time>
      </trkpt>
      <trkpt lat="43.79956" lon="6.39825">
        <ele>942</ele>
        <time>2022-06-09T17:09:38Z</time>
      </trkpt>
      <trkpt lat="43.79943" lon="6.39808">
        <ele>940</ele>
        <time>2022-06-09T17:09:42Z</time>
      </trkpt>
      <trkpt lat="43.7994" lon="6.398">
        <ele>939</ele>
        <time>2022-06-09T17:09:43Z</time>
      </trkpt>
      <trkpt lat="43.79936" lon="6.39777">
        <ele>938</ele>
        <time>2022-06-09T17:09:47Z</time>
      </trkpt>
      <trkpt lat="43.79931" lon="6.39689">
        <ele>939</ele>
        <time>2022-06-09T17:10:02Z</time>
      </trkpt>
      <trkpt lat="43.79923" lon="6.3962">
        <ele>940</ele>
        <time>2022-06-09T17:10:14Z</time>
      </trkpt>
      <trkpt lat="43.79925" lon="6.39549">
        <ele>939</ele>
        <time>2022-06-09T17:10:26Z</time>
      </trkpt>
      <trkpt lat="43.7993" lon="6.39479">
        <ele>937</ele>
        <time>2022-06-09T17:10:38Z</time>
      </trkpt>
      <trkpt lat="43.79927" lon="6.39429">
        <ele>936</ele>
        <time>2022-06-09T17:10:46Z</time>
      </trkpt>
      <trkpt lat="43.79929" lon="6.39403">
        <ele>934</ele>
        <time>2022-06-09T17:10:51Z</time>
      </trkpt>
      <trkpt lat="43.79939" lon="6.39377">
        <ele>933</ele>
        <time>2022-06-09T17:10:56Z</time>
      </trkpt>
      <trkpt lat="43.79971" lon="6.39334">
        <ele>933</ele>
        <time>2022-06-09T17:11:06Z</time>
      </trkpt>
      <trkpt lat="43.79983" lon="6.39306">
        <ele>931</ele>
        <time>2022-06-09T17:11:11Z</time>
      </trkpt>
      <trkpt lat="43.79984" lon="6.39273">
        <ele>928</ele>
        <time>2022-06-09T17:11:17Z</time>
      </trkpt>
      <trkpt lat="43.79979" lon="6.39197">
        <ele>923</ele>
        <time>2022-06-09T17:11:30Z</time>
      </trkpt>
      <trkpt lat="43.79981" lon="6.39162">
        <ele>923</ele>
        <time>2022-06-09T17:11:36Z</time>
      </trkpt>
      <trkpt lat="43.79978" lon="6.39151">
        <ele>922</ele>
        <time>2022-06-09T17:11:38Z</time>
      </trkpt>
      <trkpt lat="43.7997" lon="6.39155">
        <ele>920</ele>
        <time>2022-06-09T17:11:40Z</time>
      </trkpt>
      <trkpt lat="43.79967" lon="6.39208">
        <ele>921</ele>
        <time>2022-06-09T17:11:49Z</time>
      </trkpt>
      <trkpt lat="43.7996" lon="6.39238">
        <ele>920</ele>
        <time>2022-06-09T17:11:54Z</time>
      </trkpt>
      <trkpt lat="43.79945" lon="6.39263">
        <ele>920</ele>
        <time>2022-06-09T17:12:00Z</time>
      </trkpt>
      <trkpt lat="43.79935" lon="6.39273">
        <ele>919</ele>
        <time>2022-06-09T17:12:02Z</time>
      </trkpt>
      <trkpt lat="43.79929" lon="6.39277">
        <ele>919</ele>
        <time>2022-06-09T17:12:04Z</time>
      </trkpt>
      <trkpt lat="43.7991" lon="6.39281">
        <ele>916</ele>
        <time>2022-06-09T17:12:08Z</time>
      </trkpt>
      <trkpt lat="43.79869" lon="6.39277">
        <ele>911</ele>
        <time>2022-06-09T17:12:18Z</time>
      </trkpt>
      <trkpt lat="43.79825" lon="6.39278">
        <ele>905</ele>
        <time>2022-06-09T17:12:28Z</time>
      </trkpt>
      <trkpt lat="43.79819" lon="6.3928">
        <ele>904</ele>
        <time>2022-06-09T17:12:30Z</time>
      </trkpt>
      <trkpt lat="43.79811" lon="6.39289">
        <ele>903</ele>
        <time>2022-06-09T17:12:32Z</time>
      </trkpt>
      <trkpt lat="43.79801" lon="6.39306">
        <ele>902</ele>
        <time>2022-06-09T17:12:36Z</time>
      </trkpt>
      <trkpt lat="43.79793" lon="6.39331">
        <ele>903</ele>
        <time>2022-06-09T17:12:40Z</time>
      </trkpt>
      <trkpt lat="43.7979" lon="6.39399">
        <ele>905</ele>
        <time>2022-06-09T17:12:52Z</time>
      </trkpt>
      <trkpt lat="43.79783" lon="6.39435">
        <ele>906</ele>
        <time>2022-06-09T17:12:58Z</time>
      </trkpt>
      <trkpt lat="43.7976" lon="6.39491">
        <ele>905</ele>
        <time>2022-06-09T17:13:09Z</time>
      </trkpt>
      <trkpt lat="43.79751" lon="6.39505">
        <ele>904</ele>
        <time>2022-06-09T17:13:12Z</time>
      </trkpt>
      <trkpt lat="43.79739" lon="6.39513">
        <ele>902</ele>
        <time>2022-06-09T17:13:15Z</time>
      </trkpt>
      <trkpt lat="43.79725" lon="6.39513">
        <ele>899</ele>
        <time>2022-06-09T17:13:19Z</time>
      </trkpt>
      <trkpt lat="43.79712" lon="6.39506">
        <ele>897</ele>
        <time>2022-06-09T17:13:22Z</time>
      </trkpt>
      <trkpt lat="43.79671" lon="6.39463">
        <ele>887</ele>
        <time>2022-06-09T17:13:34Z</time>
      </trkpt>
      <trkpt lat="43.79666" lon="6.39462">
        <ele>886</ele>
        <time>2022-06-09T17:13:35Z</time>
      </trkpt>
      <trkpt lat="43.79665" lon="6.39458">
        <ele>886</ele>
        <time>2022-06-09T17:13:36Z</time>
      </trkpt>
      <trkpt lat="43.79659" lon="6.39455">
        <ele>885</ele>
        <time>2022-06-09T17:13:37Z</time>
      </trkpt>
      <trkpt lat="43.79651" lon="6.39431">
        <ele>883</ele>
        <time>2022-06-09T17:13:42Z</time>
      </trkpt>
      <trkpt lat="43.79651" lon="6.39412">
        <ele>882</ele>
        <time>2022-06-09T17:13:45Z</time>
      </trkpt>
      <trkpt lat="43.79638" lon="6.39317">
        <ele>873</ele>
        <time>2022-06-09T17:14:01Z</time>
      </trkpt>
      <trkpt lat="43.7963" lon="6.3928">
        <ele>868</ele>
        <time>2022-06-09T17:14:08Z</time>
      </trkpt>
      <trkpt lat="43.7963" lon="6.39254">
        <ele>864</ele>
        <time>2022-06-09T17:14:12Z</time>
      </trkpt>
      <trkpt lat="43.79633" lon="6.39233">
        <ele>860</ele>
        <time>2022-06-09T17:14:16Z</time>
      </trkpt>
      <trkpt lat="43.79629" lon="6.39224">
        <ele>858</ele>
        <time>2022-06-09T17:14:18Z</time>
      </trkpt>
      <trkpt lat="43.79629" lon="6.39218">
        <ele>857</ele>
        <time>2022-06-09T17:14:19Z</time>
      </trkpt>
      <trkpt lat="43.79627" lon="6.3922">
        <ele>858</ele>
        <time>2022-06-09T17:14:19Z</time>
      </trkpt>
      <trkpt lat="43.79629" lon="6.39223">
        <ele>858</ele>
        <time>2022-06-09T17:14:20Z</time>
      </trkpt>
      <trkpt lat="43.79632" lon="6.39219">
        <ele>857</ele>
        <time>2022-06-09T17:14:21Z</time>
      </trkpt>
      <trkpt lat="43.79645" lon="6.39213">
        <ele>856</ele>
        <time>2022-06-09T17:14:24Z</time>
      </trkpt>
      <trkpt lat="43.79654" lon="6.39201">
        <ele>854</ele>
        <time>2022-06-09T17:14:27Z</time>
      </trkpt>
      <trkpt lat="43.79665" lon="6.39194">
        <ele>854</ele>
        <time>2022-06-09T17:14:30Z</time>
      </trkpt>
      <trkpt lat="43.79669" lon="6.39181">
        <ele>852</ele>
        <time>2022-06-09T17:14:32Z</time>
      </trkpt>
      <trkpt lat="43.79672" lon="6.39154">
        <ele>849</ele>
        <time>2022-06-09T17:14:37Z</time>
      </trkpt>
      <trkpt lat="43.79683" lon="6.3912">
        <ele>847</ele>
        <time>2022-06-09T17:14:43Z</time>
      </trkpt>
      <trkpt lat="43.79702" lon="6.39035">
        <ele>839</ele>
        <time>2022-06-09T17:14:58Z</time>
      </trkpt>
      <trkpt lat="43.79713" lon="6.39008">
        <ele>837</ele>
        <time>2022-06-09T17:15:03Z</time>
      </trkpt>
      <trkpt lat="43.79719" lon="6.38983">
        <ele>835</ele>
        <time>2022-06-09T17:15:08Z</time>
      </trkpt>
      <trkpt lat="43.79739" lon="6.38952">
        <ele>835</ele>
        <time>2022-06-09T17:15:15Z</time>
      </trkpt>
      <trkpt lat="43.79748" lon="6.38915">
        <ele>830</ele>
        <time>2022-06-09T17:15:21Z</time>
      </trkpt>
      <trkpt lat="43.79747" lon="6.38906">
        <ele>828</ele>
        <time>2022-06-09T17:15:23Z</time>
      </trkpt>
      <trkpt lat="43.79756" lon="6.38862">
        <ele>823</ele>
        <time>2022-06-09T17:15:31Z</time>
      </trkpt>
      <trkpt lat="43.79747" lon="6.38853">
        <ele>818</ele>
        <time>2022-06-09T17:15:33Z</time>
      </trkpt>
      <trkpt lat="43.79726" lon="6.3886">
        <ele>814</ele>
        <time>2022-06-09T17:15:38Z</time>
      </trkpt>
      <trkpt lat="43.79725" lon="6.38856">
        <ele>813</ele>
        <time>2022-06-09T17:15:39Z</time>
      </trkpt>
      <trkpt lat="43.79729" lon="6.38845">
        <ele>812</ele>
        <time>2022-06-09T17:15:41Z</time>
      </trkpt>
      <trkpt lat="43.79734" lon="6.38808">
        <ele>807</ele>
        <time>2022-06-09T17:15:47Z</time>
      </trkpt>
      <trkpt lat="43.79726" lon="6.38702">
        <ele>790</ele>
        <time>2022-06-09T17:16:05Z</time>
      </trkpt>
      <trkpt lat="43.79741" lon="6.38667">
        <ele>791</ele>
        <time>2022-06-09T17:16:12Z</time>
      </trkpt>
      <trkpt lat="43.79759" lon="6.38548">
        <ele>779</ele>
        <time>2022-06-09T17:16:33Z</time>
      </trkpt>
      <trkpt lat="43.79757" lon="6.38527">
        <ele>776</ele>
        <time>2022-06-09T17:16:36Z</time>
      </trkpt>
      <trkpt lat="43.79758" lon="6.38502">
        <ele>774</ele>
        <time>2022-06-09T17:16:40Z</time>
      </trkpt>
      <trkpt lat="43.79755" lon="6.38482">
        <ele>773</ele>
        <time>2022-06-09T17:16:44Z</time>
      </trkpt>
      <trkpt lat="43.79749" lon="6.38463">
        <ele>771</ele>
        <time>2022-06-09T17:16:47Z</time>
      </trkpt>
      <trkpt lat="43.79746" lon="6.38456">
        <ele>771</ele>
        <time>2022-06-09T17:16:49Z</time>
      </trkpt>
      <trkpt lat="43.79717" lon="6.38423">
        <ele>765</ele>
        <time>2022-06-09T17:16:57Z</time>
      </trkpt>
      <trkpt lat="43.79696" lon="6.38405">
        <ele>761</ele>
        <time>2022-06-09T17:17:03Z</time>
      </trkpt>
      <trkpt lat="43.79665" lon="6.38387">
        <ele>756</ele>
        <time>2022-06-09T17:17:11Z</time>
      </trkpt>
      <trkpt lat="43.79648" lon="6.38372">
        <ele>753</ele>
        <time>2022-06-09T17:17:16Z</time>
      </trkpt>
      <trkpt lat="43.79639" lon="6.38351">
        <ele>753</ele>
        <time>2022-06-09T17:17:20Z</time>
      </trkpt>
      <trkpt lat="43.7964" lon="6.3834">
        <ele>753</ele>
        <time>2022-06-09T17:17:22Z</time>
      </trkpt>
      <trkpt lat="43.79654" lon="6.38309">
        <ele>756</ele>
        <time>2022-06-09T17:17:28Z</time>
      </trkpt>
      <trkpt lat="43.79658" lon="6.3829">
        <ele>758</ele>
        <time>2022-06-09T17:17:31Z</time>
      </trkpt>
      <trkpt lat="43.79655" lon="6.38284">
        <ele>757</ele>
        <time>2022-06-09T17:17:33Z</time>
      </trkpt>
      <trkpt lat="43.79633" lon="6.38265">
        <ele>754</ele>
        <time>2022-06-09T17:17:39Z</time>
      </trkpt>
      <trkpt lat="43.79601" lon="6.38245">
        <ele>748</ele>
        <time>2022-06-09T17:17:47Z</time>
      </trkpt>
      <trkpt lat="43.79578" lon="6.38184">
        <ele>746</ele>
        <time>2022-06-09T17:17:58Z</time>
      </trkpt>
      <trkpt lat="43.79548" lon="6.38129">
        <ele>742</ele>
        <time>2022-06-09T17:18:10Z</time>
      </trkpt>
      <trkpt lat="43.79519" lon="6.38058">
        <ele>738</ele>
        <time>2022-06-09T17:18:24Z</time>
      </trkpt>
      <trkpt lat="43.795" lon="6.38032">
        <ele>734</ele>
        <time>2022-06-09T17:18:30Z</time>
      </trkpt>
      <trkpt lat="43.79495" lon="6.3802">
        <ele>733</ele>
        <time>2022-06-09T17:18:32Z</time>
      </trkpt>
      <trkpt lat="43.7949" lon="6.37985">
        <ele>733</ele>
        <time>2022-06-09T17:18:38Z</time>
      </trkpt>
      <trkpt lat="43.79477" lon="6.37957">
        <ele>730</ele>
        <time>2022-06-09T17:18:44Z</time>
      </trkpt>
      <trkpt lat="43.79473" lon="6.3794">
        <ele>729</ele>
        <time>2022-06-09T17:18:47Z</time>
      </trkpt>
      <trkpt lat="43.79478" lon="6.37883">
        <ele>730</ele>
        <time>2022-06-09T17:18:57Z</time>
      </trkpt>
      <trkpt lat="43.79475" lon="6.37857">
        <ele>729</ele>
        <time>2022-06-09T17:19:01Z</time>
      </trkpt>
      <trkpt lat="43.79476" lon="6.378">
        <ele>728</ele>
        <time>2022-06-09T17:19:11Z</time>
      </trkpt>
      <trkpt lat="43.79477" lon="6.37791">
        <ele>728</ele>
        <time>2022-06-09T17:19:12Z</time>
      </trkpt>
      <trkpt lat="43.7948" lon="6.37787">
        <ele>729</ele>
        <time>2022-06-09T17:19:13Z</time>
      </trkpt>
      <trkpt lat="43.79478" lon="6.378">
        <ele>729</ele>
        <time>2022-06-09T17:19:15Z</time>
      </trkpt>
      <trkpt lat="43.79472" lon="6.37804">
        <ele>727</ele>
        <time>2022-06-09T17:19:17Z</time>
      </trkpt>
      <trkpt lat="43.79461" lon="6.37793">
        <ele>724</ele>
        <time>2022-06-09T17:19:20Z</time>
      </trkpt>
      <trkpt lat="43.7945" lon="6.37771">
        <ele>721</ele>
        <time>2022-06-09T17:19:25Z</time>
      </trkpt>
      <trkpt lat="43.79436" lon="6.37757">
        <ele>716</ele>
        <time>2022-06-09T17:19:29Z</time>
      </trkpt>
      <trkpt lat="43.79427" lon="6.37752">
        <ele>714</ele>
        <time>2022-06-09T17:19:31Z</time>
      </trkpt>
      <trkpt lat="43.7941" lon="6.37746">
        <ele>710</ele>
        <time>2022-06-09T17:19:35Z</time>
      </trkpt>
      <trkpt lat="43.79388" lon="6.37745">
        <ele>707</ele>
        <time>2022-06-09T17:19:40Z</time>
      </trkpt>
      <trkpt lat="43.79363" lon="6.37737">
        <ele>704</ele>
        <time>2022-06-09T17:19:46Z</time>
      </trkpt>
      <trkpt lat="43.79313" lon="6.37726">
        <ele>700</ele>
        <time>2022-06-09T17:19:58Z</time>
      </trkpt>
      <trkpt lat="43.79297" lon="6.37719">
        <ele>700</ele>
        <time>2022-06-09T17:20:02Z</time>
      </trkpt>
      <trkpt lat="43.79296" lon="6.37678">
        <ele>701</ele>
        <time>2022-06-09T17:20:09Z</time>
      </trkpt>
      <trkpt lat="43.79294" lon="6.37673">
        <ele>702</ele>
        <time>2022-06-09T17:20:10Z</time>
      </trkpt>
      <trkpt lat="43.79303" lon="6.37661">
        <ele>702</ele>
        <time>2022-06-09T17:20:13Z</time>
      </trkpt>
      <trkpt lat="43.79312" lon="6.37637">
        <ele>702</ele>
        <time>2022-06-09T17:20:17Z</time>
      </trkpt>
      <trkpt lat="43.79315" lon="6.3761">
        <ele>702</ele>
        <time>2022-06-09T17:20:22Z</time>
      </trkpt>
      <trkpt lat="43.79324" lon="6.37581">
        <ele>702</ele>
        <time>2022-06-09T17:20:27Z</time>
      </trkpt>
      <trkpt lat="43.79327" lon="6.37556">
        <ele>702</ele>
        <time>2022-06-09T17:20:31Z</time>
      </trkpt>
      <trkpt lat="43.79325" lon="6.37539">
        <ele>703</ele>
        <time>2022-06-09T17:20:34Z</time>
      </trkpt>
      <trkpt lat="43.7931" lon="6.375">
        <ele>704</ele>
        <time>2022-06-09T17:20:42Z</time>
      </trkpt>
      <trkpt lat="43.79297" lon="6.37485">
        <ele>706</ele>
        <time>2022-06-09T17:20:46Z</time>
      </trkpt>
      <trkpt lat="43.79282" lon="6.37484">
        <ele>707</ele>
        <time>2022-06-09T17:20:49Z</time>
      </trkpt>
      <trkpt lat="43.79262" lon="6.37476">
        <ele>708</ele>
        <time>2022-06-09T17:20:54Z</time>
      </trkpt>
      <trkpt lat="43.79259" lon="6.37477">
        <ele>709</ele>
        <time>2022-06-09T17:20:55Z</time>
      </trkpt>
      <trkpt lat="43.79263" lon="6.37475">
        <ele>708</ele>
        <time>2022-06-09T17:20:56Z</time>
      </trkpt>
      <trkpt lat="43.79255" lon="6.37465">
        <ele>709</ele>
        <time>2022-06-09T17:20:58Z</time>
      </trkpt>
      <trkpt lat="43.79251" lon="6.37455">
        <ele>710</ele>
        <time>2022-06-09T17:21:00Z</time>
      </trkpt>
      <trkpt lat="43.79238" lon="6.37448">
        <ele>711</ele>
        <time>2022-06-09T17:21:04Z</time>
      </trkpt>
      <trkpt lat="43.79219" lon="6.37428">
        <ele>714</ele>
        <time>2022-06-09T17:21:09Z</time>
      </trkpt>
      <trkpt lat="43.79205" lon="6.37397">
        <ele>717</ele>
        <time>2022-06-09T17:21:15Z</time>
      </trkpt>
      <trkpt lat="43.79182" lon="6.37358">
        <ele>723</ele>
        <time>2022-06-09T17:21:24Z</time>
      </trkpt>
      <trkpt lat="43.79182" lon="6.37354">
        <ele>724</ele>
        <time>2022-06-09T17:21:24Z</time>
      </trkpt>
      <trkpt lat="43.79157" lon="6.37319">
        <ele>731</ele>
        <time>2022-06-09T17:21:33Z</time>
      </trkpt>
      <trkpt lat="43.79151" lon="6.37317">
        <ele>731</ele>
        <time>2022-06-09T17:21:34Z</time>
      </trkpt>
      <trkpt lat="43.79139" lon="6.37305">
        <ele>734</ele>
        <time>2022-06-09T17:21:38Z</time>
      </trkpt>
      <trkpt lat="43.79124" lon="6.37299">
        <ele>736</ele>
        <time>2022-06-09T17:21:41Z</time>
      </trkpt>
      <trkpt lat="43.7911" lon="6.37289">
        <ele>738</ele>
        <time>2022-06-09T17:21:45Z</time>
      </trkpt>
      <trkpt lat="43.7906" lon="6.37235">
        <ele>746</ele>
        <time>2022-06-09T17:22:00Z</time>
      </trkpt>
      <trkpt lat="43.79056" lon="6.3723">
        <ele>747</ele>
        <time>2022-06-09T17:22:01Z</time>
      </trkpt>
      <trkpt lat="43.7905" lon="6.3721">
        <ele>750</ele>
        <time>2022-06-09T17:22:05Z</time>
      </trkpt>
      <trkpt lat="43.79031" lon="6.37183">
        <ele>753</ele>
        <time>2022-06-09T17:22:11Z</time>
      </trkpt>
      <trkpt lat="43.79025" lon="6.37164">
        <ele>755</ele>
        <time>2022-06-09T17:22:15Z</time>
      </trkpt>
      <trkpt lat="43.79018" lon="6.37162">
        <ele>756</ele>
        <time>2022-06-09T17:22:16Z</time>
      </trkpt>
      <trkpt lat="43.79001" lon="6.37134">
        <ele>761</ele>
        <time>2022-06-09T17:22:22Z</time>
      </trkpt>
      <trkpt lat="43.79" lon="6.37122">
        <ele>764</ele>
        <time>2022-06-09T17:22:24Z</time>
      </trkpt>
      <trkpt lat="43.7899" lon="6.3711">
        <ele>767</ele>
        <time>2022-06-09T17:22:28Z</time>
      </trkpt>
      <trkpt lat="43.78975" lon="6.37103">
        <ele>771</ele>
        <time>2022-06-09T17:22:31Z</time>
      </trkpt>
      <trkpt lat="43.78966" lon="6.37101">
        <ele>773</ele>
        <time>2022-06-09T17:22:33Z</time>
      </trkpt>
      <trkpt lat="43.78953" lon="6.37102">
        <ele>775</ele>
        <time>2022-06-09T17:22:36Z</time>
      </trkpt>
      <trkpt lat="43.78944" lon="6.37099">
        <ele>777</ele>
        <time>2022-06-09T17:22:39Z</time>
      </trkpt>
      <trkpt lat="43.78908" lon="6.37069">
        <ele>790</ele>
        <time>2022-06-09T17:22:48Z</time>
      </trkpt>
      <trkpt lat="43.78903" lon="6.37068">
        <ele>791</ele>
        <time>2022-06-09T17:22:50Z</time>
      </trkpt>
      <trkpt lat="43.78891" lon="6.37073">
        <ele>790</ele>
        <time>2022-06-09T17:22:52Z</time>
      </trkpt>
      <trkpt lat="43.78862" lon="6.37073">
        <ele>792</ele>
        <time>2022-06-09T17:22:59Z</time>
      </trkpt>
      <trkpt lat="43.78842" lon="6.37059">
        <ele>798</ele>
        <time>2022-06-09T17:23:04Z</time>
      </trkpt>
      <trkpt lat="43.78839" lon="6.37054">
        <ele>799</ele>
        <time>2022-06-09T17:23:06Z</time>
      </trkpt>
      <trkpt lat="43.78814" lon="6.37048">
        <ele>800</ele>
        <time>2022-06-09T17:23:11Z</time>
      </trkpt>
      <trkpt lat="43.78795" lon="6.37038">
        <ele>801</ele>
        <time>2022-06-09T17:23:16Z</time>
      </trkpt>
      <trkpt lat="43.78786" lon="6.37031">
        <ele>802</ele>
        <time>2022-06-09T17:23:19Z</time>
      </trkpt>
      <trkpt lat="43.78781" lon="6.37022">
        <ele>804</ele>
        <time>2022-06-09T17:23:21Z</time>
      </trkpt>
      <trkpt lat="43.7877" lon="6.37028">
        <ele>802</ele>
        <time>2022-06-09T17:23:23Z</time>
      </trkpt>
      <trkpt lat="43.78756" lon="6.37027">
        <ele>801</ele>
        <time>2022-06-09T17:23:27Z</time>
      </trkpt>
      <trkpt lat="43.7874" lon="6.37015">
        <ele>804</ele>
        <time>2022-06-09T17:23:31Z</time>
      </trkpt>
      <trkpt lat="43.78722" lon="6.36994">
        <ele>810</ele>
        <time>2022-06-09T17:23:36Z</time>
      </trkpt>
      <trkpt lat="43.78707" lon="6.36969">
        <ele>814</ele>
        <time>2022-06-09T17:23:42Z</time>
      </trkpt>
      <trkpt lat="43.78703" lon="6.36953">
        <ele>816</ele>
        <time>2022-06-09T17:23:45Z</time>
      </trkpt>
      <trkpt lat="43.78703" lon="6.3694">
        <ele>818</ele>
        <time>2022-06-09T17:23:47Z</time>
      </trkpt>
      <trkpt lat="43.78698" lon="6.36931">
        <ele>819</ele>
        <time>2022-06-09T17:23:49Z</time>
      </trkpt>
      <trkpt lat="43.78672" lon="6.36907">
        <ele>822</ele>
        <time>2022-06-09T17:23:56Z</time>
      </trkpt>
      <trkpt lat="43.78668" lon="6.369">
        <ele>823</ele>
        <time>2022-06-09T17:23:58Z</time>
      </trkpt>
      <trkpt lat="43.78661" lon="6.36896">
        <ele>824</ele>
        <time>2022-06-09T17:23:59Z</time>
      </trkpt>
      <trkpt lat="43.78661" lon="6.36892">
        <ele>824</ele>
        <time>2022-06-09T17:24:00Z</time>
      </trkpt>
      <trkpt lat="43.78645" lon="6.36871">
        <ele>826</ele>
        <time>2022-06-09T17:24:05Z</time>
      </trkpt>
      <trkpt lat="43.78637" lon="6.36828">
        <ele>831</ele>
        <time>2022-06-09T17:24:13Z</time>
      </trkpt>
      <trkpt lat="43.78628" lon="6.36802">
        <ele>833</ele>
        <time>2022-06-09T17:24:18Z</time>
      </trkpt>
      <trkpt lat="43.78614" lon="6.36791">
        <ele>833</ele>
        <time>2022-06-09T17:24:21Z</time>
      </trkpt>
      <trkpt lat="43.78596" lon="6.36762">
        <ele>835</ele>
        <time>2022-06-09T17:24:28Z</time>
      </trkpt>
      <trkpt lat="43.78592" lon="6.36759">
        <ele>835</ele>
        <time>2022-06-09T17:24:29Z</time>
      </trkpt>
      <trkpt lat="43.78577" lon="6.36721">
        <ele>837</ele>
        <time>2022-06-09T17:24:36Z</time>
      </trkpt>
      <trkpt lat="43.78567" lon="6.36681">
        <ele>839</ele>
        <time>2022-06-09T17:24:43Z</time>
      </trkpt>
      <trkpt lat="43.78561" lon="6.36627">
        <ele>845</ele>
        <time>2022-06-09T17:24:52Z</time>
      </trkpt>
      <trkpt lat="43.78564" lon="6.36613">
        <ele>847</ele>
        <time>2022-06-09T17:24:55Z</time>
      </trkpt>
      <trkpt lat="43.78558" lon="6.36597">
        <ele>848</ele>
        <time>2022-06-09T17:24:58Z</time>
      </trkpt>
      <trkpt lat="43.78541" lon="6.3657">
        <ele>849</ele>
        <time>2022-06-09T17:25:04Z</time>
      </trkpt>
      <trkpt lat="43.78516" lon="6.36553">
        <ele>848</ele>
        <time>2022-06-09T17:25:10Z</time>
      </trkpt>
      <trkpt lat="43.78498" lon="6.36526">
        <ele>849</ele>
        <time>2022-06-09T17:25:17Z</time>
      </trkpt>
      <trkpt lat="43.7849" lon="6.36522">
        <ele>849</ele>
        <time>2022-06-09T17:25:19Z</time>
      </trkpt>
      <trkpt lat="43.78484" lon="6.36514">
        <ele>849</ele>
        <time>2022-06-09T17:25:21Z</time>
      </trkpt>
      <trkpt lat="43.78455" lon="6.36453">
        <ele>855</ele>
        <time>2022-06-09T17:25:33Z</time>
      </trkpt>
      <trkpt lat="43.7844" lon="6.36434">
        <ele>856</ele>
        <time>2022-06-09T17:25:38Z</time>
      </trkpt>
      <trkpt lat="43.78429" lon="6.36424">
        <ele>856</ele>
        <time>2022-06-09T17:25:41Z</time>
      </trkpt>
      <trkpt lat="43.78397" lon="6.36367">
        <ele>857</ele>
        <time>2022-06-09T17:25:53Z</time>
      </trkpt>
      <trkpt lat="43.78389" lon="6.3634">
        <ele>858</ele>
        <time>2022-06-09T17:25:58Z</time>
      </trkpt>
      <trkpt lat="43.78386" lon="6.36321">
        <ele>859</ele>
        <time>2022-06-09T17:26:01Z</time>
      </trkpt>
      <trkpt lat="43.7839" lon="6.36299">
        <ele>863</ele>
        <time>2022-06-09T17:26:05Z</time>
      </trkpt>
      <trkpt lat="43.78391" lon="6.3626">
        <ele>867</ele>
        <time>2022-06-09T17:26:12Z</time>
      </trkpt>
      <trkpt lat="43.7838" lon="6.36218">
        <ele>868</ele>
        <time>2022-06-09T17:26:19Z</time>
      </trkpt>
      <trkpt lat="43.7838" lon="6.36206">
        <ele>869</ele>
        <time>2022-06-09T17:26:21Z</time>
      </trkpt>
      <trkpt lat="43.78376" lon="6.36197">
        <ele>869</ele>
        <time>2022-06-09T17:26:23Z</time>
      </trkpt>
      <trkpt lat="43.78354" lon="6.36169">
        <ele>867</ele>
        <time>2022-06-09T17:26:30Z</time>
      </trkpt>
      <trkpt lat="43.78352" lon="6.36157">
        <ele>868</ele>
        <time>2022-06-09T17:26:32Z</time>
      </trkpt>
      <trkpt lat="43.7834" lon="6.36129">
        <ele>869</ele>
        <time>2022-06-09T17:26:37Z</time>
      </trkpt>
      <trkpt lat="43.78337" lon="6.36115">
        <ele>870</ele>
        <time>2022-06-09T17:26:40Z</time>
      </trkpt>
      <trkpt lat="43.7833" lon="6.36104">
        <ele>870</ele>
        <time>2022-06-09T17:26:42Z</time>
      </trkpt>
      <trkpt lat="43.78315" lon="6.36091">
        <ele>869</ele>
        <time>2022-06-09T17:26:46Z</time>
      </trkpt>
      <trkpt lat="43.78309" lon="6.36081">
        <ele>870</ele>
        <time>2022-06-09T17:26:49Z</time>
      </trkpt>
      <trkpt lat="43.78287" lon="6.36019">
        <ele>875</ele>
        <time>2022-06-09T17:27:00Z</time>
      </trkpt>
      <trkpt lat="43.78282" lon="6.35997">
        <ele>877</ele>
        <time>2022-06-09T17:27:04Z</time>
      </trkpt>
      <trkpt lat="43.78278" lon="6.35993">
        <ele>877</ele>
        <time>2022-06-09T17:27:05Z</time>
      </trkpt>
      <trkpt lat="43.78258" lon="6.3595">
        <ele>877</ele>
        <time>2022-06-09T17:27:14Z</time>
      </trkpt>
      <trkpt lat="43.78241" lon="6.3589">
        <ele>879</ele>
        <time>2022-06-09T17:27:25Z</time>
      </trkpt>
      <trkpt lat="43.78229" lon="6.35857">
        <ele>880</ele>
        <time>2022-06-09T17:27:31Z</time>
      </trkpt>
      <trkpt lat="43.7823" lon="6.35811">
        <ele>883</ele>
        <time>2022-06-09T17:27:39Z</time>
      </trkpt>
      <trkpt lat="43.78228" lon="6.35787">
        <ele>885</ele>
        <time>2022-06-09T17:27:43Z</time>
      </trkpt>
      <trkpt lat="43.78224" lon="6.35762">
        <ele>886</ele>
        <time>2022-06-09T17:27:47Z</time>
      </trkpt>
      <trkpt lat="43.78214" lon="6.35732">
        <ele>886</ele>
        <time>2022-06-09T17:27:53Z</time>
      </trkpt>
      <trkpt lat="43.78212" lon="6.35701">
        <ele>887</ele>
        <time>2022-06-09T17:27:58Z</time>
      </trkpt>
      <trkpt lat="43.78206" lon="6.35665">
        <ele>887</ele>
        <time>2022-06-09T17:28:04Z</time>
      </trkpt>
      <trkpt lat="43.78193" lon="6.35641">
        <ele>887</ele>
        <time>2022-06-09T17:28:09Z</time>
      </trkpt>
      <trkpt lat="43.7817" lon="6.35585">
        <ele>888</ele>
        <time>2022-06-09T17:28:20Z</time>
      </trkpt>
      <trkpt lat="43.7816" lon="6.35537">
        <ele>891</ele>
        <time>2022-06-09T17:28:29Z</time>
      </trkpt>
      <trkpt lat="43.78146" lon="6.35496">
        <ele>893</ele>
        <time>2022-06-09T17:28:36Z</time>
      </trkpt>
      <trkpt lat="43.7814" lon="6.35465">
        <ele>894</ele>
        <time>2022-06-09T17:28:42Z</time>
      </trkpt>
      <trkpt lat="43.78125" lon="6.35422">
        <ele>895</ele>
        <time>2022-06-09T17:28:50Z</time>
      </trkpt>
      <trkpt lat="43.78115" lon="6.35404">
        <ele>895</ele>
        <time>2022-06-09T17:28:54Z</time>
      </trkpt>
      <trkpt lat="43.7811" lon="6.35386">
        <ele>895</ele>
        <time>2022-06-09T17:28:57Z</time>
      </trkpt>
      <trkpt lat="43.78107" lon="6.35362">
        <ele>896</ele>
        <time>2022-06-09T17:29:01Z</time>
      </trkpt>
      <trkpt lat="43.78096" lon="6.35326">
        <ele>896</ele>
        <time>2022-06-09T17:29:08Z</time>
      </trkpt>
      <trkpt lat="43.78085" lon="6.35254">
        <ele>897</ele>
        <time>2022-06-09T17:29:20Z</time>
      </trkpt>
      <trkpt lat="43.78076" lon="6.35226">
        <ele>898</ele>
        <time>2022-06-09T17:29:25Z</time>
      </trkpt>
      <trkpt lat="43.78072" lon="6.3522">
        <ele>897</ele>
        <time>2022-06-09T17:29:26Z</time>
      </trkpt>
      <trkpt lat="43.78062" lon="6.35178">
        <ele>898</ele>
        <time>2022-06-09T17:29:34Z</time>
      </trkpt>
      <trkpt lat="43.78054" lon="6.35163">
        <ele>897</ele>
        <time>2022-06-09T17:29:37Z</time>
      </trkpt>
      <trkpt lat="43.78039" lon="6.35009">
        <ele>900</ele>
        <time>2022-06-09T17:30:03Z</time>
      </trkpt>
      <trkpt lat="43.7804" lon="6.34965">
        <ele>902</ele>
        <time>2022-06-09T17:30:11Z</time>
      </trkpt>
      <trkpt lat="43.78045" lon="6.34932">
        <ele>904</ele>
        <time>2022-06-09T17:30:16Z</time>
      </trkpt>
      <trkpt lat="43.78065" lon="6.34871">
        <ele>906</ele>
        <time>2022-06-09T17:30:28Z</time>
      </trkpt>
      <trkpt lat="43.78185" lon="6.34622">
        <ele>908</ele>
        <time>2022-06-09T17:31:18Z</time>
      </trkpt>
      <trkpt lat="43.78198" lon="6.34573">
        <ele>910</ele>
        <time>2022-06-09T17:31:27Z</time>
      </trkpt>
      <trkpt lat="43.78199" lon="6.34523">
        <ele>911</ele>
        <time>2022-06-09T17:31:35Z</time>
      </trkpt>
      <trkpt lat="43.78197" lon="6.34511">
        <ele>910</ele>
        <time>2022-06-09T17:31:37Z</time>
      </trkpt>
      <trkpt lat="43.78184" lon="6.34487">
        <ele>910</ele>
        <time>2022-06-09T17:31:43Z</time>
      </trkpt>
      <trkpt lat="43.78103" lon="6.34371">
        <ele>915</ele>
        <time>2022-06-09T17:32:10Z</time>
      </trkpt>
      <trkpt lat="43.78062" lon="6.34319">
        <ele>919</ele>
        <time>2022-06-09T17:32:23Z</time>
      </trkpt>
      <trkpt lat="43.78045" lon="6.34289">
        <ele>923</ele>
        <time>2022-06-09T17:32:29Z</time>
      </trkpt>
      <trkpt lat="43.78031" lon="6.34231">
        <ele>928</ele>
        <time>2022-06-09T17:32:39Z</time>
      </trkpt>
      <trkpt lat="43.7803" lon="6.34193">
        <ele>930</ele>
        <time>2022-06-09T17:32:46Z</time>
      </trkpt>
      <trkpt lat="43.78025" lon="6.34182">
        <ele>931</ele>
        <time>2022-06-09T17:32:48Z</time>
      </trkpt>
      <trkpt lat="43.78028" lon="6.34185">
        <ele>931</ele>
        <time>2022-06-09T17:32:49Z</time>
      </trkpt>
      <trkpt lat="43.78025" lon="6.34186">
        <ele>931</ele>
        <time>2022-06-09T17:32:50Z</time>
      </trkpt>
      <trkpt lat="43.7803" lon="6.34185">
        <ele>930</ele>
        <time>2022-06-09T17:32:51Z</time>
      </trkpt>
      <trkpt lat="43.78015" lon="6.34166">
        <ele>933</ele>
        <time>2022-06-09T17:32:56Z</time>
      </trkpt>
      <trkpt lat="43.78012" lon="6.34144">
        <ele>934</ele>
        <time>2022-06-09T17:32:59Z</time>
      </trkpt>
      <trkpt lat="43.78007" lon="6.3413">
        <ele>934</ele>
        <time>2022-06-09T17:33:02Z</time>
      </trkpt>
      <trkpt lat="43.77998" lon="6.34118">
        <ele>935</ele>
        <time>2022-06-09T17:33:05Z</time>
      </trkpt>
      <trkpt lat="43.7799" lon="6.34101">
        <ele>935</ele>
        <time>2022-06-09T17:33:08Z</time>
      </trkpt>
      <trkpt lat="43.77987" lon="6.34091">
        <ele>935</ele>
        <time>2022-06-09T17:33:10Z</time>
      </trkpt>
      <trkpt lat="43.77984" lon="6.34042">
        <ele>935</ele>
        <time>2022-06-09T17:33:18Z</time>
      </trkpt>
      <trkpt lat="43.77977" lon="6.34026">
        <ele>935</ele>
        <time>2022-06-09T17:33:22Z</time>
      </trkpt>
      <trkpt lat="43.77973" lon="6.34008">
        <ele>935</ele>
        <time>2022-06-09T17:33:25Z</time>
      </trkpt>
      <trkpt lat="43.77961" lon="6.33991">
        <ele>935</ele>
        <time>2022-06-09T17:33:29Z</time>
      </trkpt>
      <trkpt lat="43.77965" lon="6.33977">
        <ele>936</ele>
        <time>2022-06-09T17:33:31Z</time>
      </trkpt>
      <trkpt lat="43.7799" lon="6.33928">
        <ele>938</ele>
        <time>2022-06-09T17:33:41Z</time>
      </trkpt>
      <trkpt lat="43.77996" lon="6.33907">
        <ele>940</ele>
        <time>2022-06-09T17:33:45Z</time>
      </trkpt>
      <trkpt lat="43.78006" lon="6.33864">
        <ele>944</ele>
        <time>2022-06-09T17:33:53Z</time>
      </trkpt>
      <trkpt lat="43.78009" lon="6.33806">
        <ele>949</ele>
        <time>2022-06-09T17:34:03Z</time>
      </trkpt>
      <trkpt lat="43.78004" lon="6.33809">
        <ele>949</ele>
        <time>2022-06-09T17:34:04Z</time>
      </trkpt>
      <trkpt lat="43.77991" lon="6.33803">
        <ele>949</ele>
        <time>2022-06-09T17:34:07Z</time>
      </trkpt>
      <trkpt lat="43.77984" lon="6.33794">
        <ele>949</ele>
        <time>2022-06-09T17:34:09Z</time>
      </trkpt>
      <trkpt lat="43.77979" lon="6.33779">
        <ele>951</ele>
        <time>2022-06-09T17:34:12Z</time>
      </trkpt>
      <trkpt lat="43.77982" lon="6.33775">
        <ele>951</ele>
        <time>2022-06-09T17:34:13Z</time>
      </trkpt>
      <trkpt lat="43.77979" lon="6.33757">
        <ele>952</ele>
        <time>2022-06-09T17:34:16Z</time>
      </trkpt>
      <trkpt lat="43.77973" lon="6.33746">
        <ele>953</ele>
        <time>2022-06-09T17:34:19Z</time>
      </trkpt>
      <trkpt lat="43.77958" lon="6.3373">
        <ele>954</ele>
        <time>2022-06-09T17:34:23Z</time>
      </trkpt>
      <trkpt lat="43.77942" lon="6.33696">
        <ele>958</ele>
        <time>2022-06-09T17:34:30Z</time>
      </trkpt>
      <trkpt lat="43.77933" lon="6.33684">
        <ele>959</ele>
        <time>2022-06-09T17:34:33Z</time>
      </trkpt>
      <trkpt lat="43.77921" lon="6.33657">
        <ele>962</ele>
        <time>2022-06-09T17:34:38Z</time>
      </trkpt>
      <trkpt lat="43.77903" lon="6.33594">
        <ele>970</ele>
        <time>2022-06-09T17:34:49Z</time>
      </trkpt>
      <trkpt lat="43.77887" lon="6.33558">
        <ele>972</ele>
        <time>2022-06-09T17:34:57Z</time>
      </trkpt>
      <trkpt lat="43.77883" lon="6.33531">
        <ele>975</ele>
        <time>2022-06-09T17:35:01Z</time>
      </trkpt>
      <trkpt lat="43.77886" lon="6.33516">
        <ele>977</ele>
        <time>2022-06-09T17:35:04Z</time>
      </trkpt>
      <trkpt lat="43.77896" lon="6.33504">
        <ele>979</ele>
        <time>2022-06-09T17:35:07Z</time>
      </trkpt>
      <trkpt lat="43.77914" lon="6.33513">
        <ele>979</ele>
        <time>2022-06-09T17:35:11Z</time>
      </trkpt>
      <trkpt lat="43.77919" lon="6.33511">
        <ele>980</ele>
        <time>2022-06-09T17:35:13Z</time>
      </trkpt>
      <trkpt lat="43.77966" lon="6.33444">
        <ele>991</ele>
        <time>2022-06-09T17:35:28Z</time>
      </trkpt>
      <trkpt lat="43.7798" lon="6.33419">
        <ele>995</ele>
        <time>2022-06-09T17:35:34Z</time>
      </trkpt>
      <trkpt lat="43.78003" lon="6.33362">
        <ele>1001</ele>
        <time>2022-06-09T17:35:45Z</time>
      </trkpt>
      <trkpt lat="43.78007" lon="6.33345">
        <ele>1002</ele>
        <time>2022-06-09T17:35:48Z</time>
      </trkpt>
      <trkpt lat="43.78007" lon="6.33323">
        <ele>1004</ele>
        <time>2022-06-09T17:35:51Z</time>
      </trkpt>
      <trkpt lat="43.78014" lon="6.33301">
        <ele>1008</ele>
        <time>2022-06-09T17:35:56Z</time>
      </trkpt>
      <trkpt lat="43.78018" lon="6.33297">
        <ele>1009</ele>
        <time>2022-06-09T17:35:57Z</time>
      </trkpt>
      <trkpt lat="43.78021" lon="6.33282">
        <ele>1012</ele>
        <time>2022-06-09T17:35:59Z</time>
      </trkpt>
      <trkpt lat="43.78005" lon="6.33254">
        <ele>1013</ele>
        <time>2022-06-09T17:36:05Z</time>
      </trkpt>
      <trkpt lat="43.77993" lon="6.33246">
        <ele>1013</ele>
        <time>2022-06-09T17:36:08Z</time>
      </trkpt>
      <trkpt lat="43.77991" lon="6.33247">
        <ele>1013</ele>
        <time>2022-06-09T17:36:09Z</time>
      </trkpt>
      <trkpt lat="43.77992" lon="6.33245">
        <ele>1013</ele>
        <time>2022-06-09T17:36:09Z</time>
      </trkpt>
      <trkpt lat="43.77962" lon="6.33239">
        <ele>1013</ele>
        <time>2022-06-09T17:36:16Z</time>
      </trkpt>
      <trkpt lat="43.77939" lon="6.33226">
        <ele>1014</ele>
        <time>2022-06-09T17:36:22Z</time>
      </trkpt>
      <trkpt lat="43.77929" lon="6.33225">
        <ele>1014</ele>
        <time>2022-06-09T17:36:25Z</time>
      </trkpt>
      <trkpt lat="43.77904" lon="6.33217">
        <ele>1015</ele>
        <time>2022-06-09T17:36:31Z</time>
      </trkpt>
      <trkpt lat="43.77885" lon="6.33199">
        <ele>1017</ele>
        <time>2022-06-09T17:36:36Z</time>
      </trkpt>
      <trkpt lat="43.77859" lon="6.33182">
        <ele>1019</ele>
        <time>2022-06-09T17:36:43Z</time>
      </trkpt>
      <trkpt lat="43.77847" lon="6.33177">
        <ele>1020</ele>
        <time>2022-06-09T17:36:46Z</time>
      </trkpt>
      <trkpt lat="43.77823" lon="6.33174">
        <ele>1021</ele>
        <time>2022-06-09T17:36:51Z</time>
      </trkpt>
      <trkpt lat="43.77819" lon="6.33177">
        <ele>1020</ele>
        <time>2022-06-09T17:36:52Z</time>
      </trkpt>
      <trkpt lat="43.77807" lon="6.33179">
        <ele>1021</ele>
        <time>2022-06-09T17:36:55Z</time>
      </trkpt>
      <trkpt lat="43.77801" lon="6.33173">
        <ele>1021</ele>
        <time>2022-06-09T17:36:57Z</time>
      </trkpt>
      <trkpt lat="43.77794" lon="6.33171">
        <ele>1022</ele>
        <time>2022-06-09T17:36:58Z</time>
      </trkpt>
      <trkpt lat="43.77782" lon="6.33162">
        <ele>1024</ele>
        <time>2022-06-09T17:37:02Z</time>
      </trkpt>
      <trkpt lat="43.7778" lon="6.33153">
        <ele>1026</ele>
        <time>2022-06-09T17:37:03Z</time>
      </trkpt>
      <trkpt lat="43.7779" lon="6.33116">
        <ele>1033</ele>
        <time>2022-06-09T17:37:10Z</time>
      </trkpt>
      <trkpt lat="43.77807" lon="6.331">
        <ele>1036</ele>
        <time>2022-06-09T17:37:15Z</time>
      </trkpt>
      <trkpt lat="43.77845" lon="6.33085">
        <ele>1039</ele>
        <time>2022-06-09T17:37:24Z</time>
      </trkpt>
      <trkpt lat="43.77869" lon="6.33081">
        <ele>1038</ele>
        <time>2022-06-09T17:37:30Z</time>
      </trkpt>
      <trkpt lat="43.77878" lon="6.33076">
        <ele>1039</ele>
        <time>2022-06-09T17:37:32Z</time>
      </trkpt>
      <trkpt lat="43.77884" lon="6.33068">
        <ele>1041</ele>
        <time>2022-06-09T17:37:34Z</time>
      </trkpt>
      <trkpt lat="43.77929" lon="6.33052">
        <ele>1046</ele>
        <time>2022-06-09T17:37:45Z</time>
      </trkpt>
      <trkpt lat="43.77944" lon="6.33043">
        <ele>1049</ele>
        <time>2022-06-09T17:37:48Z</time>
      </trkpt>
      <trkpt lat="43.7795" lon="6.33043">
        <ele>1050</ele>
        <time>2022-06-09T17:37:50Z</time>
      </trkpt>
      <trkpt lat="43.77963" lon="6.33036">
        <ele>1053</ele>
        <time>2022-06-09T17:37:53Z</time>
      </trkpt>
      <trkpt lat="43.77988" lon="6.3303">
        <ele>1056</ele>
        <time>2022-06-09T17:37:59Z</time>
      </trkpt>
      <trkpt lat="43.78017" lon="6.33033">
        <ele>1056</ele>
        <time>2022-06-09T17:38:06Z</time>
      </trkpt>
      <trkpt lat="43.78031" lon="6.33036">
        <ele>1056</ele>
        <time>2022-06-09T17:38:09Z</time>
      </trkpt>
      <trkpt lat="43.78031" lon="6.33038">
        <ele>1056</ele>
        <time>2022-06-09T17:38:10Z</time>
      </trkpt>
      <trkpt lat="43.78042" lon="6.33036">
        <ele>1057</ele>
        <time>2022-06-09T17:38:12Z</time>
      </trkpt>
      <trkpt lat="43.78075" lon="6.33037">
        <ele>1059</ele>
        <time>2022-06-09T17:38:20Z</time>
      </trkpt>
      <trkpt lat="43.78091" lon="6.33026">
        <ele>1064</ele>
        <time>2022-06-09T17:38:24Z</time>
      </trkpt>
      <trkpt lat="43.78111" lon="6.33021">
        <ele>1068</ele>
        <time>2022-06-09T17:38:29Z</time>
      </trkpt>
      <trkpt lat="43.78123" lon="6.33022">
        <ele>1070</ele>
        <time>2022-06-09T17:38:32Z</time>
      </trkpt>
      <trkpt lat="43.7813" lon="6.33027">
        <ele>1070</ele>
        <time>2022-06-09T17:38:33Z</time>
      </trkpt>
      <trkpt lat="43.7815" lon="6.33084">
        <ele>1064</ele>
        <time>2022-06-09T17:38:44Z</time>
      </trkpt>
      <trkpt lat="43.78153" lon="6.33089">
        <ele>1064</ele>
        <time>2022-06-09T17:38:45Z</time>
      </trkpt>
      <trkpt lat="43.78162" lon="6.33094">
        <ele>1066</ele>
        <time>2022-06-09T17:38:47Z</time>
      </trkpt>
      <trkpt lat="43.78177" lon="6.33114">
        <ele>1069</ele>
        <time>2022-06-09T17:38:52Z</time>
      </trkpt>
      <trkpt lat="43.78186" lon="6.33146">
        <ele>1068</ele>
        <time>2022-06-09T17:38:58Z</time>
      </trkpt>
      <trkpt lat="43.78188" lon="6.33119">
        <ele>1072</ele>
        <time>2022-06-09T17:39:03Z</time>
      </trkpt>
      <trkpt lat="43.78178" lon="6.33078">
        <ele>1073</ele>
        <time>2022-06-09T17:39:10Z</time>
      </trkpt>
      <trkpt lat="43.78175" lon="6.33039">
        <ele>1078</ele>
        <time>2022-06-09T17:39:17Z</time>
      </trkpt>
      <trkpt lat="43.78176" lon="6.33008">
        <ele>1083</ele>
        <time>2022-06-09T17:39:22Z</time>
      </trkpt>
      <trkpt lat="43.78173" lon="6.32994">
        <ele>1084</ele>
        <time>2022-06-09T17:39:24Z</time>
      </trkpt>
      <trkpt lat="43.78174" lon="6.32974">
        <ele>1090</ele>
        <time>2022-06-09T17:39:28Z</time>
      </trkpt>
      <trkpt lat="43.78171" lon="6.32966">
        <ele>1090</ele>
        <time>2022-06-09T17:39:29Z</time>
      </trkpt>
      <trkpt lat="43.7817" lon="6.32945">
        <ele>1095</ele>
        <time>2022-06-09T17:39:33Z</time>
      </trkpt>
      <trkpt lat="43.78167" lon="6.32936">
        <ele>1096</ele>
        <time>2022-06-09T17:39:34Z</time>
      </trkpt>
      <trkpt lat="43.78164" lon="6.32908">
        <ele>1103</ele>
        <time>2022-06-09T17:39:39Z</time>
      </trkpt>
      <trkpt lat="43.78161" lon="6.32904">
        <ele>1104</ele>
        <time>2022-06-09T17:39:40Z</time>
      </trkpt>
      <trkpt lat="43.78158" lon="6.3289">
        <ele>1107</ele>
        <time>2022-06-09T17:39:43Z</time>
      </trkpt>
      <trkpt lat="43.78143" lon="6.32871">
        <ele>1110</ele>
        <time>2022-06-09T17:39:47Z</time>
      </trkpt>
      <trkpt lat="43.78132" lon="6.32846">
        <ele>1116</ele>
        <time>2022-06-09T17:39:52Z</time>
      </trkpt>
      <trkpt lat="43.78126" lon="6.32838">
        <ele>1117</ele>
        <time>2022-06-09T17:39:54Z</time>
      </trkpt>
      <trkpt lat="43.7812" lon="6.32837">
        <ele>1117</ele>
        <time>2022-06-09T17:39:56Z</time>
      </trkpt>
      <trkpt lat="43.78117" lon="6.32834">
        <ele>1118</ele>
        <time>2022-06-09T17:39:56Z</time>
      </trkpt>
      <trkpt lat="43.78132" lon="6.32828">
        <ele>1121</ele>
        <time>2022-06-09T17:40:00Z</time>
      </trkpt>
      <trkpt lat="43.78149" lon="6.3283">
        <ele>1122</ele>
        <time>2022-06-09T17:40:04Z</time>
      </trkpt>
      <trkpt lat="43.78139" lon="6.32806">
        <ele>1128</ele>
        <time>2022-06-09T17:40:09Z</time>
      </trkpt>
      <trkpt lat="43.78144" lon="6.32802">
        <ele>1130</ele>
        <time>2022-06-09T17:40:10Z</time>
      </trkpt>
      <trkpt lat="43.7817" lon="6.32812">
        <ele>1131</ele>
        <time>2022-06-09T17:40:16Z</time>
      </trkpt>
      <trkpt lat="43.7818" lon="6.32819">
        <ele>1133</ele>
        <time>2022-06-09T17:40:19Z</time>
      </trkpt>
      <trkpt lat="43.78181" lon="6.32822">
        <ele>1132</ele>
        <time>2022-06-09T17:40:20Z</time>
      </trkpt>
      <trkpt lat="43.78185" lon="6.32815">
        <ele>1136</ele>
        <time>2022-06-09T17:40:21Z</time>
      </trkpt>
      <trkpt lat="43.78162" lon="6.32763">
        <ele>1145</ele>
        <time>2022-06-09T17:40:31Z</time>
      </trkpt>
      <trkpt lat="43.7816" lon="6.32753">
        <ele>1148</ele>
        <time>2022-06-09T17:40:33Z</time>
      </trkpt>
      <trkpt lat="43.78147" lon="6.32736">
        <ele>1152</ele>
        <time>2022-06-09T17:40:37Z</time>
      </trkpt>
      <trkpt lat="43.78144" lon="6.32736">
        <ele>1151</ele>
        <time>2022-06-09T17:40:38Z</time>
      </trkpt>
      <trkpt lat="43.78127" lon="6.32718">
        <ele>1154</ele>
        <time>2022-06-09T17:40:43Z</time>
      </trkpt>
      <trkpt lat="43.78122" lon="6.32716">
        <ele>1154</ele>
        <time>2022-06-09T17:40:44Z</time>
      </trkpt>
      <trkpt lat="43.78101" lon="6.32691">
        <ele>1158</ele>
        <time>2022-06-09T17:40:51Z</time>
      </trkpt>
      <trkpt lat="43.78102" lon="6.32688">
        <ele>1159</ele>
        <time>2022-06-09T17:40:51Z</time>
      </trkpt>
      <trkpt lat="43.78108" lon="6.32688">
        <ele>1160</ele>
        <time>2022-06-09T17:40:53Z</time>
      </trkpt>
      <trkpt lat="43.78116" lon="6.32682">
        <ele>1164</ele>
        <time>2022-06-09T17:40:55Z</time>
      </trkpt>
      <trkpt lat="43.78125" lon="6.32681">
        <ele>1166</ele>
        <time>2022-06-09T17:40:57Z</time>
      </trkpt>
      <trkpt lat="43.78124" lon="6.32673">
        <ele>1169</ele>
        <time>2022-06-09T17:40:58Z</time>
      </trkpt>
      <trkpt lat="43.78091" lon="6.32646">
        <ele>1169</ele>
        <time>2022-06-09T17:41:07Z</time>
      </trkpt>
      <trkpt lat="43.78081" lon="6.32635">
        <ele>1171</ele>
        <time>2022-06-09T17:41:10Z</time>
      </trkpt>
      <trkpt lat="43.78076" lon="6.32622">
        <ele>1175</ele>
        <time>2022-06-09T17:41:13Z</time>
      </trkpt>
      <trkpt lat="43.78054" lon="6.32604">
        <ele>1180</ele>
        <time>2022-06-09T17:41:19Z</time>
      </trkpt>
      <trkpt lat="43.78044" lon="6.32604">
        <ele>1180</ele>
        <time>2022-06-09T17:41:21Z</time>
      </trkpt>
      <trkpt lat="43.78025" lon="6.32617">
        <ele>1178</ele>
        <time>2022-06-09T17:41:26Z</time>
      </trkpt>
      <trkpt lat="43.78011" lon="6.32611">
        <ele>1180</ele>
        <time>2022-06-09T17:41:29Z</time>
      </trkpt>
      <trkpt lat="43.77981" lon="6.32582">
        <ele>1185</ele>
        <time>2022-06-09T17:41:38Z</time>
      </trkpt>
      <trkpt lat="43.77966" lon="6.32577">
        <ele>1186</ele>
        <time>2022-06-09T17:41:41Z</time>
      </trkpt>
      <trkpt lat="43.77965" lon="6.32558">
        <ele>1189</ele>
        <time>2022-06-09T17:41:45Z</time>
      </trkpt>
      <trkpt lat="43.77943" lon="6.32532">
        <ele>1193</ele>
        <time>2022-06-09T17:41:51Z</time>
      </trkpt>
      <trkpt lat="43.77933" lon="6.32511">
        <ele>1195</ele>
        <time>2022-06-09T17:41:56Z</time>
      </trkpt>
      <trkpt lat="43.77923" lon="6.32503">
        <ele>1196</ele>
        <time>2022-06-09T17:41:58Z</time>
      </trkpt>
      <trkpt lat="43.77903" lon="6.32464">
        <ele>1202</ele>
        <time>2022-06-09T17:42:06Z</time>
      </trkpt>
      <trkpt lat="43.77896" lon="6.32459">
        <ele>1202</ele>
        <time>2022-06-09T17:42:08Z</time>
      </trkpt>
      <trkpt lat="43.77887" lon="6.32446">
        <ele>1203</ele>
        <time>2022-06-09T17:42:11Z</time>
      </trkpt>
      <trkpt lat="43.77884" lon="6.32446">
        <ele>1203</ele>
        <time>2022-06-09T17:42:12Z</time>
      </trkpt>
      <trkpt lat="43.77863" lon="6.32412">
        <ele>1206</ele>
        <time>2022-06-09T17:42:20Z</time>
      </trkpt>
      <trkpt lat="43.77844" lon="6.32371">
        <ele>1212</ele>
        <time>2022-06-09T17:42:28Z</time>
      </trkpt>
      <trkpt lat="43.77831" lon="6.32349">
        <ele>1213</ele>
        <time>2022-06-09T17:42:33Z</time>
      </trkpt>
      <trkpt lat="43.77822" lon="6.32305">
        <ele>1220</ele>
        <time>2022-06-09T17:42:40Z</time>
      </trkpt>
      <trkpt lat="43.77811" lon="6.32275">
        <ele>1223</ele>
        <time>2022-06-09T17:42:46Z</time>
      </trkpt>
      <trkpt lat="43.77812" lon="6.32264">
        <ele>1226</ele>
        <time>2022-06-09T17:42:48Z</time>
      </trkpt>
      <trkpt lat="43.77808" lon="6.32253">
        <ele>1227</ele>
        <time>2022-06-09T17:42:50Z</time>
      </trkpt>
      <trkpt lat="43.77785" lon="6.32211">
        <ele>1228</ele>
        <time>2022-06-09T17:42:59Z</time>
      </trkpt>
      <trkpt lat="43.77781" lon="6.32194">
        <ele>1230</ele>
        <time>2022-06-09T17:43:02Z</time>
      </trkpt>
      <trkpt lat="43.77769" lon="6.32173">
        <ele>1230</ele>
        <time>2022-06-09T17:43:06Z</time>
      </trkpt>
      <trkpt lat="43.77767" lon="6.32162">
        <ele>1232</ele>
        <time>2022-06-09T17:43:08Z</time>
      </trkpt>
      <trkpt lat="43.77757" lon="6.32146">
        <ele>1233</ele>
        <time>2022-06-09T17:43:12Z</time>
      </trkpt>
      <trkpt lat="43.77749" lon="6.32106">
        <ele>1239</ele>
        <time>2022-06-09T17:43:19Z</time>
      </trkpt>
      <trkpt lat="43.77743" lon="6.32099">
        <ele>1239</ele>
        <time>2022-06-09T17:43:21Z</time>
      </trkpt>
      <trkpt lat="43.77742" lon="6.32082">
        <ele>1242</ele>
        <time>2022-06-09T17:43:24Z</time>
      </trkpt>
      <trkpt lat="43.77732" lon="6.32068">
        <ele>1242</ele>
        <time>2022-06-09T17:43:27Z</time>
      </trkpt>
      <trkpt lat="43.77727" lon="6.32054">
        <ele>1244</ele>
        <time>2022-06-09T17:43:29Z</time>
      </trkpt>
      <trkpt lat="43.77724" lon="6.32037">
        <ele>1247</ele>
        <time>2022-06-09T17:43:32Z</time>
      </trkpt>
      <trkpt lat="43.77709" lon="6.31989">
        <ele>1253</ele>
        <time>2022-06-09T17:43:41Z</time>
      </trkpt>
      <trkpt lat="43.77699" lon="6.31972">
        <ele>1253</ele>
        <time>2022-06-09T17:43:45Z</time>
      </trkpt>
      <trkpt lat="43.77693" lon="6.31956">
        <ele>1255</ele>
        <time>2022-06-09T17:43:48Z</time>
      </trkpt>
      <trkpt lat="43.77688" lon="6.31929">
        <ele>1260</ele>
        <time>2022-06-09T17:43:53Z</time>
      </trkpt>
      <trkpt lat="43.77678" lon="6.31914">
        <ele>1259</ele>
        <time>2022-06-09T17:43:56Z</time>
      </trkpt>
      <trkpt lat="43.77674" lon="6.31912">
        <ele>1257</ele>
        <time>2022-06-09T17:43:57Z</time>
      </trkpt>
      <trkpt lat="43.77653" lon="6.31885">
        <ele>1255</ele>
        <time>2022-06-09T17:44:04Z</time>
      </trkpt>
      <trkpt lat="43.77643" lon="6.31863">
        <ele>1257</ele>
        <time>2022-06-09T17:44:08Z</time>
      </trkpt>
      <trkpt lat="43.77638" lon="6.31858">
        <ele>1256</ele>
        <time>2022-06-09T17:44:10Z</time>
      </trkpt>
      <trkpt lat="43.77624" lon="6.31812">
        <ele>1262</ele>
        <time>2022-06-09T17:44:18Z</time>
      </trkpt>
      <trkpt lat="43.77621" lon="6.31794">
        <ele>1264</ele>
        <time>2022-06-09T17:44:21Z</time>
      </trkpt>
      <trkpt lat="43.77622" lon="6.31764">
        <ele>1272</ele>
        <time>2022-06-09T17:44:26Z</time>
      </trkpt>
      <trkpt lat="43.77629" lon="6.31736">
        <ele>1281</ele>
        <time>2022-06-09T17:44:31Z</time>
      </trkpt>
      <trkpt lat="43.77623" lon="6.31702">
        <ele>1288</ele>
        <time>2022-06-09T17:44:37Z</time>
      </trkpt>
      <trkpt lat="43.77613" lon="6.31686">
        <ele>1288</ele>
        <time>2022-06-09T17:44:41Z</time>
      </trkpt>
      <trkpt lat="43.77602" lon="6.31678">
        <ele>1286</ele>
        <time>2022-06-09T17:44:44Z</time>
      </trkpt>
      <trkpt lat="43.77582" lon="6.31644">
        <ele>1287</ele>
        <time>2022-06-09T17:44:51Z</time>
      </trkpt>
      <trkpt lat="43.77578" lon="6.31644">
        <ele>1286</ele>
        <time>2022-06-09T17:44:52Z</time>
      </trkpt>
      <trkpt lat="43.77573" lon="6.3164">
        <ele>1284</ele>
        <time>2022-06-09T17:44:53Z</time>
      </trkpt>
      <trkpt lat="43.77559" lon="6.31615">
        <ele>1284</ele>
        <time>2022-06-09T17:44:59Z</time>
      </trkpt>
      <trkpt lat="43.7755" lon="6.31587">
        <ele>1287</ele>
        <time>2022-06-09T17:45:04Z</time>
      </trkpt>
      <trkpt lat="43.77545" lon="6.31538">
        <ele>1297</ele>
        <time>2022-06-09T17:45:12Z</time>
      </trkpt>
      <trkpt lat="43.77535" lon="6.31511">
        <ele>1299</ele>
        <time>2022-06-09T17:45:17Z</time>
      </trkpt>
      <trkpt lat="43.77533" lon="6.31474">
        <ele>1302</ele>
        <time>2022-06-09T17:45:24Z</time>
      </trkpt>
      <trkpt lat="43.77537" lon="6.31461">
        <ele>1305</ele>
        <time>2022-06-09T17:45:26Z</time>
      </trkpt>
      <trkpt lat="43.77541" lon="6.31425">
        <ele>1310</ele>
        <time>2022-06-09T17:45:32Z</time>
      </trkpt>
      <trkpt lat="43.7755" lon="6.31407">
        <ele>1315</ele>
        <time>2022-06-09T17:45:36Z</time>
      </trkpt>
      <trkpt lat="43.77554" lon="6.31393">
        <ele>1317</ele>
        <time>2022-06-09T17:45:38Z</time>
      </trkpt>
      <trkpt lat="43.77553" lon="6.31385">
        <ele>1315</ele>
        <time>2022-06-09T17:45:40Z</time>
      </trkpt>
      <trkpt lat="43.7756" lon="6.3137">
        <ele>1319</ele>
        <time>2022-06-09T17:45:43Z</time>
      </trkpt>
      <trkpt lat="43.77561" lon="6.31357">
        <ele>1318</ele>
        <time>2022-06-09T17:45:45Z</time>
      </trkpt>
      <trkpt lat="43.77566" lon="6.31353">
        <ele>1321</ele>
        <time>2022-06-09T17:45:46Z</time>
      </trkpt>
      <trkpt lat="43.77573" lon="6.31294">
        <ele>1320</ele>
        <time>2022-06-09T17:45:56Z</time>
      </trkpt>
      <trkpt lat="43.776" lon="6.31181">
        <ele>1326</ele>
        <time>2022-06-09T17:46:16Z</time>
      </trkpt>
      <trkpt lat="43.77615" lon="6.31132">
        <ele>1330</ele>
        <time>2022-06-09T17:46:25Z</time>
      </trkpt>
      <trkpt lat="43.77621" lon="6.31118">
        <ele>1332</ele>
        <time>2022-06-09T17:46:28Z</time>
      </trkpt>
      <trkpt lat="43.77632" lon="6.31102">
        <ele>1336</ele>
        <time>2022-06-09T17:46:32Z</time>
      </trkpt>
      <trkpt lat="43.77635" lon="6.31086">
        <ele>1335</ele>
        <time>2022-06-09T17:46:35Z</time>
      </trkpt>
      <trkpt lat="43.77647" lon="6.31072">
        <ele>1340</ele>
        <time>2022-06-09T17:46:38Z</time>
      </trkpt>
      <trkpt lat="43.7765" lon="6.31064">
        <ele>1340</ele>
        <time>2022-06-09T17:46:40Z</time>
      </trkpt>
      <trkpt lat="43.77656" lon="6.31057">
        <ele>1343</ele>
        <time>2022-06-09T17:46:42Z</time>
      </trkpt>
      <trkpt lat="43.77658" lon="6.31049">
        <ele>1342</ele>
        <time>2022-06-09T17:46:43Z</time>
      </trkpt>
      <trkpt lat="43.77669" lon="6.31036">
        <ele>1346</ele>
        <time>2022-06-09T17:46:46Z</time>
      </trkpt>
      <trkpt lat="43.77674" lon="6.31023">
        <ele>1346</ele>
        <time>2022-06-09T17:46:49Z</time>
      </trkpt>
      <trkpt lat="43.77699" lon="6.3101">
        <ele>1357</ele>
        <time>2022-06-09T17:46:55Z</time>
      </trkpt>
      <trkpt lat="43.77707" lon="6.30997">
        <ele>1359</ele>
        <time>2022-06-09T17:46:58Z</time>
      </trkpt>
      <trkpt lat="43.77718" lon="6.30993">
        <ele>1365</ele>
        <time>2022-06-09T17:47:01Z</time>
      </trkpt>
      <trkpt lat="43.77736" lon="6.30966">
        <ele>1374</ele>
        <time>2022-06-09T17:47:07Z</time>
      </trkpt>
      <trkpt lat="43.77746" lon="6.30956">
        <ele>1378</ele>
        <time>2022-06-09T17:47:10Z</time>
      </trkpt>
      <trkpt lat="43.77754" lon="6.3093">
        <ele>1380</ele>
        <time>2022-06-09T17:47:14Z</time>
      </trkpt>
      <trkpt lat="43.77743" lon="6.309">
        <ele>1374</ele>
        <time>2022-06-09T17:47:20Z</time>
      </trkpt>
      <trkpt lat="43.7774" lon="6.3087">
        <ele>1372</ele>
        <time>2022-06-09T17:47:25Z</time>
      </trkpt>
      <trkpt lat="43.77748" lon="6.30852">
        <ele>1375</ele>
        <time>2022-06-09T17:47:29Z</time>
      </trkpt>
      <trkpt lat="43.7776" lon="6.30838">
        <ele>1379</ele>
        <time>2022-06-09T17:47:33Z</time>
      </trkpt>
      <trkpt lat="43.77777" lon="6.30806">
        <ele>1378</ele>
        <time>2022-06-09T17:47:39Z</time>
      </trkpt>
      <trkpt lat="43.77803" lon="6.30775">
        <ele>1379</ele>
        <time>2022-06-09T17:47:47Z</time>
      </trkpt>
      <trkpt lat="43.77819" lon="6.30751">
        <ele>1378</ele>
        <time>2022-06-09T17:47:53Z</time>
      </trkpt>
      <trkpt lat="43.77829" lon="6.30746">
        <ele>1379</ele>
        <time>2022-06-09T17:47:55Z</time>
      </trkpt>
      <trkpt lat="43.77841" lon="6.30735">
        <ele>1379</ele>
        <time>2022-06-09T17:47:59Z</time>
      </trkpt>
      <trkpt lat="43.77865" lon="6.30722">
        <ele>1379</ele>
        <time>2022-06-09T17:48:05Z</time>
      </trkpt>
      <trkpt lat="43.7788" lon="6.30719">
        <ele>1380</ele>
        <time>2022-06-09T17:48:08Z</time>
      </trkpt>
      <trkpt lat="43.77892" lon="6.30711">
        <ele>1380</ele>
        <time>2022-06-09T17:48:11Z</time>
      </trkpt>
      <trkpt lat="43.77896" lon="6.30712">
        <ele>1380</ele>
        <time>2022-06-09T17:48:12Z</time>
      </trkpt>
      <trkpt lat="43.77899" lon="6.30709">
        <ele>1380</ele>
        <time>2022-06-09T17:48:13Z</time>
      </trkpt>
      <trkpt lat="43.77923" lon="6.30709">
        <ele>1383</ele>
        <time>2022-06-09T17:48:19Z</time>
      </trkpt>
      <trkpt lat="43.7794" lon="6.30704">
        <ele>1383</ele>
        <time>2022-06-09T17:48:23Z</time>
      </trkpt>
      <trkpt lat="43.77966" lon="6.30692">
        <ele>1383</ele>
        <time>2022-06-09T17:48:29Z</time>
      </trkpt>
      <trkpt lat="43.77972" lon="6.30687">
        <ele>1382</ele>
        <time>2022-06-09T17:48:31Z</time>
      </trkpt>
      <trkpt lat="43.78021" lon="6.30672">
        <ele>1381</ele>
        <time>2022-06-09T17:48:42Z</time>
      </trkpt>
      <trkpt lat="43.78081" lon="6.30669">
        <ele>1383</ele>
        <time>2022-06-09T17:48:56Z</time>
      </trkpt>
      <trkpt lat="43.78125" lon="6.30664">
        <ele>1379</ele>
        <time>2022-06-09T17:49:07Z</time>
      </trkpt>
      <trkpt lat="43.78137" lon="6.30668">
        <ele>1379</ele>
        <time>2022-06-09T17:49:10Z</time>
      </trkpt>
      <trkpt lat="43.78152" lon="6.30666">
        <ele>1378</ele>
        <time>2022-06-09T17:49:13Z</time>
      </trkpt>
      <trkpt lat="43.78165" lon="6.3067">
        <ele>1378</ele>
        <time>2022-06-09T17:49:16Z</time>
      </trkpt>
      <trkpt lat="43.78199" lon="6.30674">
        <ele>1379</ele>
        <time>2022-06-09T17:49:24Z</time>
      </trkpt>
      <trkpt lat="43.78214" lon="6.30682">
        <ele>1381</ele>
        <time>2022-06-09T17:49:28Z</time>
      </trkpt>
      <trkpt lat="43.78198" lon="6.30681">
        <ele>1382</ele>
        <time>2022-06-09T17:49:32Z</time>
      </trkpt>
      <trkpt lat="43.78154" lon="6.30672">
        <ele>1380</ele>
        <time>2022-06-09T17:49:42Z</time>
      </trkpt>
      <trkpt lat="43.78116" lon="6.30655">
        <ele>1377</ele>
        <time>2022-06-09T17:49:51Z</time>
      </trkpt>
      <trkpt lat="43.78094" lon="6.30642">
        <ele>1374</ele>
        <time>2022-06-09T17:49:57Z</time>
      </trkpt>
      <trkpt lat="43.78082" lon="6.30639">
        <ele>1374</ele>
        <time>2022-06-09T17:50:00Z</time>
      </trkpt>
      <trkpt lat="43.78068" lon="6.30629">
        <ele>1371</ele>
        <time>2022-06-09T17:50:04Z</time>
      </trkpt>
      <trkpt lat="43.77985" lon="6.30589">
        <ele>1360</ele>
        <time>2022-06-09T17:50:24Z</time>
      </trkpt>
      <trkpt lat="43.77973" lon="6.3059">
        <ele>1361</ele>
        <time>2022-06-09T17:50:27Z</time>
      </trkpt>
      <trkpt lat="43.7796" lon="6.30595">
        <ele>1362</ele>
        <time>2022-06-09T17:50:30Z</time>
      </trkpt>
      <trkpt lat="43.77946" lon="6.30594">
        <ele>1363</ele>
        <time>2022-06-09T17:50:33Z</time>
      </trkpt>
      <trkpt lat="43.7794" lon="6.30591">
        <ele>1362</ele>
        <time>2022-06-09T17:50:35Z</time>
      </trkpt>
      <trkpt lat="43.77936" lon="6.30585">
        <ele>1361</ele>
        <time>2022-06-09T17:50:36Z</time>
      </trkpt>
      <trkpt lat="43.77936" lon="6.30567">
        <ele>1358</ele>
        <time>2022-06-09T17:50:39Z</time>
      </trkpt>
      <trkpt lat="43.77941" lon="6.30556">
        <ele>1356</ele>
        <time>2022-06-09T17:50:41Z</time>
      </trkpt>
      <trkpt lat="43.77946" lon="6.30551">
        <ele>1355</ele>
        <time>2022-06-09T17:50:43Z</time>
      </trkpt>
      <trkpt lat="43.77976" lon="6.30533">
        <ele>1351</ele>
        <time>2022-06-09T17:50:51Z</time>
      </trkpt>
      <trkpt lat="43.7798" lon="6.30525">
        <ele>1350</ele>
        <time>2022-06-09T17:50:52Z</time>
      </trkpt>
      <trkpt lat="43.77999" lon="6.30515">
        <ele>1348</ele>
        <time>2022-06-09T17:50:57Z</time>
      </trkpt>
      <trkpt lat="43.78014" lon="6.30496">
        <ele>1345</ele>
        <time>2022-06-09T17:51:02Z</time>
      </trkpt>
      <trkpt lat="43.7804" lon="6.30473">
        <ele>1340</ele>
        <time>2022-06-09T17:51:09Z</time>
      </trkpt>
      <trkpt lat="43.78055" lon="6.30464">
        <ele>1337</ele>
        <time>2022-06-09T17:51:13Z</time>
      </trkpt>
      <trkpt lat="43.78086" lon="6.30457">
        <ele>1333</ele>
        <time>2022-06-09T17:51:20Z</time>
      </trkpt>
      <trkpt lat="43.78092" lon="6.30453">
        <ele>1332</ele>
        <time>2022-06-09T17:51:22Z</time>
      </trkpt>
      <trkpt lat="43.78099" lon="6.30443">
        <ele>1330</ele>
        <time>2022-06-09T17:51:24Z</time>
      </trkpt>
      <trkpt lat="43.78124" lon="6.30426">
        <ele>1324</ele>
        <time>2022-06-09T17:51:30Z</time>
      </trkpt>
      <trkpt lat="43.78138" lon="6.3041">
        <ele>1320</ele>
        <time>2022-06-09T17:51:35Z</time>
      </trkpt>
      <trkpt lat="43.78153" lon="6.30379">
        <ele>1314</ele>
        <time>2022-06-09T17:51:41Z</time>
      </trkpt>
      <trkpt lat="43.78183" lon="6.30347">
        <ele>1306</ele>
        <time>2022-06-09T17:51:50Z</time>
      </trkpt>
      <trkpt lat="43.7819" lon="6.3033">
        <ele>1302</ele>
        <time>2022-06-09T17:51:53Z</time>
      </trkpt>
      <trkpt lat="43.78203" lon="6.30311">
        <ele>1298</ele>
        <time>2022-06-09T17:51:58Z</time>
      </trkpt>
      <trkpt lat="43.78213" lon="6.30303">
        <ele>1296</ele>
        <time>2022-06-09T17:52:00Z</time>
      </trkpt>
      <trkpt lat="43.78219" lon="6.30282">
        <ele>1292</ele>
        <time>2022-06-09T17:52:04Z</time>
      </trkpt>
      <trkpt lat="43.78233" lon="6.30264">
        <ele>1289</ele>
        <time>2022-06-09T17:52:08Z</time>
      </trkpt>
      <trkpt lat="43.7824" lon="6.30249">
        <ele>1286</ele>
        <time>2022-06-09T17:52:11Z</time>
      </trkpt>
      <trkpt lat="43.78258" lon="6.30228">
        <ele>1281</ele>
        <time>2022-06-09T17:52:17Z</time>
      </trkpt>
      <trkpt lat="43.78284" lon="6.30211">
        <ele>1275</ele>
        <time>2022-06-09T17:52:24Z</time>
      </trkpt>
      <trkpt lat="43.78312" lon="6.30186">
        <ele>1270</ele>
        <time>2022-06-09T17:52:31Z</time>
      </trkpt>
      <trkpt lat="43.78322" lon="6.30185">
        <ele>1269</ele>
        <time>2022-06-09T17:52:34Z</time>
      </trkpt>
      <trkpt lat="43.78337" lon="6.3019">
        <ele>1269</ele>
        <time>2022-06-09T17:52:37Z</time>
      </trkpt>
      <trkpt lat="43.78375" lon="6.3021">
        <ele>1265</ele>
        <time>2022-06-09T17:52:47Z</time>
      </trkpt>
      <trkpt lat="43.78426" lon="6.30251">
        <ele>1258</ele>
        <time>2022-06-09T17:53:01Z</time>
      </trkpt>
      <trkpt lat="43.78436" lon="6.30254">
        <ele>1257</ele>
        <time>2022-06-09T17:53:03Z</time>
      </trkpt>
      <trkpt lat="43.78463" lon="6.30254">
        <ele>1252</ele>
        <time>2022-06-09T17:53:09Z</time>
      </trkpt>
      <trkpt lat="43.7847" lon="6.3025">
        <ele>1251</ele>
        <time>2022-06-09T17:53:11Z</time>
      </trkpt>
      <trkpt lat="43.78491" lon="6.30228">
        <ele>1247</ele>
        <time>2022-06-09T17:53:17Z</time>
      </trkpt>
      <trkpt lat="43.78529" lon="6.30212">
        <ele>1241</ele>
        <time>2022-06-09T17:53:27Z</time>
      </trkpt>
      <trkpt lat="43.78534" lon="6.30208">
        <ele>1240</ele>
        <time>2022-06-09T17:53:28Z</time>
      </trkpt>
      <trkpt lat="43.78555" lon="6.30177">
        <ele>1236</ele>
        <time>2022-06-09T17:53:35Z</time>
      </trkpt>
      <trkpt lat="43.78567" lon="6.30153">
        <ele>1233</ele>
        <time>2022-06-09T17:53:40Z</time>
      </trkpt>
      <trkpt lat="43.78574" lon="6.3013">
        <ele>1230</ele>
        <time>2022-06-09T17:53:44Z</time>
      </trkpt>
      <trkpt lat="43.78589" lon="6.30095">
        <ele>1225</ele>
        <time>2022-06-09T17:53:51Z</time>
      </trkpt>
      <trkpt lat="43.78585" lon="6.30076">
        <ele>1223</ele>
        <time>2022-06-09T17:53:54Z</time>
      </trkpt>
      <trkpt lat="43.78538" lon="6.30029">
        <ele>1221</ele>
        <time>2022-06-09T17:54:08Z</time>
      </trkpt>
      <trkpt lat="43.78513" lon="6.30017">
        <ele>1221</ele>
        <time>2022-06-09T17:54:14Z</time>
      </trkpt>
      <trkpt lat="43.78483" lon="6.29998">
        <ele>1220</ele>
        <time>2022-06-09T17:54:22Z</time>
      </trkpt>
      <trkpt lat="43.78445" lon="6.29949">
        <ele>1219</ele>
        <time>2022-06-09T17:54:34Z</time>
      </trkpt>
      <trkpt lat="43.7842" lon="6.29922">
        <ele>1217</ele>
        <time>2022-06-09T17:54:41Z</time>
      </trkpt>
      <trkpt lat="43.78404" lon="6.29898">
        <ele>1216</ele>
        <time>2022-06-09T17:54:47Z</time>
      </trkpt>
      <trkpt lat="43.78364" lon="6.29764">
        <ele>1210</ele>
        <time>2022-06-09T17:55:11Z</time>
      </trkpt>
      <trkpt lat="43.78353" lon="6.29746">
        <ele>1210</ele>
        <time>2022-06-09T17:55:15Z</time>
      </trkpt>
      <trkpt lat="43.78341" lon="6.29737">
        <ele>1210</ele>
        <time>2022-06-09T17:55:18Z</time>
      </trkpt>
      <trkpt lat="43.78338" lon="6.29721">
        <ele>1209</ele>
        <time>2022-06-09T17:55:21Z</time>
      </trkpt>
      <trkpt lat="43.78339" lon="6.29715">
        <ele>1208</ele>
        <time>2022-06-09T17:55:22Z</time>
      </trkpt>
      <trkpt lat="43.78359" lon="6.29648">
        <ele>1204</ele>
        <time>2022-06-09T17:55:35Z</time>
      </trkpt>
      <trkpt lat="43.78369" lon="6.29626">
        <ele>1204</ele>
        <time>2022-06-09T17:55:39Z</time>
      </trkpt>
      <trkpt lat="43.7838" lon="6.29588">
        <ele>1205</ele>
        <time>2022-06-09T17:55:46Z</time>
      </trkpt>
      <trkpt lat="43.78403" lon="6.29551">
        <ele>1208</ele>
        <time>2022-06-09T17:55:54Z</time>
      </trkpt>
      <trkpt lat="43.7841" lon="6.29531">
        <ele>1210</ele>
        <time>2022-06-09T17:55:58Z</time>
      </trkpt>
      <trkpt lat="43.78413" lon="6.29477">
        <ele>1211</ele>
        <time>2022-06-09T17:56:07Z</time>
      </trkpt>
      <trkpt lat="43.78428" lon="6.29462">
        <ele>1214</ele>
        <time>2022-06-09T17:56:11Z</time>
      </trkpt>
      <trkpt lat="43.78447" lon="6.29435">
        <ele>1217</ele>
        <time>2022-06-09T17:56:18Z</time>
      </trkpt>
      <trkpt lat="43.78464" lon="6.29417">
        <ele>1219</ele>
        <time>2022-06-09T17:56:23Z</time>
      </trkpt>
      <trkpt lat="43.78495" lon="6.29359">
        <ele>1224</ele>
        <time>2022-06-09T17:56:35Z</time>
      </trkpt>
      <trkpt lat="43.78509" lon="6.29307">
        <ele>1224</ele>
        <time>2022-06-09T17:56:44Z</time>
      </trkpt>
      <trkpt lat="43.78516" lon="6.29292">
        <ele>1224</ele>
        <time>2022-06-09T17:56:47Z</time>
      </trkpt>
      <trkpt lat="43.78545" lon="6.29259">
        <ele>1224</ele>
        <time>2022-06-09T17:56:56Z</time>
      </trkpt>
      <trkpt lat="43.78569" lon="6.29242">
        <ele>1225</ele>
        <time>2022-06-09T17:57:02Z</time>
      </trkpt>
      <trkpt lat="43.78617" lon="6.29238">
        <ele>1223</ele>
        <time>2022-06-09T17:57:13Z</time>
      </trkpt>
      <trkpt lat="43.78627" lon="6.2924">
        <ele>1223</ele>
        <time>2022-06-09T17:57:16Z</time>
      </trkpt>
      <trkpt lat="43.78633" lon="6.29244">
        <ele>1222</ele>
        <time>2022-06-09T17:57:17Z</time>
      </trkpt>
      <trkpt lat="43.78641" lon="6.29244">
        <ele>1222</ele>
        <time>2022-06-09T17:57:19Z</time>
      </trkpt>
      <trkpt lat="43.78657" lon="6.29242">
        <ele>1220</ele>
        <time>2022-06-09T17:57:23Z</time>
      </trkpt>
      <trkpt lat="43.78667" lon="6.29238">
        <ele>1220</ele>
        <time>2022-06-09T17:57:25Z</time>
      </trkpt>
      <trkpt lat="43.78688" lon="6.29225">
        <ele>1217</ele>
        <time>2022-06-09T17:57:31Z</time>
      </trkpt>
      <trkpt lat="43.78704" lon="6.29219">
        <ele>1215</ele>
        <time>2022-06-09T17:57:35Z</time>
      </trkpt>
      <trkpt lat="43.78715" lon="6.29209">
        <ele>1213</ele>
        <time>2022-06-09T17:57:38Z</time>
      </trkpt>
      <trkpt lat="43.78723" lon="6.29199">
        <ele>1212</ele>
        <time>2022-06-09T17:57:40Z</time>
      </trkpt>
      <trkpt lat="43.7874" lon="6.29164">
        <ele>1208</ele>
        <time>2022-06-09T17:57:47Z</time>
      </trkpt>
      <trkpt lat="43.7875" lon="6.29154">
        <ele>1206</ele>
        <time>2022-06-09T17:57:50Z</time>
      </trkpt>
      <trkpt lat="43.78757" lon="6.29159">
        <ele>1206</ele>
        <time>2022-06-09T17:57:52Z</time>
      </trkpt>
      <trkpt lat="43.78762" lon="6.29159">
        <ele>1206</ele>
        <time>2022-06-09T17:57:53Z</time>
      </trkpt>
      <trkpt lat="43.78787" lon="6.29153">
        <ele>1205</ele>
        <time>2022-06-09T17:57:59Z</time>
      </trkpt>
      <trkpt lat="43.78813" lon="6.29141">
        <ele>1204</ele>
        <time>2022-06-09T17:58:06Z</time>
      </trkpt>
      <trkpt lat="43.78826" lon="6.29127">
        <ele>1204</ele>
        <time>2022-06-09T17:58:09Z</time>
      </trkpt>
      <trkpt lat="43.78837" lon="6.29124">
        <ele>1204</ele>
        <time>2022-06-09T17:58:12Z</time>
      </trkpt>
      <trkpt lat="43.78857" lon="6.2911">
        <ele>1205</ele>
        <time>2022-06-09T17:58:17Z</time>
      </trkpt>
      <trkpt lat="43.78878" lon="6.29076">
        <ele>1207</ele>
        <time>2022-06-09T17:58:25Z</time>
      </trkpt>
      <trkpt lat="43.789" lon="6.2906">
        <ele>1209</ele>
        <time>2022-06-09T17:58:31Z</time>
      </trkpt>
      <trkpt lat="43.78916" lon="6.29037">
        <ele>1212</ele>
        <time>2022-06-09T17:58:36Z</time>
      </trkpt>
      <trkpt lat="43.78927" lon="6.29005">
        <ele>1214</ele>
        <time>2022-06-09T17:58:42Z</time>
      </trkpt>
      <trkpt lat="43.78946" lon="6.28965">
        <ele>1216</ele>
        <time>2022-06-09T17:58:50Z</time>
      </trkpt>
      <trkpt lat="43.7895" lon="6.28946">
        <ele>1216</ele>
        <time>2022-06-09T17:58:53Z</time>
      </trkpt>
      <trkpt lat="43.78955" lon="6.28937">
        <ele>1217</ele>
        <time>2022-06-09T17:58:55Z</time>
      </trkpt>
      <trkpt lat="43.78968" lon="6.28923">
        <ele>1218</ele>
        <time>2022-06-09T17:58:59Z</time>
      </trkpt>
      <trkpt lat="43.78982" lon="6.28917">
        <ele>1219</ele>
        <time>2022-06-09T17:59:03Z</time>
      </trkpt>
      <trkpt lat="43.78993" lon="6.28908">
        <ele>1221</ele>
        <time>2022-06-09T17:59:06Z</time>
      </trkpt>
      <trkpt lat="43.79002" lon="6.28884">
        <ele>1222</ele>
        <time>2022-06-09T17:59:10Z</time>
      </trkpt>
      <trkpt lat="43.79007" lon="6.28839">
        <ele>1223</ele>
        <time>2022-06-09T17:59:18Z</time>
      </trkpt>
      <trkpt lat="43.79011" lon="6.28824">
        <ele>1223</ele>
        <time>2022-06-09T17:59:20Z</time>
      </trkpt>
      <trkpt lat="43.79063" lon="6.2877">
        <ele>1223</ele>
        <time>2022-06-09T17:59:36Z</time>
      </trkpt>
      <trkpt lat="43.79106" lon="6.28732">
        <ele>1221</ele>
        <time>2022-06-09T17:59:48Z</time>
      </trkpt>
      <trkpt lat="43.79131" lon="6.28722">
        <ele>1219</ele>
        <time>2022-06-09T17:59:54Z</time>
      </trkpt>
      <trkpt lat="43.79141" lon="6.28725">
        <ele>1218</ele>
        <time>2022-06-09T17:59:56Z</time>
      </trkpt>
      <trkpt lat="43.7915" lon="6.28731">
        <ele>1218</ele>
        <time>2022-06-09T17:59:58Z</time>
      </trkpt>
      <trkpt lat="43.79159" lon="6.28731">
        <ele>1218</ele>
        <time>2022-06-09T18:00:00Z</time>
      </trkpt>
      <trkpt lat="43.79167" lon="6.28728">
        <ele>1217</ele>
        <time>2022-06-09T18:00:02Z</time>
      </trkpt>
      <trkpt lat="43.79181" lon="6.28715">
        <ele>1216</ele>
        <time>2022-06-09T18:00:06Z</time>
      </trkpt>
      <trkpt lat="43.79211" lon="6.28663">
        <ele>1215</ele>
        <time>2022-06-09T18:00:18Z</time>
      </trkpt>
      <trkpt lat="43.79227" lon="6.28642">
        <ele>1215</ele>
        <time>2022-06-09T18:00:23Z</time>
      </trkpt>
      <trkpt lat="43.79267" lon="6.28576">
        <ele>1214</ele>
        <time>2022-06-09T18:00:37Z</time>
      </trkpt>
      <trkpt lat="43.79279" lon="6.28553">
        <ele>1213</ele>
        <time>2022-06-09T18:00:42Z</time>
      </trkpt>
      <trkpt lat="43.79325" lon="6.28486">
        <ele>1212</ele>
        <time>2022-06-09T18:00:58Z</time>
      </trkpt>
      <trkpt lat="43.79361" lon="6.28442">
        <ele>1211</ele>
        <time>2022-06-09T18:01:09Z</time>
      </trkpt>
      <trkpt lat="43.79372" lon="6.28417">
        <ele>1211</ele>
        <time>2022-06-09T18:01:14Z</time>
      </trkpt>
      <trkpt lat="43.79379" lon="6.2839">
        <ele>1209</ele>
        <time>2022-06-09T18:01:19Z</time>
      </trkpt>
      <trkpt lat="43.79387" lon="6.28333">
        <ele>1207</ele>
        <time>2022-06-09T18:01:28Z</time>
      </trkpt>
      <trkpt lat="43.79391" lon="6.28284">
        <ele>1206</ele>
        <time>2022-06-09T18:01:37Z</time>
      </trkpt>
      <trkpt lat="43.79408" lon="6.28204">
        <ele>1208</ele>
        <time>2022-06-09T18:01:51Z</time>
      </trkpt>
      <trkpt lat="43.79449" lon="6.2807">
        <ele>1209</ele>
        <time>2022-06-09T18:02:15Z</time>
      </trkpt>
      <trkpt lat="43.79458" lon="6.28003">
        <ele>1204</ele>
        <time>2022-06-09T18:02:27Z</time>
      </trkpt>
      <trkpt lat="43.79466" lon="6.27963">
        <ele>1203</ele>
        <time>2022-06-09T18:02:34Z</time>
      </trkpt>
      <trkpt lat="43.7947" lon="6.27891">
        <ele>1202</ele>
        <time>2022-06-09T18:02:46Z</time>
      </trkpt>
      <trkpt lat="43.79475" lon="6.27873">
        <ele>1203</ele>
        <time>2022-06-09T18:02:49Z</time>
      </trkpt>
      <trkpt lat="43.79493" lon="6.27839">
        <ele>1203</ele>
        <time>2022-06-09T18:02:56Z</time>
      </trkpt>
      <trkpt lat="43.79511" lon="6.27768">
        <ele>1208</ele>
        <time>2022-06-09T18:03:09Z</time>
      </trkpt>
      <trkpt lat="43.79516" lon="6.27732">
        <ele>1209</ele>
        <time>2022-06-09T18:03:15Z</time>
      </trkpt>
      <trkpt lat="43.79532" lon="6.27703">
        <ele>1209</ele>
        <time>2022-06-09T18:03:21Z</time>
      </trkpt>
      <trkpt lat="43.79537" lon="6.277">
        <ele>1209</ele>
        <time>2022-06-09T18:03:23Z</time>
      </trkpt>
      <trkpt lat="43.79551" lon="6.2768">
        <ele>1209</ele>
        <time>2022-06-09T18:03:27Z</time>
      </trkpt>
      <trkpt lat="43.79579" lon="6.27619">
        <ele>1209</ele>
        <time>2022-06-09T18:03:39Z</time>
      </trkpt>
      <trkpt lat="43.79584" lon="6.27616">
        <ele>1209</ele>
        <time>2022-06-09T18:03:41Z</time>
      </trkpt>
      <trkpt lat="43.79608" lon="6.27569">
        <ele>1211</ele>
        <time>2022-06-09T18:03:50Z</time>
      </trkpt>
      <trkpt lat="43.79621" lon="6.27534">
        <ele>1214</ele>
        <time>2022-06-09T18:03:57Z</time>
      </trkpt>
      <trkpt lat="43.79635" lon="6.2752">
        <ele>1214</ele>
        <time>2022-06-09T18:04:01Z</time>
      </trkpt>
      <trkpt lat="43.79644" lon="6.27521">
        <ele>1213</ele>
        <time>2022-06-09T18:04:03Z</time>
      </trkpt>
      <trkpt lat="43.79667" lon="6.27516">
        <ele>1213</ele>
        <time>2022-06-09T18:04:09Z</time>
      </trkpt>
      <trkpt lat="43.7968" lon="6.27506">
        <ele>1213</ele>
        <time>2022-06-09T18:04:12Z</time>
      </trkpt>
      <trkpt lat="43.79692" lon="6.27502">
        <ele>1213</ele>
        <time>2022-06-09T18:04:15Z</time>
      </trkpt>
      <trkpt lat="43.79716" lon="6.27489">
        <ele>1214</ele>
        <time>2022-06-09T18:04:21Z</time>
      </trkpt>
      <trkpt lat="43.7974" lon="6.27469">
        <ele>1215</ele>
        <time>2022-06-09T18:04:28Z</time>
      </trkpt>
      <trkpt lat="43.79748" lon="6.27451">
        <ele>1215</ele>
        <time>2022-06-09T18:04:31Z</time>
      </trkpt>
      <trkpt lat="43.79785" lon="6.2739">
        <ele>1216</ele>
        <time>2022-06-09T18:04:45Z</time>
      </trkpt>
      <trkpt lat="43.79801" lon="6.27359">
        <ele>1217</ele>
        <time>2022-06-09T18:04:51Z</time>
      </trkpt>
      <trkpt lat="43.79806" lon="6.27344">
        <ele>1218</ele>
        <time>2022-06-09T18:04:54Z</time>
      </trkpt>
      <trkpt lat="43.79815" lon="6.27331">
        <ele>1217</ele>
        <time>2022-06-09T18:04:57Z</time>
      </trkpt>
      <trkpt lat="43.79821" lon="6.27311">
        <ele>1218</ele>
        <time>2022-06-09T18:05:00Z</time>
      </trkpt>
      <trkpt lat="43.7983" lon="6.27303">
        <ele>1217</ele>
        <time>2022-06-09T18:05:03Z</time>
      </trkpt>
      <trkpt lat="43.79846" lon="6.27298">
        <ele>1215</ele>
        <time>2022-06-09T18:05:07Z</time>
      </trkpt>
      <trkpt lat="43.79854" lon="6.27291">
        <ele>1213</ele>
        <time>2022-06-09T18:05:09Z</time>
      </trkpt>
      <trkpt lat="43.79883" lon="6.27236">
        <ele>1211</ele>
        <time>2022-06-09T18:05:20Z</time>
      </trkpt>
      <trkpt lat="43.79891" lon="6.27206">
        <ele>1213</ele>
        <time>2022-06-09T18:05:26Z</time>
      </trkpt>
      <trkpt lat="43.79945" lon="6.27138">
        <ele>1211</ele>
        <time>2022-06-09T18:05:43Z</time>
      </trkpt>
      <trkpt lat="43.79987" lon="6.2709">
        <ele>1210</ele>
        <time>2022-06-09T18:05:56Z</time>
      </trkpt>
      <trkpt lat="43.80002" lon="6.27087">
        <ele>1208</ele>
        <time>2022-06-09T18:05:59Z</time>
      </trkpt>
      <trkpt lat="43.80023" lon="6.27073">
        <ele>1205</ele>
        <time>2022-06-09T18:06:05Z</time>
      </trkpt>
      <trkpt lat="43.80047" lon="6.27044">
        <ele>1204</ele>
        <time>2022-06-09T18:06:12Z</time>
      </trkpt>
      <trkpt lat="43.80051" lon="6.27037">
        <ele>1204</ele>
        <time>2022-06-09T18:06:14Z</time>
      </trkpt>
      <trkpt lat="43.80048" lon="6.27034">
        <ele>1206</ele>
        <time>2022-06-09T18:06:14Z</time>
      </trkpt>
      <trkpt lat="43.80049" lon="6.27039">
        <ele>1204</ele>
        <time>2022-06-09T18:06:15Z</time>
      </trkpt>
      <trkpt lat="43.80047" lon="6.27043">
        <ele>1204</ele>
        <time>2022-06-09T18:06:16Z</time>
      </trkpt>
      <trkpt lat="43.8006" lon="6.27033">
        <ele>1203</ele>
        <time>2022-06-09T18:06:20Z</time>
      </trkpt>
      <trkpt lat="43.80085" lon="6.27">
        <ele>1204</ele>
        <time>2022-06-09T18:06:28Z</time>
      </trkpt>
      <trkpt lat="43.80094" lon="6.26997">
        <ele>1203</ele>
        <time>2022-06-09T18:06:30Z</time>
      </trkpt>
      <trkpt lat="43.80106" lon="6.26989">
        <ele>1203</ele>
        <time>2022-06-09T18:06:33Z</time>
      </trkpt>
      <trkpt lat="43.80123" lon="6.2697">
        <ele>1206</ele>
        <time>2022-06-09T18:06:38Z</time>
      </trkpt>
      <trkpt lat="43.80137" lon="6.26963">
        <ele>1205</ele>
        <time>2022-06-09T18:06:41Z</time>
      </trkpt>
      <trkpt lat="43.80218" lon="6.26944">
        <ele>1199</ele>
        <time>2022-06-09T18:07:01Z</time>
      </trkpt>
      <trkpt lat="43.80235" lon="6.26936">
        <ele>1198</ele>
        <time>2022-06-09T18:07:05Z</time>
      </trkpt>
      <trkpt lat="43.80253" lon="6.26921">
        <ele>1199</ele>
        <time>2022-06-09T18:07:10Z</time>
      </trkpt>
      <trkpt lat="43.80276" lon="6.26889">
        <ele>1197</ele>
        <time>2022-06-09T18:07:17Z</time>
      </trkpt>
      <trkpt lat="43.80286" lon="6.2687">
        <ele>1197</ele>
        <time>2022-06-09T18:07:21Z</time>
      </trkpt>
      <trkpt lat="43.80297" lon="6.26857">
        <ele>1196</ele>
        <time>2022-06-09T18:07:25Z</time>
      </trkpt>
      <trkpt lat="43.80324" lon="6.26835">
        <ele>1193</ele>
        <time>2022-06-09T18:07:32Z</time>
      </trkpt>
      <trkpt lat="43.80337" lon="6.26831">
        <ele>1191</ele>
        <time>2022-06-09T18:07:35Z</time>
      </trkpt>
      <trkpt lat="43.80373" lon="6.26793">
        <ele>1186</ele>
        <time>2022-06-09T18:07:46Z</time>
      </trkpt>
      <trkpt lat="43.80385" lon="6.26788">
        <ele>1184</ele>
        <time>2022-06-09T18:07:49Z</time>
      </trkpt>
      <trkpt lat="43.8039" lon="6.26783">
        <ele>1183</ele>
        <time>2022-06-09T18:07:50Z</time>
      </trkpt>
      <trkpt lat="43.8044" lon="6.26714">
        <ele>1172</ele>
        <time>2022-06-09T18:08:07Z</time>
      </trkpt>
      <trkpt lat="43.80451" lon="6.26687">
        <ele>1167</ele>
        <time>2022-06-09T18:08:12Z</time>
      </trkpt>
      <trkpt lat="43.80462" lon="6.26671">
        <ele>1165</ele>
        <time>2022-06-09T18:08:15Z</time>
      </trkpt>
      <trkpt lat="43.80478" lon="6.26634">
        <ele>1160</ele>
        <time>2022-06-09T18:08:23Z</time>
      </trkpt>
      <trkpt lat="43.80493" lon="6.26608">
        <ele>1161</ele>
        <time>2022-06-09T18:08:28Z</time>
      </trkpt>
      <trkpt lat="43.80502" lon="6.26597">
        <ele>1164</ele>
        <time>2022-06-09T18:08:31Z</time>
      </trkpt>
      <trkpt lat="43.80504" lon="6.26593">
        <ele>1164</ele>
        <time>2022-06-09T18:08:32Z</time>
      </trkpt>
      <trkpt lat="43.80502" lon="6.26592">
        <ele>1164</ele>
        <time>2022-06-09T18:08:32Z</time>
      </trkpt>
      <trkpt lat="43.80505" lon="6.26596">
        <ele>1164</ele>
        <time>2022-06-09T18:08:33Z</time>
      </trkpt>
      <trkpt lat="43.80507" lon="6.26588">
        <ele>1164</ele>
        <time>2022-06-09T18:08:35Z</time>
      </trkpt>
      <trkpt lat="43.80504" lon="6.26589">
        <ele>1164</ele>
        <time>2022-06-09T18:08:36Z</time>
      </trkpt>
      <trkpt lat="43.80509" lon="6.26586">
        <ele>1165</ele>
        <time>2022-06-09T18:08:37Z</time>
      </trkpt>
      <trkpt lat="43.80518" lon="6.26571">
        <ele>1165</ele>
        <time>2022-06-09T18:08:40Z</time>
      </trkpt>
      <trkpt lat="43.80545" lon="6.26549">
        <ele>1167</ele>
        <time>2022-06-09T18:08:47Z</time>
      </trkpt>
      <trkpt lat="43.80586" lon="6.26541">
        <ele>1173</ele>
        <time>2022-06-09T18:08:57Z</time>
      </trkpt>
      <trkpt lat="43.80589" lon="6.26537">
        <ele>1173</ele>
        <time>2022-06-09T18:08:58Z</time>
      </trkpt>
      <trkpt lat="43.80605" lon="6.26528">
        <ele>1174</ele>
        <time>2022-06-09T18:09:02Z</time>
      </trkpt>
      <trkpt lat="43.80611" lon="6.26521">
        <ele>1174</ele>
        <time>2022-06-09T18:09:04Z</time>
      </trkpt>
      <trkpt lat="43.80669" lon="6.265">
        <ele>1180</ele>
        <time>2022-06-09T18:09:18Z</time>
      </trkpt>
      <trkpt lat="43.80678" lon="6.26491">
        <ele>1177</ele>
        <time>2022-06-09T18:09:21Z</time>
      </trkpt>
      <trkpt lat="43.807" lon="6.26485">
        <ele>1176</ele>
        <time>2022-06-09T18:09:26Z</time>
      </trkpt>
      <trkpt lat="43.80718" lon="6.26472">
        <ele>1174</ele>
        <time>2022-06-09T18:09:31Z</time>
      </trkpt>
      <trkpt lat="43.80727" lon="6.26469">
        <ele>1174</ele>
        <time>2022-06-09T18:09:33Z</time>
      </trkpt>
      <trkpt lat="43.80741" lon="6.2646">
        <ele>1173</ele>
        <time>2022-06-09T18:09:36Z</time>
      </trkpt>
      <trkpt lat="43.80757" lon="6.26458">
        <ele>1173</ele>
        <time>2022-06-09T18:09:40Z</time>
      </trkpt>
      <trkpt lat="43.80768" lon="6.26462">
        <ele>1172</ele>
        <time>2022-06-09T18:09:43Z</time>
      </trkpt>
      <trkpt lat="43.80778" lon="6.26472">
        <ele>1172</ele>
        <time>2022-06-09T18:09:46Z</time>
      </trkpt>
      <trkpt lat="43.80785" lon="6.26472">
        <ele>1171</ele>
        <time>2022-06-09T18:09:47Z</time>
      </trkpt>
      <trkpt lat="43.80793" lon="6.2647">
        <ele>1170</ele>
        <time>2022-06-09T18:09:49Z</time>
      </trkpt>
      <trkpt lat="43.80831" lon="6.26451">
        <ele>1163</ele>
        <time>2022-06-09T18:09:59Z</time>
      </trkpt>
      <trkpt lat="43.80852" lon="6.26452">
        <ele>1157</ele>
        <time>2022-06-09T18:10:03Z</time>
      </trkpt>
      <trkpt lat="43.80858" lon="6.26454">
        <ele>1156</ele>
        <time>2022-06-09T18:10:05Z</time>
      </trkpt>
      <trkpt lat="43.80865" lon="6.26461">
        <ele>1155</ele>
        <time>2022-06-09T18:10:07Z</time>
      </trkpt>
      <trkpt lat="43.80857" lon="6.26451">
        <ele>1156</ele>
        <time>2022-06-09T18:10:09Z</time>
      </trkpt>
      <trkpt lat="43.80846" lon="6.26454">
        <ele>1159</ele>
        <time>2022-06-09T18:10:12Z</time>
      </trkpt>
      <trkpt lat="43.80834" lon="6.26463">
        <ele>1164</ele>
        <time>2022-06-09T18:10:15Z</time>
      </trkpt>
      <trkpt lat="43.80845" lon="6.26456">
        <ele>1160</ele>
        <time>2022-06-09T18:10:18Z</time>
      </trkpt>
      <trkpt lat="43.80859" lon="6.26461">
        <ele>1157</ele>
        <time>2022-06-09T18:10:21Z</time>
      </trkpt>
      <trkpt lat="43.80869" lon="6.26468">
        <ele>1156</ele>
        <time>2022-06-09T18:10:24Z</time>
      </trkpt>
      <trkpt lat="43.80878" lon="6.26464">
        <ele>1152</ele>
        <time>2022-06-09T18:10:26Z</time>
      </trkpt>
      <trkpt lat="43.80882" lon="6.26465">
        <ele>1152</ele>
        <time>2022-06-09T18:10:27Z</time>
      </trkpt>
      <trkpt lat="43.80891" lon="6.26472">
        <ele>1151</ele>
        <time>2022-06-09T18:10:30Z</time>
      </trkpt>
      <trkpt lat="43.80899" lon="6.26473">
        <ele>1149</ele>
        <time>2022-06-09T18:10:32Z</time>
      </trkpt>
      <trkpt lat="43.80906" lon="6.2648">
        <ele>1150</ele>
        <time>2022-06-09T18:10:34Z</time>
      </trkpt>
      <trkpt lat="43.80919" lon="6.26483">
        <ele>1148</ele>
        <time>2022-06-09T18:10:37Z</time>
      </trkpt>
      <trkpt lat="43.80926" lon="6.26488">
        <ele>1148</ele>
        <time>2022-06-09T18:10:38Z</time>
      </trkpt>
      <trkpt lat="43.80937" lon="6.26488">
        <ele>1145</ele>
        <time>2022-06-09T18:10:41Z</time>
      </trkpt>
      <trkpt lat="43.80951" lon="6.26484">
        <ele>1141</ele>
        <time>2022-06-09T18:10:44Z</time>
      </trkpt>
      <trkpt lat="43.80961" lon="6.26487">
        <ele>1140</ele>
        <time>2022-06-09T18:10:47Z</time>
      </trkpt>
      <trkpt lat="43.80987" lon="6.26481">
        <ele>1132</ele>
        <time>2022-06-09T18:10:53Z</time>
      </trkpt>
      <trkpt lat="43.81006" lon="6.26481">
        <ele>1127</ele>
        <time>2022-06-09T18:10:57Z</time>
      </trkpt>
      <trkpt lat="43.81018" lon="6.26489">
        <ele>1127</ele>
        <time>2022-06-09T18:11:00Z</time>
      </trkpt>
      <trkpt lat="43.81042" lon="6.26489">
        <ele>1121</ele>
        <time>2022-06-09T18:11:06Z</time>
      </trkpt>
      <trkpt lat="43.8105" lon="6.26483">
        <ele>1117</ele>
        <time>2022-06-09T18:11:08Z</time>
      </trkpt>
      <trkpt lat="43.81064" lon="6.26486">
        <ele>1115</ele>
        <time>2022-06-09T18:11:11Z</time>
      </trkpt>
      <trkpt lat="43.81091" lon="6.26485">
        <ele>1109</ele>
        <time>2022-06-09T18:11:18Z</time>
      </trkpt>
      <trkpt lat="43.81097" lon="6.26487">
        <ele>1110</ele>
        <time>2022-06-09T18:11:19Z</time>
      </trkpt>
      <trkpt lat="43.81135" lon="6.2648">
        <ele>1104</ele>
        <time>2022-06-09T18:11:28Z</time>
      </trkpt>
      <trkpt lat="43.81147" lon="6.2648">
        <ele>1103</ele>
        <time>2022-06-09T18:11:31Z</time>
      </trkpt>
      <trkpt lat="43.81157" lon="6.26483">
        <ele>1103</ele>
        <time>2022-06-09T18:11:33Z</time>
      </trkpt>
      <trkpt lat="43.81174" lon="6.26479">
        <ele>1099</ele>
        <time>2022-06-09T18:11:37Z</time>
      </trkpt>
      <trkpt lat="43.81186" lon="6.26473">
        <ele>1095</ele>
        <time>2022-06-09T18:11:40Z</time>
      </trkpt>
      <trkpt lat="43.81204" lon="6.26479">
        <ele>1093</ele>
        <time>2022-06-09T18:11:45Z</time>
      </trkpt>
      <trkpt lat="43.81215" lon="6.26478">
        <ele>1090</ele>
        <time>2022-06-09T18:11:47Z</time>
      </trkpt>
      <trkpt lat="43.8125" lon="6.26469">
        <ele>1082</ele>
        <time>2022-06-09T18:11:56Z</time>
      </trkpt>
      <trkpt lat="43.81288" lon="6.2645">
        <ele>1081</ele>
        <time>2022-06-09T18:12:05Z</time>
      </trkpt>
      <trkpt lat="43.81301" lon="6.26449">
        <ele>1081</ele>
        <time>2022-06-09T18:12:08Z</time>
      </trkpt>
      <trkpt lat="43.81306" lon="6.26453">
        <ele>1081</ele>
        <time>2022-06-09T18:12:09Z</time>
      </trkpt>
      <trkpt lat="43.81309" lon="6.26446">
        <ele>1082</ele>
        <time>2022-06-09T18:12:11Z</time>
      </trkpt>
      <trkpt lat="43.81307" lon="6.26446">
        <ele>1081</ele>
        <time>2022-06-09T18:12:11Z</time>
      </trkpt>
      <trkpt lat="43.81313" lon="6.26444">
        <ele>1082</ele>
        <time>2022-06-09T18:12:13Z</time>
      </trkpt>
      <trkpt lat="43.81317" lon="6.26433">
        <ele>1082</ele>
        <time>2022-06-09T18:12:15Z</time>
      </trkpt>
      <trkpt lat="43.81323" lon="6.26437">
        <ele>1083</ele>
        <time>2022-06-09T18:12:16Z</time>
      </trkpt>
      <trkpt lat="43.81327" lon="6.26429">
        <ele>1083</ele>
        <time>2022-06-09T18:12:18Z</time>
      </trkpt>
      <trkpt lat="43.81343" lon="6.26422">
        <ele>1086</ele>
        <time>2022-06-09T18:12:22Z</time>
      </trkpt>
      <trkpt lat="43.81354" lon="6.26421">
        <ele>1089</ele>
        <time>2022-06-09T18:12:24Z</time>
      </trkpt>
      <trkpt lat="43.81361" lon="6.26415">
        <ele>1090</ele>
        <time>2022-06-09T18:12:26Z</time>
      </trkpt>
      <trkpt lat="43.81368" lon="6.26416">
        <ele>1092</ele>
        <time>2022-06-09T18:12:28Z</time>
      </trkpt>
      <trkpt lat="43.81371" lon="6.26408">
        <ele>1091</ele>
        <time>2022-06-09T18:12:30Z</time>
      </trkpt>
      <trkpt lat="43.81376" lon="6.26403">
        <ele>1092</ele>
        <time>2022-06-09T18:12:31Z</time>
      </trkpt>
      <trkpt lat="43.81392" lon="6.26395">
        <ele>1095</ele>
        <time>2022-06-09T18:12:35Z</time>
      </trkpt>
      <trkpt lat="43.81398" lon="6.26382">
        <ele>1096</ele>
        <time>2022-06-09T18:12:38Z</time>
      </trkpt>
      <trkpt lat="43.81404" lon="6.26381">
        <ele>1098</ele>
        <time>2022-06-09T18:12:39Z</time>
      </trkpt>
      <trkpt lat="43.81406" lon="6.26373">
        <ele>1099</ele>
        <time>2022-06-09T18:12:40Z</time>
      </trkpt>
      <trkpt lat="43.81418" lon="6.2637">
        <ele>1103</ele>
        <time>2022-06-09T18:12:43Z</time>
      </trkpt>
      <trkpt lat="43.81426" lon="6.26372">
        <ele>1105</ele>
        <time>2022-06-09T18:12:45Z</time>
      </trkpt>
      <trkpt lat="43.81505" lon="6.26306">
        <ele>1133</ele>
        <time>2022-06-09T18:13:07Z</time>
      </trkpt>
      <trkpt lat="43.81518" lon="6.26305">
        <ele>1137</ele>
        <time>2022-06-09T18:13:10Z</time>
      </trkpt>
      <trkpt lat="43.8152" lon="6.26308">
        <ele>1137</ele>
        <time>2022-06-09T18:13:10Z</time>
      </trkpt>
      <trkpt lat="43.8154" lon="6.26306">
        <ele>1143</ele>
        <time>2022-06-09T18:13:15Z</time>
      </trkpt>
      <trkpt lat="43.81552" lon="6.26311">
        <ele>1146</ele>
        <time>2022-06-09T18:13:18Z</time>
      </trkpt>
      <trkpt lat="43.81549" lon="6.26294">
        <ele>1147</ele>
        <time>2022-06-09T18:13:21Z</time>
      </trkpt>
      <trkpt lat="43.81552" lon="6.2629">
        <ele>1149</ele>
        <time>2022-06-09T18:13:22Z</time>
      </trkpt>
      <trkpt lat="43.81551" lon="6.2628">
        <ele>1150</ele>
        <time>2022-06-09T18:13:24Z</time>
      </trkpt>
      <trkpt lat="43.81559" lon="6.26266">
        <ele>1156</ele>
        <time>2022-06-09T18:13:27Z</time>
      </trkpt>
      <trkpt lat="43.81574" lon="6.26256">
        <ele>1166</ele>
        <time>2022-06-09T18:13:31Z</time>
      </trkpt>
      <trkpt lat="43.81577" lon="6.26257">
        <ele>1167</ele>
        <time>2022-06-09T18:13:31Z</time>
      </trkpt>
      <trkpt lat="43.81589" lon="6.26241">
        <ele>1171</ele>
        <time>2022-06-09T18:13:35Z</time>
      </trkpt>
      <trkpt lat="43.81591" lon="6.26242">
        <ele>1172</ele>
        <time>2022-06-09T18:13:36Z</time>
      </trkpt>
      <trkpt lat="43.81603" lon="6.26203">
        <ele>1169</ele>
        <time>2022-06-09T18:13:43Z</time>
      </trkpt>
      <trkpt lat="43.81606" lon="6.262">
        <ele>1169</ele>
        <time>2022-06-09T18:13:44Z</time>
      </trkpt>
      <trkpt lat="43.81616" lon="6.26201">
        <ele>1174</ele>
        <time>2022-06-09T18:13:46Z</time>
      </trkpt>
      <trkpt lat="43.81618" lon="6.26194">
        <ele>1173</ele>
        <time>2022-06-09T18:13:47Z</time>
      </trkpt>
      <trkpt lat="43.81637" lon="6.26186">
        <ele>1181</ele>
        <time>2022-06-09T18:13:52Z</time>
      </trkpt>
      <trkpt lat="43.81644" lon="6.26187">
        <ele>1184</ele>
        <time>2022-06-09T18:13:54Z</time>
      </trkpt>
      <trkpt lat="43.81655" lon="6.26182">
        <ele>1189</ele>
        <time>2022-06-09T18:13:56Z</time>
      </trkpt>
      <trkpt lat="43.81663" lon="6.26189">
        <ele>1193</ele>
        <time>2022-06-09T18:13:58Z</time>
      </trkpt>
      <trkpt lat="43.81679" lon="6.26177">
        <ele>1195</ele>
        <time>2022-06-09T18:14:03Z</time>
      </trkpt>
      <trkpt lat="43.81707" lon="6.26173">
        <ele>1197</ele>
        <time>2022-06-09T18:14:09Z</time>
      </trkpt>
      <trkpt lat="43.81724" lon="6.26151">
        <ele>1197</ele>
        <time>2022-06-09T18:14:15Z</time>
      </trkpt>
      <trkpt lat="43.81737" lon="6.26147">
        <ele>1198</ele>
        <time>2022-06-09T18:14:18Z</time>
      </trkpt>
      <trkpt lat="43.81755" lon="6.26131">
        <ele>1199</ele>
        <time>2022-06-09T18:14:23Z</time>
      </trkpt>
      <trkpt lat="43.81762" lon="6.26129">
        <ele>1198</ele>
        <time>2022-06-09T18:14:24Z</time>
      </trkpt>
      <trkpt lat="43.81763" lon="6.26126">
        <ele>1198</ele>
        <time>2022-06-09T18:14:25Z</time>
      </trkpt>
      <trkpt lat="43.81776" lon="6.26118">
        <ele>1198</ele>
        <time>2022-06-09T18:14:28Z</time>
      </trkpt>
      <trkpt lat="43.81784" lon="6.26109">
        <ele>1198</ele>
        <time>2022-06-09T18:14:31Z</time>
      </trkpt>
      <trkpt lat="43.81788" lon="6.26108">
        <ele>1198</ele>
        <time>2022-06-09T18:14:32Z</time>
      </trkpt>
      <trkpt lat="43.81794" lon="6.26096">
        <ele>1198</ele>
        <time>2022-06-09T18:14:34Z</time>
      </trkpt>
      <trkpt lat="43.818" lon="6.26044">
        <ele>1192</ele>
        <time>2022-06-09T18:14:43Z</time>
      </trkpt>
      <trkpt lat="43.81805" lon="6.26034">
        <ele>1191</ele>
        <time>2022-06-09T18:14:45Z</time>
      </trkpt>
      <trkpt lat="43.81813" lon="6.2603">
        <ele>1193</ele>
        <time>2022-06-09T18:14:47Z</time>
      </trkpt>
      <trkpt lat="43.81818" lon="6.26024">
        <ele>1193</ele>
        <time>2022-06-09T18:14:49Z</time>
      </trkpt>
      <trkpt lat="43.818" lon="6.26002">
        <ele>1185</ele>
        <time>2022-06-09T18:14:54Z</time>
      </trkpt>
      <trkpt lat="43.818" lon="6.25964">
        <ele>1179</ele>
        <time>2022-06-09T18:15:01Z</time>
      </trkpt>
      <trkpt lat="43.81805" lon="6.25948">
        <ele>1178</ele>
        <time>2022-06-09T18:15:04Z</time>
      </trkpt>
      <trkpt lat="43.81813" lon="6.25934">
        <ele>1180</ele>
        <time>2022-06-09T18:15:07Z</time>
      </trkpt>
      <trkpt lat="43.81832" lon="6.25913">
        <ele>1187</ele>
        <time>2022-06-09T18:15:12Z</time>
      </trkpt>
      <trkpt lat="43.81839" lon="6.25901">
        <ele>1183</ele>
        <time>2022-06-09T18:15:15Z</time>
      </trkpt>
      <trkpt lat="43.81843" lon="6.25882">
        <ele>1177</ele>
        <time>2022-06-09T18:15:18Z</time>
      </trkpt>
      <trkpt lat="43.81858" lon="6.25858">
        <ele>1169</ele>
        <time>2022-06-09T18:15:24Z</time>
      </trkpt>
      <trkpt lat="43.81863" lon="6.25852">
        <ele>1168</ele>
        <time>2022-06-09T18:15:25Z</time>
      </trkpt>
      <trkpt lat="43.81886" lon="6.25836">
        <ele>1164</ele>
        <time>2022-06-09T18:15:31Z</time>
      </trkpt>
      <trkpt lat="43.819" lon="6.2582">
        <ele>1157</ele>
        <time>2022-06-09T18:15:35Z</time>
      </trkpt>
      <trkpt lat="43.81916" lon="6.25782">
        <ele>1149</ele>
        <time>2022-06-09T18:15:43Z</time>
      </trkpt>
      <trkpt lat="43.81919" lon="6.25759">
        <ele>1143</ele>
        <time>2022-06-09T18:15:47Z</time>
      </trkpt>
      <trkpt lat="43.81918" lon="6.25748">
        <ele>1140</ele>
        <time>2022-06-09T18:15:49Z</time>
      </trkpt>
      <trkpt lat="43.81928" lon="6.25705">
        <ele>1115</ele>
        <time>2022-06-09T18:15:56Z</time>
      </trkpt>
      <trkpt lat="43.8194" lon="6.2568">
        <ele>1103</ele>
        <time>2022-06-09T18:16:01Z</time>
      </trkpt>
      <trkpt lat="43.81943" lon="6.25679">
        <ele>1103</ele>
        <time>2022-06-09T18:16:02Z</time>
      </trkpt>
      <trkpt lat="43.81953" lon="6.2565">
        <ele>1092</ele>
        <time>2022-06-09T18:16:07Z</time>
      </trkpt>
      <trkpt lat="43.81953" lon="6.25644">
        <ele>1090</ele>
        <time>2022-06-09T18:16:08Z</time>
      </trkpt>
      <trkpt lat="43.81958" lon="6.25645">
        <ele>1091</ele>
        <time>2022-06-09T18:16:10Z</time>
      </trkpt>
      <trkpt lat="43.81965" lon="6.25639">
        <ele>1090</ele>
        <time>2022-06-09T18:16:11Z</time>
      </trkpt>
      <trkpt lat="43.81968" lon="6.25631">
        <ele>1088</ele>
        <time>2022-06-09T18:16:13Z</time>
      </trkpt>
      <trkpt lat="43.81979" lon="6.25621">
        <ele>1087</ele>
        <time>2022-06-09T18:16:16Z</time>
      </trkpt>
      <trkpt lat="43.81989" lon="6.25605">
        <ele>1085</ele>
        <time>2022-06-09T18:16:20Z</time>
      </trkpt>
      <trkpt lat="43.81999" lon="6.25597">
        <ele>1086</ele>
        <time>2022-06-09T18:16:22Z</time>
      </trkpt>
      <trkpt lat="43.8201" lon="6.2558">
        <ele>1081</ele>
        <time>2022-06-09T18:16:26Z</time>
      </trkpt>
      <trkpt lat="43.82007" lon="6.25551">
        <ele>1075</ele>
        <time>2022-06-09T18:16:31Z</time>
      </trkpt>
      <trkpt lat="43.81997" lon="6.25535">
        <ele>1071</ele>
        <time>2022-06-09T18:16:35Z</time>
      </trkpt>
      <trkpt lat="43.81998" lon="6.2552">
        <ele>1068</ele>
        <time>2022-06-09T18:16:37Z</time>
      </trkpt>
      <trkpt lat="43.82008" lon="6.25491">
        <ele>1060</ele>
        <time>2022-06-09T18:16:43Z</time>
      </trkpt>
      <trkpt lat="43.8202" lon="6.25466">
        <ele>1048</ele>
        <time>2022-06-09T18:16:48Z</time>
      </trkpt>
      <trkpt lat="43.82029" lon="6.25429">
        <ele>1034</ele>
        <time>2022-06-09T18:16:54Z</time>
      </trkpt>
      <trkpt lat="43.82037" lon="6.25411">
        <ele>1029</ele>
        <time>2022-06-09T18:16:58Z</time>
      </trkpt>
      <trkpt lat="43.82049" lon="6.25395">
        <ele>1027</ele>
        <time>2022-06-09T18:17:02Z</time>
      </trkpt>
      <trkpt lat="43.82068" lon="6.25319">
        <ele>1014</ele>
        <time>2022-06-09T18:17:15Z</time>
      </trkpt>
      <trkpt lat="43.82076" lon="6.25273">
        <ele>1010</ele>
        <time>2022-06-09T18:17:23Z</time>
      </trkpt>
      <trkpt lat="43.8208" lon="6.25263">
        <ele>1010</ele>
        <time>2022-06-09T18:17:25Z</time>
      </trkpt>
      <trkpt lat="43.82084" lon="6.25262">
        <ele>1013</ele>
        <time>2022-06-09T18:17:26Z</time>
      </trkpt>
      <trkpt lat="43.82086" lon="6.2525">
        <ele>1010</ele>
        <time>2022-06-09T18:17:28Z</time>
      </trkpt>
      <trkpt lat="43.82096" lon="6.25241">
        <ele>1009</ele>
        <time>2022-06-09T18:17:31Z</time>
      </trkpt>
      <trkpt lat="43.82108" lon="6.25212">
        <ele>1003</ele>
        <time>2022-06-09T18:17:37Z</time>
      </trkpt>
      <trkpt lat="43.82112" lon="6.25194">
        <ele>999</ele>
        <time>2022-06-09T18:17:40Z</time>
      </trkpt>
      <trkpt lat="43.8212" lon="6.25181">
        <ele>998</ele>
        <time>2022-06-09T18:17:43Z</time>
      </trkpt>
      <trkpt lat="43.82133" lon="6.25169">
        <ele>999</ele>
        <time>2022-06-09T18:17:46Z</time>
      </trkpt>
      <trkpt lat="43.82149" lon="6.25165">
        <ele>1003</ele>
        <time>2022-06-09T18:17:50Z</time>
      </trkpt>
      <trkpt lat="43.82174" lon="6.25149">
        <ele>1006</ele>
        <time>2022-06-09T18:17:57Z</time>
      </trkpt>
      <trkpt lat="43.82189" lon="6.25123">
        <ele>1004</ele>
        <time>2022-06-09T18:18:02Z</time>
      </trkpt>
      <trkpt lat="43.82204" lon="6.25062">
        <ele>1000</ele>
        <time>2022-06-09T18:18:13Z</time>
      </trkpt>
      <trkpt lat="43.82209" lon="6.25018">
        <ele>998</ele>
        <time>2022-06-09T18:18:21Z</time>
      </trkpt>
      <trkpt lat="43.82215" lon="6.24988">
        <ele>996</ele>
        <time>2022-06-09T18:18:26Z</time>
      </trkpt>
      <trkpt lat="43.82222" lon="6.24972">
        <ele>996</ele>
        <time>2022-06-09T18:18:29Z</time>
      </trkpt>
      <trkpt lat="43.82221" lon="6.24945">
        <ele>994</ele>
        <time>2022-06-09T18:18:33Z</time>
      </trkpt>
      <trkpt lat="43.82218" lon="6.24932">
        <ele>992</ele>
        <time>2022-06-09T18:18:36Z</time>
      </trkpt>
      <trkpt lat="43.82206" lon="6.24905">
        <ele>987</ele>
        <time>2022-06-09T18:18:41Z</time>
      </trkpt>
      <trkpt lat="43.82205" lon="6.24895">
        <ele>985</ele>
        <time>2022-06-09T18:18:43Z</time>
      </trkpt>
      <trkpt lat="43.82205" lon="6.24829">
        <ele>973</ele>
        <time>2022-06-09T18:18:54Z</time>
      </trkpt>
      <trkpt lat="43.82209" lon="6.24798">
        <ele>970</ele>
        <time>2022-06-09T18:18:59Z</time>
      </trkpt>
      <trkpt lat="43.82201" lon="6.2475">
        <ele>961</ele>
        <time>2022-06-09T18:19:08Z</time>
      </trkpt>
      <trkpt lat="43.82205" lon="6.24702">
        <ele>960</ele>
        <time>2022-06-09T18:19:16Z</time>
      </trkpt>
      <trkpt lat="43.82211" lon="6.24682">
        <ele>961</ele>
        <time>2022-06-09T18:19:19Z</time>
      </trkpt>
      <trkpt lat="43.82213" lon="6.24666">
        <ele>960</ele>
        <time>2022-06-09T18:19:22Z</time>
      </trkpt>
      <trkpt lat="43.82213" lon="6.2461">
        <ele>955</ele>
        <time>2022-06-09T18:19:32Z</time>
      </trkpt>
      <trkpt lat="43.82216" lon="6.24593">
        <ele>954</ele>
        <time>2022-06-09T18:19:34Z</time>
      </trkpt>
      <trkpt lat="43.82224" lon="6.24577">
        <ele>956</ele>
        <time>2022-06-09T18:19:38Z</time>
      </trkpt>
      <trkpt lat="43.82227" lon="6.2456">
        <ele>955</ele>
        <time>2022-06-09T18:19:41Z</time>
      </trkpt>
      <trkpt lat="43.82233" lon="6.24544">
        <ele>955</ele>
        <time>2022-06-09T18:19:44Z</time>
      </trkpt>
      <trkpt lat="43.82235" lon="6.24503">
        <ele>952</ele>
        <time>2022-06-09T18:19:51Z</time>
      </trkpt>
      <trkpt lat="43.82248" lon="6.24463">
        <ele>956</ele>
        <time>2022-06-09T18:19:58Z</time>
      </trkpt>
      <trkpt lat="43.82252" lon="6.2443">
        <ele>956</ele>
        <time>2022-06-09T18:20:04Z</time>
      </trkpt>
      <trkpt lat="43.82248" lon="6.24409">
        <ele>954</ele>
        <time>2022-06-09T18:20:07Z</time>
      </trkpt>
      <trkpt lat="43.82252" lon="6.24408">
        <ele>956</ele>
        <time>2022-06-09T18:20:08Z</time>
      </trkpt>
      <trkpt lat="43.82255" lon="6.24376">
        <ele>954</ele>
        <time>2022-06-09T18:20:14Z</time>
      </trkpt>
      <trkpt lat="43.82253" lon="6.24346">
        <ele>953</ele>
        <time>2022-06-09T18:20:19Z</time>
      </trkpt>
      <trkpt lat="43.82257" lon="6.2429">
        <ele>949</ele>
        <time>2022-06-09T18:20:28Z</time>
      </trkpt>
      <trkpt lat="43.82265" lon="6.24261">
        <ele>947</ele>
        <time>2022-06-09T18:20:34Z</time>
      </trkpt>
      <trkpt lat="43.82274" lon="6.24189">
        <ele>936</ele>
        <time>2022-06-09T18:20:46Z</time>
      </trkpt>
      <trkpt lat="43.82287" lon="6.24145">
        <ele>930</ele>
        <time>2022-06-09T18:20:54Z</time>
      </trkpt>
      <trkpt lat="43.82289" lon="6.24108">
        <ele>924</ele>
        <time>2022-06-09T18:21:00Z</time>
      </trkpt>
      <trkpt lat="43.82295" lon="6.24097">
        <ele>923</ele>
        <time>2022-06-09T18:21:02Z</time>
      </trkpt>
      <trkpt lat="43.82299" lon="6.24082">
        <ele>922</ele>
        <time>2022-06-09T18:21:05Z</time>
      </trkpt>
      <trkpt lat="43.82302" lon="6.24082">
        <ele>923</ele>
        <time>2022-06-09T18:21:06Z</time>
      </trkpt>
      <trkpt lat="43.82305" lon="6.24075">
        <ele>922</ele>
        <time>2022-06-09T18:21:07Z</time>
      </trkpt>
      <trkpt lat="43.82309" lon="6.24074">
        <ele>923</ele>
        <time>2022-06-09T18:21:08Z</time>
      </trkpt>
      <trkpt lat="43.82324" lon="6.24054">
        <ele>922</ele>
        <time>2022-06-09T18:21:13Z</time>
      </trkpt>
      <trkpt lat="43.82327" lon="6.24062">
        <ele>925</ele>
        <time>2022-06-09T18:21:15Z</time>
      </trkpt>
      <trkpt lat="43.82331" lon="6.24065">
        <ele>928</ele>
        <time>2022-06-09T18:21:16Z</time>
      </trkpt>
      <trkpt lat="43.8234" lon="6.24039">
        <ele>921</ele>
        <time>2022-06-09T18:21:20Z</time>
      </trkpt>
      <trkpt lat="43.8234" lon="6.24034">
        <ele>920</ele>
        <time>2022-06-09T18:21:21Z</time>
      </trkpt>
      <trkpt lat="43.82328" lon="6.24023">
        <ele>914</ele>
        <time>2022-06-09T18:21:25Z</time>
      </trkpt>
      <trkpt lat="43.82315" lon="6.24024">
        <ele>908</ele>
        <time>2022-06-09T18:21:28Z</time>
      </trkpt>
      <trkpt lat="43.8231" lon="6.24019">
        <ele>904</ele>
        <time>2022-06-09T18:21:29Z</time>
      </trkpt>
      <trkpt lat="43.82307" lon="6.24023">
        <ele>904</ele>
        <time>2022-06-09T18:21:30Z</time>
      </trkpt>
      <trkpt lat="43.82302" lon="6.24023">
        <ele>902</ele>
        <time>2022-06-09T18:21:31Z</time>
      </trkpt>
      <trkpt lat="43.82299" lon="6.24026">
        <ele>902</ele>
        <time>2022-06-09T18:21:32Z</time>
      </trkpt>
      <trkpt lat="43.82296" lon="6.24011">
        <ele>895</ele>
        <time>2022-06-09T18:21:35Z</time>
      </trkpt>
      <trkpt lat="43.82291" lon="6.24016">
        <ele>895</ele>
        <time>2022-06-09T18:21:36Z</time>
      </trkpt>
      <trkpt lat="43.82291" lon="6.24007">
        <ele>891</ele>
        <time>2022-06-09T18:21:38Z</time>
      </trkpt>
      <trkpt lat="43.82288" lon="6.24003">
        <ele>888</ele>
        <time>2022-06-09T18:21:39Z</time>
      </trkpt>
      <trkpt lat="43.8228" lon="6.24008">
        <ele>887</ele>
        <time>2022-06-09T18:21:41Z</time>
      </trkpt>
      <trkpt lat="43.8227" lon="6.24021">
        <ele>887</ele>
        <time>2022-06-09T18:21:44Z</time>
      </trkpt>
      <trkpt lat="43.82269" lon="6.23997">
        <ele>877</ele>
        <time>2022-06-09T18:21:48Z</time>
      </trkpt>
      <trkpt lat="43.82275" lon="6.23989">
        <ele>877</ele>
        <time>2022-06-09T18:21:50Z</time>
      </trkpt>
      <trkpt lat="43.82284" lon="6.23966">
        <ele>872</ele>
        <time>2022-06-09T18:21:54Z</time>
      </trkpt>
      <trkpt lat="43.82289" lon="6.23959">
        <ele>871</ele>
        <time>2022-06-09T18:21:56Z</time>
      </trkpt>
      <trkpt lat="43.82288" lon="6.23935">
        <ele>862</ele>
        <time>2022-06-09T18:22:00Z</time>
      </trkpt>
      <trkpt lat="43.82297" lon="6.23923">
        <ele>860</ele>
        <time>2022-06-09T18:22:03Z</time>
      </trkpt>
      <trkpt lat="43.82297" lon="6.2392">
        <ele>859</ele>
        <time>2022-06-09T18:22:03Z</time>
      </trkpt>
      <trkpt lat="43.82305" lon="6.23912">
        <ele>858</ele>
        <time>2022-06-09T18:22:06Z</time>
      </trkpt>
      <trkpt lat="43.82327" lon="6.23924">
        <ele>870</ele>
        <time>2022-06-09T18:22:11Z</time>
      </trkpt>
      <trkpt lat="43.82326" lon="6.23914">
        <ele>865</ele>
        <time>2022-06-09T18:22:13Z</time>
      </trkpt>
      <trkpt lat="43.82348" lon="6.23924">
        <ele>874</ele>
        <time>2022-06-09T18:22:18Z</time>
      </trkpt>
      <trkpt lat="43.82368" lon="6.2392">
        <ele>875</ele>
        <time>2022-06-09T18:22:23Z</time>
      </trkpt>
      <trkpt lat="43.82371" lon="6.23918">
        <ele>875</ele>
        <time>2022-06-09T18:22:24Z</time>
      </trkpt>
      <trkpt lat="43.82373" lon="6.23908">
        <ele>870</ele>
        <time>2022-06-09T18:22:26Z</time>
      </trkpt>
      <trkpt lat="43.8238" lon="6.23899">
        <ele>866</ele>
        <time>2022-06-09T18:22:28Z</time>
      </trkpt>
      <trkpt lat="43.82382" lon="6.2389">
        <ele>862</ele>
        <time>2022-06-09T18:22:29Z</time>
      </trkpt>
      <trkpt lat="43.8239" lon="6.23877">
        <ele>856</ele>
        <time>2022-06-09T18:22:32Z</time>
      </trkpt>
      <trkpt lat="43.82394" lon="6.23878">
        <ele>857</ele>
        <time>2022-06-09T18:22:33Z</time>
      </trkpt>
      <trkpt lat="43.82395" lon="6.23887">
        <ele>862</ele>
        <time>2022-06-09T18:22:35Z</time>
      </trkpt>
      <trkpt lat="43.824" lon="6.23887">
        <ele>862</ele>
        <time>2022-06-09T18:22:36Z</time>
      </trkpt>
      <trkpt lat="43.82407" lon="6.23867">
        <ele>852</ele>
        <time>2022-06-09T18:22:40Z</time>
      </trkpt>
      <trkpt lat="43.82413" lon="6.2387">
        <ele>854</ele>
        <time>2022-06-09T18:22:41Z</time>
      </trkpt>
      <trkpt lat="43.82421" lon="6.23863">
        <ele>854</ele>
        <time>2022-06-09T18:22:43Z</time>
      </trkpt>
      <trkpt lat="43.82422" lon="6.2386">
        <ele>853</ele>
        <time>2022-06-09T18:22:44Z</time>
      </trkpt>
      <trkpt lat="43.82417" lon="6.23847">
        <ele>843</ele>
        <time>2022-06-09T18:22:46Z</time>
      </trkpt>
      <trkpt lat="43.82412" lon="6.23848">
        <ele>843</ele>
        <time>2022-06-09T18:22:48Z</time>
      </trkpt>
      <trkpt lat="43.82412" lon="6.23845">
        <ele>841</ele>
        <time>2022-06-09T18:22:48Z</time>
      </trkpt>
      <trkpt lat="43.82402" lon="6.23844">
        <ele>840</ele>
        <time>2022-06-09T18:22:51Z</time>
      </trkpt>
      <trkpt lat="43.824" lon="6.23841">
        <ele>838</ele>
        <time>2022-06-09T18:22:51Z</time>
      </trkpt>
      <trkpt lat="43.82401" lon="6.23823">
        <ele>827</ele>
        <time>2022-06-09T18:22:54Z</time>
      </trkpt>
      <trkpt lat="43.82407" lon="6.23801">
        <ele>810</ele>
        <time>2022-06-09T18:22:58Z</time>
      </trkpt>
      <trkpt lat="43.82418" lon="6.23791">
        <ele>803</ele>
        <time>2022-06-09T18:23:01Z</time>
      </trkpt>
      <trkpt lat="43.82423" lon="6.23799">
        <ele>812</ele>
        <time>2022-06-09T18:23:03Z</time>
      </trkpt>
      <trkpt lat="43.82432" lon="6.23803">
        <ele>821</ele>
        <time>2022-06-09T18:23:05Z</time>
      </trkpt>
      <trkpt lat="43.82452" lon="6.23798">
        <ele>828</ele>
        <time>2022-06-09T18:23:10Z</time>
      </trkpt>
      <trkpt lat="43.82467" lon="6.23788">
        <ele>828</ele>
        <time>2022-06-09T18:23:14Z</time>
      </trkpt>
      <trkpt lat="43.82475" lon="6.23786">
        <ele>830</ele>
        <time>2022-06-09T18:23:16Z</time>
      </trkpt>
      <trkpt lat="43.82488" lon="6.23773">
        <ele>824</ele>
        <time>2022-06-09T18:23:20Z</time>
      </trkpt>
      <trkpt lat="43.82521" lon="6.23721">
        <ele>806</ele>
        <time>2022-06-09T18:23:31Z</time>
      </trkpt>
      <trkpt lat="43.82525" lon="6.23706">
        <ele>801</ele>
        <time>2022-06-09T18:23:34Z</time>
      </trkpt>
      <trkpt lat="43.82529" lon="6.237">
        <ele>800</ele>
        <time>2022-06-09T18:23:35Z</time>
      </trkpt>
      <trkpt lat="43.82529" lon="6.23689">
        <ele>794</ele>
        <time>2022-06-09T18:23:37Z</time>
      </trkpt>
      <trkpt lat="43.8254" lon="6.23662">
        <ele>785</ele>
        <time>2022-06-09T18:23:42Z</time>
      </trkpt>
      <trkpt lat="43.82545" lon="6.2363">
        <ele>774</ele>
        <time>2022-06-09T18:23:48Z</time>
      </trkpt>
      <trkpt lat="43.82586" lon="6.23573">
        <ele>768</ele>
        <time>2022-06-09T18:24:01Z</time>
      </trkpt>
      <trkpt lat="43.82582" lon="6.23568">
        <ele>765</ele>
        <time>2022-06-09T18:24:03Z</time>
      </trkpt>
      <trkpt lat="43.82584" lon="6.2356">
        <ele>761</ele>
        <time>2022-06-09T18:24:04Z</time>
      </trkpt>
      <trkpt lat="43.82594" lon="6.2355">
        <ele>756</ele>
        <time>2022-06-09T18:24:07Z</time>
      </trkpt>
      <trkpt lat="43.82608" lon="6.23551">
        <ele>758</ele>
        <time>2022-06-09T18:24:10Z</time>
      </trkpt>
      <trkpt lat="43.82615" lon="6.23549">
        <ele>757</ele>
        <time>2022-06-09T18:24:12Z</time>
      </trkpt>
      <trkpt lat="43.82618" lon="6.23543">
        <ele>755</ele>
        <time>2022-06-09T18:24:13Z</time>
      </trkpt>
      <trkpt lat="43.82623" lon="6.23541">
        <ele>754</ele>
        <time>2022-06-09T18:24:14Z</time>
      </trkpt>
      <trkpt lat="43.82623" lon="6.23537">
        <ele>752</ele>
        <time>2022-06-09T18:24:15Z</time>
      </trkpt>
      <trkpt lat="43.82631" lon="6.23536">
        <ele>752</ele>
        <time>2022-06-09T18:24:17Z</time>
      </trkpt>
      <trkpt lat="43.82635" lon="6.2353">
        <ele>750</ele>
        <time>2022-06-09T18:24:18Z</time>
      </trkpt>
      <trkpt lat="43.82639" lon="6.23515">
        <ele>743</ele>
        <time>2022-06-09T18:24:21Z</time>
      </trkpt>
      <trkpt lat="43.82646" lon="6.2351">
        <ele>742</ele>
        <time>2022-06-09T18:24:23Z</time>
      </trkpt>
      <trkpt lat="43.82648" lon="6.23497">
        <ele>736</ele>
        <time>2022-06-09T18:24:25Z</time>
      </trkpt>
      <trkpt lat="43.82658" lon="6.23486">
        <ele>733</ele>
        <time>2022-06-09T18:24:28Z</time>
      </trkpt>
      <trkpt lat="43.82664" lon="6.23483">
        <ele>733</ele>
        <time>2022-06-09T18:24:30Z</time>
      </trkpt>
      <trkpt lat="43.82665" lon="6.23473">
        <ele>729</ele>
        <time>2022-06-09T18:24:31Z</time>
      </trkpt>
      <trkpt lat="43.82672" lon="6.23459">
        <ele>724</ele>
        <time>2022-06-09T18:24:34Z</time>
      </trkpt>
      <trkpt lat="43.82663" lon="6.23415">
        <ele>707</ele>
        <time>2022-06-09T18:24:42Z</time>
      </trkpt>
      <trkpt lat="43.82665" lon="6.23405">
        <ele>705</ele>
        <time>2022-06-09T18:24:44Z</time>
      </trkpt>
      <trkpt lat="43.82666" lon="6.23403">
        <ele>704</ele>
        <time>2022-06-09T18:24:44Z</time>
      </trkpt>
      <trkpt lat="43.82674" lon="6.23407">
        <ele>705</ele>
        <time>2022-06-09T18:24:46Z</time>
      </trkpt>
      <trkpt lat="43.8268" lon="6.23392">
        <ele>700</ele>
        <time>2022-06-09T18:24:49Z</time>
      </trkpt>
      <trkpt lat="43.82679" lon="6.23374">
        <ele>696</ele>
        <time>2022-06-09T18:24:52Z</time>
      </trkpt>
      <trkpt lat="43.82691" lon="6.23342">
        <ele>686</ele>
        <time>2022-06-09T18:24:58Z</time>
      </trkpt>
      <trkpt lat="43.82695" lon="6.23319">
        <ele>680</ele>
        <time>2022-06-09T18:25:02Z</time>
      </trkpt>
      <trkpt lat="43.82696" lon="6.23295">
        <ele>674</ele>
        <time>2022-06-09T18:25:06Z</time>
      </trkpt>
      <trkpt lat="43.82704" lon="6.23282">
        <ele>669</ele>
        <time>2022-06-09T18:25:09Z</time>
      </trkpt>
      <trkpt lat="43.82712" lon="6.23279">
        <ele>668</ele>
        <time>2022-06-09T18:25:11Z</time>
      </trkpt>
      <trkpt lat="43.8272" lon="6.23259">
        <ele>662</ele>
        <time>2022-06-09T18:25:15Z</time>
      </trkpt>
      <trkpt lat="43.82725" lon="6.2323">
        <ele>653</ele>
        <time>2022-06-09T18:25:20Z</time>
      </trkpt>
      <trkpt lat="43.82738" lon="6.23192">
        <ele>643</ele>
        <time>2022-06-09T18:25:27Z</time>
      </trkpt>
      <trkpt lat="43.82739" lon="6.23179">
        <ele>640</ele>
        <time>2022-06-09T18:25:29Z</time>
      </trkpt>
      <trkpt lat="43.82746" lon="6.23166">
        <ele>637</ele>
        <time>2022-06-09T18:25:32Z</time>
      </trkpt>
      <trkpt lat="43.82753" lon="6.23125">
        <ele>626</ele>
        <time>2022-06-09T18:25:39Z</time>
      </trkpt>
      <trkpt lat="43.82751" lon="6.23095">
        <ele>618</ele>
        <time>2022-06-09T18:25:44Z</time>
      </trkpt>
      <trkpt lat="43.82754" lon="6.23088">
        <ele>616</ele>
        <time>2022-06-09T18:25:45Z</time>
      </trkpt>
      <trkpt lat="43.82752" lon="6.23069">
        <ele>612</ele>
        <time>2022-06-09T18:25:49Z</time>
      </trkpt>
      <trkpt lat="43.82755" lon="6.23041">
        <ele>605</ele>
        <time>2022-06-09T18:25:53Z</time>
      </trkpt>
      <trkpt lat="43.82782" lon="6.22972">
        <ele>590</ele>
        <time>2022-06-09T18:26:06Z</time>
      </trkpt>
      <trkpt lat="43.82788" lon="6.22962">
        <ele>588</ele>
        <time>2022-06-09T18:26:09Z</time>
      </trkpt>
      <trkpt lat="43.82796" lon="6.22935">
        <ele>582</ele>
        <time>2022-06-09T18:26:14Z</time>
      </trkpt>
      <trkpt lat="43.82795" lon="6.22902">
        <ele>577</ele>
        <time>2022-06-09T18:26:19Z</time>
      </trkpt>
      <trkpt lat="43.82799" lon="6.22874">
        <ele>573</ele>
        <time>2022-06-09T18:26:24Z</time>
      </trkpt>
      <trkpt lat="43.82822" lon="6.22767">
        <ele>560</ele>
        <time>2022-06-09T18:26:43Z</time>
      </trkpt>
      <trkpt lat="43.82824" lon="6.22698">
        <ele>553</ele>
        <time>2022-06-09T18:26:54Z</time>
      </trkpt>
      <trkpt lat="43.82826" lon="6.22691">
        <ele>553</ele>
        <time>2022-06-09T18:26:56Z</time>
      </trkpt>
      <trkpt lat="43.82839" lon="6.22673">
        <ele>550</ele>
        <time>2022-06-09T18:27:00Z</time>
      </trkpt>
      <trkpt lat="43.82835" lon="6.22672">
        <ele>550</ele>
        <time>2022-06-09T18:27:01Z</time>
      </trkpt>
      <trkpt lat="43.8283" lon="6.22666">
        <ele>550</ele>
        <time>2022-06-09T18:27:02Z</time>
      </trkpt>
      <trkpt lat="43.82824" lon="6.2263">
        <ele>545</ele>
        <time>2022-06-09T18:27:09Z</time>
      </trkpt>
      <trkpt lat="43.82825" lon="6.22621">
        <ele>544</ele>
        <time>2022-06-09T18:27:10Z</time>
      </trkpt>
      <trkpt lat="43.82813" lon="6.22529">
        <ele>534</ele>
        <time>2022-06-09T18:27:26Z</time>
      </trkpt>
      <trkpt lat="43.82813" lon="6.22505">
        <ele>531</ele>
        <time>2022-06-09T18:27:30Z</time>
      </trkpt>
      <trkpt lat="43.82815" lon="6.225">
        <ele>531</ele>
        <time>2022-06-09T18:27:31Z</time>
      </trkpt>
      <trkpt lat="43.8282" lon="6.22494">
        <ele>530</ele>
        <time>2022-06-09T18:27:33Z</time>
      </trkpt>
      <trkpt lat="43.82832" lon="6.22487">
        <ele>529</ele>
        <time>2022-06-09T18:27:36Z</time>
      </trkpt>
      <trkpt lat="43.8285" lon="6.22486">
        <ele>528</ele>
        <time>2022-06-09T18:27:40Z</time>
      </trkpt>
      <trkpt lat="43.82913" lon="6.22495">
        <ele>522</ele>
        <time>2022-06-09T18:27:55Z</time>
      </trkpt>
      <trkpt lat="43.82987" lon="6.22498">
        <ele>521</ele>
        <time>2022-06-09T18:28:12Z</time>
      </trkpt>
      <trkpt lat="43.8303" lon="6.22503">
        <ele>523</ele>
        <time>2022-06-09T18:28:22Z</time>
      </trkpt>
      <trkpt lat="43.8306" lon="6.22503">
        <ele>526</ele>
        <time>2022-06-09T18:28:29Z</time>
      </trkpt>
      <trkpt lat="43.83081" lon="6.22498">
        <ele>527</ele>
        <time>2022-06-09T18:28:34Z</time>
      </trkpt>
      <trkpt lat="43.83115" lon="6.22481">
        <ele>530</ele>
        <time>2022-06-09T18:28:42Z</time>
      </trkpt>
      <trkpt lat="43.83134" lon="6.22463">
        <ele>531</ele>
        <time>2022-06-09T18:28:48Z</time>
      </trkpt>
      <trkpt lat="43.8316" lon="6.22431">
        <ele>532</ele>
        <time>2022-06-09T18:28:56Z</time>
      </trkpt>
      <trkpt lat="43.83277" lon="6.22236">
        <ele>533</ele>
        <time>2022-06-09T18:29:39Z</time>
      </trkpt>
      <trkpt lat="43.83302" lon="6.22199">
        <ele>534</ele>
        <time>2022-06-09T18:29:47Z</time>
      </trkpt>
      <trkpt lat="43.83336" lon="6.22155">
        <ele>534</ele>
        <time>2022-06-09T18:29:58Z</time>
      </trkpt>
      <trkpt lat="43.83342" lon="6.22149">
        <ele>535</ele>
        <time>2022-06-09T18:30:00Z</time>
      </trkpt>
      <trkpt lat="43.83379" lon="6.22127">
        <ele>537</ele>
        <time>2022-06-09T18:30:09Z</time>
      </trkpt>
      <trkpt lat="43.83405" lon="6.22107">
        <ele>538</ele>
        <time>2022-06-09T18:30:16Z</time>
      </trkpt>
      <trkpt lat="43.83437" lon="6.22087">
        <ele>541</ele>
        <time>2022-06-09T18:30:24Z</time>
      </trkpt>
      <trkpt lat="43.83453" lon="6.22085">
        <ele>544</ele>
        <time>2022-06-09T18:30:28Z</time>
      </trkpt>
      <trkpt lat="43.83463" lon="6.22096">
        <ele>546</ele>
        <time>2022-06-09T18:30:31Z</time>
      </trkpt>
      <trkpt lat="43.83464" lon="6.22105">
        <ele>547</ele>
        <time>2022-06-09T18:30:33Z</time>
      </trkpt>
      <trkpt lat="43.83459" lon="6.22119">
        <ele>547</ele>
        <time>2022-06-09T18:30:35Z</time>
      </trkpt>
      <trkpt lat="43.83436" lon="6.22154">
        <ele>546</ele>
        <time>2022-06-09T18:30:43Z</time>
      </trkpt>
      <trkpt lat="43.83414" lon="6.22178">
        <ele>544</ele>
        <time>2022-06-09T18:30:50Z</time>
      </trkpt>
      <trkpt lat="43.83402" lon="6.22201">
        <ele>544</ele>
        <time>2022-06-09T18:30:54Z</time>
      </trkpt>
      <trkpt lat="43.83403" lon="6.22219">
        <ele>546</ele>
        <time>2022-06-09T18:30:57Z</time>
      </trkpt>
      <trkpt lat="43.83406" lon="6.22226">
        <ele>547</ele>
        <time>2022-06-09T18:30:59Z</time>
      </trkpt>
      <trkpt lat="43.83414" lon="6.22234">
        <ele>548</ele>
        <time>2022-06-09T18:31:01Z</time>
      </trkpt>
      <trkpt lat="43.83418" lon="6.22235">
        <ele>549</ele>
        <time>2022-06-09T18:31:02Z</time>
      </trkpt>
      <trkpt lat="43.83431" lon="6.22227">
        <ele>551</ele>
        <time>2022-06-09T18:31:05Z</time>
      </trkpt>
      <trkpt lat="43.83446" lon="6.22212">
        <ele>553</ele>
        <time>2022-06-09T18:31:10Z</time>
      </trkpt>
      <trkpt lat="43.8346" lon="6.22205">
        <ele>555</ele>
        <time>2022-06-09T18:31:13Z</time>
      </trkpt>
      <trkpt lat="43.83484" lon="6.22199">
        <ele>559</ele>
        <time>2022-06-09T18:31:19Z</time>
      </trkpt>
      <trkpt lat="43.83491" lon="6.22193">
        <ele>559</ele>
        <time>2022-06-09T18:31:21Z</time>
      </trkpt>
      <trkpt lat="43.83499" lon="6.22182">
        <ele>559</ele>
        <time>2022-06-09T18:31:23Z</time>
      </trkpt>
      <trkpt lat="43.83507" lon="6.22156">
        <ele>559</ele>
        <time>2022-06-09T18:31:28Z</time>
      </trkpt>
      <trkpt lat="43.83517" lon="6.22135">
        <ele>559</ele>
        <time>2022-06-09T18:31:32Z</time>
      </trkpt>
      <trkpt lat="43.83537" lon="6.2211">
        <ele>560</ele>
        <time>2022-06-09T18:31:39Z</time>
      </trkpt>
      <trkpt lat="43.83545" lon="6.22104">
        <ele>561</ele>
        <time>2022-06-09T18:31:41Z</time>
      </trkpt>
      <trkpt lat="43.83559" lon="6.22099">
        <ele>563</ele>
        <time>2022-06-09T18:31:44Z</time>
      </trkpt>
      <trkpt lat="43.83581" lon="6.22096">
        <ele>566</ele>
        <time>2022-06-09T18:31:49Z</time>
      </trkpt>
      <trkpt lat="43.83613" lon="6.22078">
        <ele>567</ele>
        <time>2022-06-09T18:31:58Z</time>
      </trkpt>
      <trkpt lat="43.83627" lon="6.22074">
        <ele>567</ele>
        <time>2022-06-09T18:32:01Z</time>
      </trkpt>
      <trkpt lat="43.83648" lon="6.22075">
        <ele>569</ele>
        <time>2022-06-09T18:32:06Z</time>
      </trkpt>
      <trkpt lat="43.83675" lon="6.22082">
        <ele>572</ele>
        <time>2022-06-09T18:32:12Z</time>
      </trkpt>
      <trkpt lat="43.83726" lon="6.22102">
        <ele>579</ele>
        <time>2022-06-09T18:32:25Z</time>
      </trkpt>
      <trkpt lat="43.83758" lon="6.22119">
        <ele>584</ele>
        <time>2022-06-09T18:32:33Z</time>
      </trkpt>
      <trkpt lat="43.83788" lon="6.22147">
        <ele>588</ele>
        <time>2022-06-09T18:32:41Z</time>
      </trkpt>
      <trkpt lat="43.83801" lon="6.22181">
        <ele>593</ele>
        <time>2022-06-09T18:32:47Z</time>
      </trkpt>
      <trkpt lat="43.83808" lon="6.22181">
        <ele>593</ele>
        <time>2022-06-09T18:32:49Z</time>
      </trkpt>
      <trkpt lat="43.83819" lon="6.22187">
        <ele>593</ele>
        <time>2022-06-09T18:32:52Z</time>
      </trkpt>
      <trkpt lat="43.83829" lon="6.22186">
        <ele>592</ele>
        <time>2022-06-09T18:32:54Z</time>
      </trkpt>
      <trkpt lat="43.83842" lon="6.22178">
        <ele>591</ele>
        <time>2022-06-09T18:32:58Z</time>
      </trkpt>
      <trkpt lat="43.83848" lon="6.2217">
        <ele>590</ele>
        <time>2022-06-09T18:32:59Z</time>
      </trkpt>
      <trkpt lat="43.83857" lon="6.22147">
        <ele>588</ele>
        <time>2022-06-09T18:33:04Z</time>
      </trkpt>
      <trkpt lat="43.83863" lon="6.22138">
        <ele>588</ele>
        <time>2022-06-09T18:33:06Z</time>
      </trkpt>
      <trkpt lat="43.83884" lon="6.2213">
        <ele>589</ele>
        <time>2022-06-09T18:33:11Z</time>
      </trkpt>
      <trkpt lat="43.83898" lon="6.22132">
        <ele>590</ele>
        <time>2022-06-09T18:33:14Z</time>
      </trkpt>
      <trkpt lat="43.83912" lon="6.22143">
        <ele>592</ele>
        <time>2022-06-09T18:33:18Z</time>
      </trkpt>
      <trkpt lat="43.83934" lon="6.22178">
        <ele>596</ele>
        <time>2022-06-09T18:33:26Z</time>
      </trkpt>
      <trkpt lat="43.83941" lon="6.22196">
        <ele>599</ele>
        <time>2022-06-09T18:33:29Z</time>
      </trkpt>
      <trkpt lat="43.83952" lon="6.22203">
        <ele>599</ele>
        <time>2022-06-09T18:33:32Z</time>
      </trkpt>
      <trkpt lat="43.83959" lon="6.22204">
        <ele>599</ele>
        <time>2022-06-09T18:33:34Z</time>
      </trkpt>
      <trkpt lat="43.84007" lon="6.22203">
        <ele>597</ele>
        <time>2022-06-09T18:33:45Z</time>
      </trkpt>
      <trkpt lat="43.84024" lon="6.222">
        <ele>598</ele>
        <time>2022-06-09T18:33:49Z</time>
      </trkpt>
      <trkpt lat="43.84038" lon="6.22193">
        <ele>599</ele>
        <time>2022-06-09T18:33:52Z</time>
      </trkpt>
      <trkpt lat="43.84098" lon="6.22146">
        <ele>600</ele>
        <time>2022-06-09T18:34:09Z</time>
      </trkpt>
      <trkpt lat="43.84112" lon="6.22145">
        <ele>601</ele>
        <time>2022-06-09T18:34:12Z</time>
      </trkpt>
      <trkpt lat="43.84144" lon="6.22155">
        <ele>606</ele>
        <time>2022-06-09T18:34:20Z</time>
      </trkpt>
      <trkpt lat="43.84157" lon="6.22149">
        <ele>607</ele>
        <time>2022-06-09T18:34:23Z</time>
      </trkpt>
      <trkpt lat="43.84185" lon="6.22125">
        <ele>606</ele>
        <time>2022-06-09T18:34:30Z</time>
      </trkpt>
      <trkpt lat="43.8424" lon="6.22116">
        <ele>610</ele>
        <time>2022-06-09T18:34:43Z</time>
      </trkpt>
      <trkpt lat="43.84252" lon="6.22122">
        <ele>612</ele>
        <time>2022-06-09T18:34:46Z</time>
      </trkpt>
      <trkpt lat="43.84276" lon="6.22152">
        <ele>617</ele>
        <time>2022-06-09T18:34:54Z</time>
      </trkpt>
      <trkpt lat="43.84288" lon="6.2216">
        <ele>619</ele>
        <time>2022-06-09T18:34:57Z</time>
      </trkpt>
      <trkpt lat="43.84296" lon="6.22154">
        <ele>618</ele>
        <time>2022-06-09T18:34:59Z</time>
      </trkpt>
      <trkpt lat="43.84308" lon="6.22156">
        <ele>619</ele>
        <time>2022-06-09T18:35:02Z</time>
      </trkpt>
      <trkpt lat="43.84334" lon="6.22181">
        <ele>623</ele>
        <time>2022-06-09T18:35:09Z</time>
      </trkpt>
      <trkpt lat="43.84342" lon="6.22186">
        <ele>624</ele>
        <time>2022-06-09T18:35:11Z</time>
      </trkpt>
      <trkpt lat="43.84364" lon="6.22215">
        <ele>628</ele>
        <time>2022-06-09T18:35:18Z</time>
      </trkpt>
      <trkpt lat="43.84389" lon="6.22228">
        <ele>632</ele>
        <time>2022-06-09T18:35:25Z</time>
      </trkpt>
      <trkpt lat="43.84395" lon="6.22222">
        <ele>632</ele>
        <time>2022-06-09T18:35:26Z</time>
      </trkpt>
      <trkpt lat="43.84404" lon="6.22218">
        <ele>632</ele>
        <time>2022-06-09T18:35:29Z</time>
      </trkpt>
      <trkpt lat="43.84427" lon="6.22212">
        <ele>634</ele>
        <time>2022-06-09T18:35:34Z</time>
      </trkpt>
      <trkpt lat="43.84428" lon="6.22206">
        <ele>632</ele>
        <time>2022-06-09T18:35:35Z</time>
      </trkpt>
      <trkpt lat="43.8444" lon="6.22201">
        <ele>633</ele>
        <time>2022-06-09T18:35:38Z</time>
      </trkpt>
      <trkpt lat="43.84464" lon="6.22193">
        <ele>634</ele>
        <time>2022-06-09T18:35:44Z</time>
      </trkpt>
      <trkpt lat="43.84464" lon="6.22199">
        <ele>635</ele>
        <time>2022-06-09T18:35:45Z</time>
      </trkpt>
      <trkpt lat="43.8446" lon="6.22199">
        <ele>635</ele>
        <time>2022-06-09T18:35:46Z</time>
      </trkpt>
      <trkpt lat="43.84495" lon="6.22161">
        <ele>629</ele>
        <time>2022-06-09T18:35:56Z</time>
      </trkpt>
      <trkpt lat="43.8452" lon="6.22141">
        <ele>626</ele>
        <time>2022-06-09T18:36:03Z</time>
      </trkpt>
      <trkpt lat="43.84523" lon="6.22142">
        <ele>626</ele>
        <time>2022-06-09T18:36:04Z</time>
      </trkpt>
      <trkpt lat="43.84519" lon="6.22148">
        <ele>628</ele>
        <time>2022-06-09T18:36:05Z</time>
      </trkpt>
      <trkpt lat="43.8452" lon="6.22146">
        <ele>627</ele>
        <time>2022-06-09T18:36:05Z</time>
      </trkpt>
      <trkpt lat="43.84495" lon="6.22162">
        <ele>629</ele>
        <time>2022-06-09T18:36:12Z</time>
      </trkpt>
      <trkpt lat="43.84483" lon="6.22176">
        <ele>632</ele>
        <time>2022-06-09T18:36:15Z</time>
      </trkpt>
      <trkpt lat="43.84474" lon="6.22178">
        <ele>631</ele>
        <time>2022-06-09T18:36:18Z</time>
      </trkpt>
      <trkpt lat="43.84473" lon="6.22184">
        <ele>633</ele>
        <time>2022-06-09T18:36:19Z</time>
      </trkpt>
      <trkpt lat="43.84468" lon="6.22189">
        <ele>633</ele>
        <time>2022-06-09T18:36:20Z</time>
      </trkpt>
      <trkpt lat="43.84465" lon="6.22189">
        <ele>633</ele>
        <time>2022-06-09T18:36:21Z</time>
      </trkpt>
      <trkpt lat="43.84456" lon="6.22203">
        <ele>635</ele>
        <time>2022-06-09T18:36:24Z</time>
      </trkpt>
      <trkpt lat="43.84439" lon="6.22214">
        <ele>636</ele>
        <time>2022-06-09T18:36:28Z</time>
      </trkpt>
      <trkpt lat="43.84427" lon="6.22233">
        <ele>638</ele>
        <time>2022-06-09T18:36:33Z</time>
      </trkpt>
      <trkpt lat="43.84427" lon="6.22243">
        <ele>640</ele>
        <time>2022-06-09T18:36:34Z</time>
      </trkpt>
      <trkpt lat="43.8443" lon="6.22247">
        <ele>642</ele>
        <time>2022-06-09T18:36:35Z</time>
      </trkpt>
      <trkpt lat="43.8444" lon="6.22252">
        <ele>644</ele>
        <time>2022-06-09T18:36:38Z</time>
      </trkpt>
      <trkpt lat="43.84454" lon="6.22238">
        <ele>643</ele>
        <time>2022-06-09T18:36:42Z</time>
      </trkpt>
      <trkpt lat="43.84477" lon="6.22228">
        <ele>645</ele>
        <time>2022-06-09T18:36:47Z</time>
      </trkpt>
      <trkpt lat="43.84484" lon="6.22228">
        <ele>646</ele>
        <time>2022-06-09T18:36:49Z</time>
      </trkpt>
      <trkpt lat="43.8451" lon="6.22219">
        <ele>646</ele>
        <time>2022-06-09T18:36:55Z</time>
      </trkpt>
      <trkpt lat="43.84524" lon="6.2222">
        <ele>646</ele>
        <time>2022-06-09T18:36:59Z</time>
      </trkpt>
      <trkpt lat="43.84549" lon="6.22229">
        <ele>649</ele>
        <time>2022-06-09T18:37:05Z</time>
      </trkpt>
      <trkpt lat="43.84556" lon="6.22238">
        <ele>651</ele>
        <time>2022-06-09T18:37:07Z</time>
      </trkpt>
      <trkpt lat="43.84557" lon="6.22235">
        <ele>650</ele>
        <time>2022-06-09T18:37:07Z</time>
      </trkpt>
      <trkpt lat="43.84555" lon="6.2226">
        <ele>657</ele>
        <time>2022-06-09T18:37:12Z</time>
      </trkpt>
      <trkpt lat="43.8456" lon="6.22276">
        <ele>662</ele>
        <time>2022-06-09T18:37:15Z</time>
      </trkpt>
      <trkpt lat="43.84567" lon="6.22285">
        <ele>664</ele>
        <time>2022-06-09T18:37:17Z</time>
      </trkpt>
      <trkpt lat="43.84579" lon="6.22294">
        <ele>667</ele>
        <time>2022-06-09T18:37:20Z</time>
      </trkpt>
      <trkpt lat="43.84585" lon="6.22293">
        <ele>667</ele>
        <time>2022-06-09T18:37:21Z</time>
      </trkpt>
      <trkpt lat="43.84588" lon="6.22299">
        <ele>668</ele>
        <time>2022-06-09T18:37:23Z</time>
      </trkpt>
      <trkpt lat="43.84587" lon="6.22302">
        <ele>669</ele>
        <time>2022-06-09T18:37:23Z</time>
      </trkpt>
      <trkpt lat="43.8458" lon="6.22308">
        <ele>671</ele>
        <time>2022-06-09T18:37:25Z</time>
      </trkpt>
      <trkpt lat="43.84575" lon="6.22309">
        <ele>672</ele>
        <time>2022-06-09T18:37:26Z</time>
      </trkpt>
      <trkpt lat="43.84556" lon="6.22307">
        <ele>671</ele>
        <time>2022-06-09T18:37:31Z</time>
      </trkpt>
      <trkpt lat="43.84547" lon="6.22315">
        <ele>673</ele>
        <time>2022-06-09T18:37:33Z</time>
      </trkpt>
      <trkpt lat="43.84515" lon="6.22315">
        <ele>672</ele>
        <time>2022-06-09T18:37:41Z</time>
      </trkpt>
      <trkpt lat="43.84505" lon="6.22326">
        <ele>675</ele>
        <time>2022-06-09T18:37:44Z</time>
      </trkpt>
      <trkpt lat="43.84499" lon="6.22329">
        <ele>676</ele>
        <time>2022-06-09T18:37:45Z</time>
      </trkpt>
      <trkpt lat="43.84486" lon="6.22346">
        <ele>678</ele>
        <time>2022-06-09T18:37:49Z</time>
      </trkpt>
      <trkpt lat="43.84477" lon="6.22366">
        <ele>681</ele>
        <time>2022-06-09T18:37:53Z</time>
      </trkpt>
      <trkpt lat="43.84447" lon="6.22407">
        <ele>685</ele>
        <time>2022-06-09T18:38:03Z</time>
      </trkpt>
      <trkpt lat="43.84427" lon="6.22462">
        <ele>697</ele>
        <time>2022-06-09T18:38:13Z</time>
      </trkpt>
      <trkpt lat="43.84419" lon="6.2247">
        <ele>697</ele>
        <time>2022-06-09T18:38:16Z</time>
      </trkpt>
      <trkpt lat="43.84415" lon="6.22481">
        <ele>700</ele>
        <time>2022-06-09T18:38:18Z</time>
      </trkpt>
      <trkpt lat="43.84402" lon="6.22491">
        <ele>703</ele>
        <time>2022-06-09T18:38:21Z</time>
      </trkpt>
      <trkpt lat="43.84393" lon="6.22503">
        <ele>707</ele>
        <time>2022-06-09T18:38:24Z</time>
      </trkpt>
      <trkpt lat="43.84392" lon="6.22508">
        <ele>709</ele>
        <time>2022-06-09T18:38:25Z</time>
      </trkpt>
      <trkpt lat="43.84394" lon="6.2251">
        <ele>711</ele>
        <time>2022-06-09T18:38:26Z</time>
      </trkpt>
      <trkpt lat="43.84398" lon="6.22506">
        <ele>709</ele>
        <time>2022-06-09T18:38:27Z</time>
      </trkpt>
      <trkpt lat="43.84406" lon="6.22507">
        <ele>710</ele>
        <time>2022-06-09T18:38:29Z</time>
      </trkpt>
      <trkpt lat="43.84409" lon="6.22512">
        <ele>713</ele>
        <time>2022-06-09T18:38:30Z</time>
      </trkpt>
      <trkpt lat="43.84405" lon="6.22522">
        <ele>718</ele>
        <time>2022-06-09T18:38:32Z</time>
      </trkpt>
      <trkpt lat="43.84388" lon="6.2254">
        <ele>726</ele>
        <time>2022-06-09T18:38:37Z</time>
      </trkpt>
      <trkpt lat="43.84384" lon="6.22542">
        <ele>726</ele>
        <time>2022-06-09T18:38:38Z</time>
      </trkpt>
      <trkpt lat="43.8437" lon="6.22538">
        <ele>722</ele>
        <time>2022-06-09T18:38:41Z</time>
      </trkpt>
      <trkpt lat="43.84358" lon="6.22519">
        <ele>712</ele>
        <time>2022-06-09T18:38:45Z</time>
      </trkpt>
      <trkpt lat="43.84348" lon="6.22511">
        <ele>708</ele>
        <time>2022-06-09T18:38:48Z</time>
      </trkpt>
      <trkpt lat="43.8434" lon="6.22511">
        <ele>707</ele>
        <time>2022-06-09T18:38:50Z</time>
      </trkpt>
      <trkpt lat="43.84341" lon="6.22538">
        <ele>717</ele>
        <time>2022-06-09T18:38:54Z</time>
      </trkpt>
      <trkpt lat="43.84334" lon="6.22543">
        <ele>717</ele>
        <time>2022-06-09T18:38:56Z</time>
      </trkpt>
      <trkpt lat="43.84332" lon="6.22558">
        <ele>722</ele>
        <time>2022-06-09T18:38:59Z</time>
      </trkpt>
      <trkpt lat="43.84348" lon="6.22589">
        <ele>738</ele>
        <time>2022-06-09T18:39:05Z</time>
      </trkpt>
      <trkpt lat="43.84373" lon="6.226">
        <ele>755</ele>
        <time>2022-06-09T18:39:11Z</time>
      </trkpt>
      <trkpt lat="43.84371" lon="6.22609">
        <ele>760</ele>
        <time>2022-06-09T18:39:13Z</time>
      </trkpt>
      <trkpt lat="43.84352" lon="6.2262">
        <ele>758</ele>
        <time>2022-06-09T18:39:18Z</time>
      </trkpt>
      <trkpt lat="43.84347" lon="6.2262">
        <ele>755</ele>
        <time>2022-06-09T18:39:19Z</time>
      </trkpt>
      <trkpt lat="43.84343" lon="6.22627">
        <ele>757</ele>
        <time>2022-06-09T18:39:20Z</time>
      </trkpt>
      <trkpt lat="43.84322" lon="6.2264">
        <ele>757</ele>
        <time>2022-06-09T18:39:26Z</time>
      </trkpt>
      <trkpt lat="43.84316" lon="6.22639">
        <ele>756</ele>
        <time>2022-06-09T18:39:27Z</time>
      </trkpt>
      <trkpt lat="43.84311" lon="6.22643">
        <ele>757</ele>
        <time>2022-06-09T18:39:29Z</time>
      </trkpt>
      <trkpt lat="43.84295" lon="6.22633">
        <ele>753</ele>
        <time>2022-06-09T18:39:33Z</time>
      </trkpt>
      <trkpt lat="43.8428" lon="6.22629">
        <ele>751</ele>
        <time>2022-06-09T18:39:36Z</time>
      </trkpt>
      <trkpt lat="43.84276" lon="6.22625">
        <ele>750</ele>
        <time>2022-06-09T18:39:37Z</time>
      </trkpt>
      <trkpt lat="43.84274" lon="6.22613">
        <ele>746</ele>
        <time>2022-06-09T18:39:40Z</time>
      </trkpt>
      <trkpt lat="43.84275" lon="6.226">
        <ele>742</ele>
        <time>2022-06-09T18:39:42Z</time>
      </trkpt>
      <trkpt lat="43.84271" lon="6.22597">
        <ele>742</ele>
        <time>2022-06-09T18:39:43Z</time>
      </trkpt>
      <trkpt lat="43.8427" lon="6.22589">
        <ele>740</ele>
        <time>2022-06-09T18:39:44Z</time>
      </trkpt>
      <trkpt lat="43.84264" lon="6.22601">
        <ele>744</ele>
        <time>2022-06-09T18:39:47Z</time>
      </trkpt>
      <trkpt lat="43.8425" lon="6.22616">
        <ele>748</ele>
        <time>2022-06-09T18:39:51Z</time>
      </trkpt>
      <trkpt lat="43.84233" lon="6.22647">
        <ele>747</ele>
        <time>2022-06-09T18:39:57Z</time>
      </trkpt>
      <trkpt lat="43.84233" lon="6.22652">
        <ele>748</ele>
        <time>2022-06-09T18:39:58Z</time>
      </trkpt>
      <trkpt lat="43.84238" lon="6.22661">
        <ele>752</ele>
        <time>2022-06-09T18:40:00Z</time>
      </trkpt>
      <trkpt lat="43.84248" lon="6.22667">
        <ele>757</ele>
        <time>2022-06-09T18:40:03Z</time>
      </trkpt>
      <trkpt lat="43.84269" lon="6.22686">
        <ele>767</ele>
        <time>2022-06-09T18:40:08Z</time>
      </trkpt>
      <trkpt lat="43.8426" lon="6.22699">
        <ele>769</ele>
        <time>2022-06-09T18:40:11Z</time>
      </trkpt>
      <trkpt lat="43.8426" lon="6.22716">
        <ele>774</ele>
        <time>2022-06-09T18:40:14Z</time>
      </trkpt>
      <trkpt lat="43.84257" lon="6.22727">
        <ele>776</ele>
        <time>2022-06-09T18:40:16Z</time>
      </trkpt>
      <trkpt lat="43.84262" lon="6.22728">
        <ele>778</ele>
        <time>2022-06-09T18:40:18Z</time>
      </trkpt>
      <trkpt lat="43.84267" lon="6.22724">
        <ele>779</ele>
        <time>2022-06-09T18:40:19Z</time>
      </trkpt>
      <trkpt lat="43.84276" lon="6.22722">
        <ele>782</ele>
        <time>2022-06-09T18:40:21Z</time>
      </trkpt>
      <trkpt lat="43.84271" lon="6.22741">
        <ele>787</ele>
        <time>2022-06-09T18:40:24Z</time>
      </trkpt>
      <trkpt lat="43.84256" lon="6.22751">
        <ele>782</ele>
        <time>2022-06-09T18:40:28Z</time>
      </trkpt>
      <trkpt lat="43.84244" lon="6.22769">
        <ele>788</ele>
        <time>2022-06-09T18:40:32Z</time>
      </trkpt>
      <trkpt lat="43.84244" lon="6.22773">
        <ele>790</ele>
        <time>2022-06-09T18:40:33Z</time>
      </trkpt>
      <trkpt lat="43.8425" lon="6.22777">
        <ele>796</ele>
        <time>2022-06-09T18:40:35Z</time>
      </trkpt>
      <trkpt lat="43.84257" lon="6.22775">
        <ele>798</ele>
        <time>2022-06-09T18:40:36Z</time>
      </trkpt>
      <trkpt lat="43.84261" lon="6.22777">
        <ele>802</ele>
        <time>2022-06-09T18:40:37Z</time>
      </trkpt>
      <trkpt lat="43.84273" lon="6.22763">
        <ele>799</ele>
        <time>2022-06-09T18:40:41Z</time>
      </trkpt>
      <trkpt lat="43.84276" lon="6.22761">
        <ele>799</ele>
        <time>2022-06-09T18:40:42Z</time>
      </trkpt>
      <trkpt lat="43.84282" lon="6.22763">
        <ele>804</ele>
        <time>2022-06-09T18:40:43Z</time>
      </trkpt>
      <trkpt lat="43.84299" lon="6.22745">
        <ele>803</ele>
        <time>2022-06-09T18:40:48Z</time>
      </trkpt>
      <trkpt lat="43.84305" lon="6.22742">
        <ele>805</ele>
        <time>2022-06-09T18:40:50Z</time>
      </trkpt>
      <trkpt lat="43.84303" lon="6.22749">
        <ele>807</ele>
        <time>2022-06-09T18:40:51Z</time>
      </trkpt>
      <trkpt lat="43.84291" lon="6.22764">
        <ele>809</ele>
        <time>2022-06-09T18:40:55Z</time>
      </trkpt>
      <trkpt lat="43.8429" lon="6.22769">
        <ele>812</ele>
        <time>2022-06-09T18:40:56Z</time>
      </trkpt>
      <trkpt lat="43.84271" lon="6.22782">
        <ele>810</ele>
        <time>2022-06-09T18:41:01Z</time>
      </trkpt>
      <trkpt lat="43.8425" lon="6.22805">
        <ele>815</ele>
        <time>2022-06-09T18:41:07Z</time>
      </trkpt>
      <trkpt lat="43.84253" lon="6.22808">
        <ele>818</ele>
        <time>2022-06-09T18:41:08Z</time>
      </trkpt>
      <trkpt lat="43.84267" lon="6.22805">
        <ele>823</ele>
        <time>2022-06-09T18:41:11Z</time>
      </trkpt>
      <trkpt lat="43.84293" lon="6.22788">
        <ele>824</ele>
        <time>2022-06-09T18:41:18Z</time>
      </trkpt>
      <trkpt lat="43.84295" lon="6.2279">
        <ele>826</ele>
        <time>2022-06-09T18:41:18Z</time>
      </trkpt>
      <trkpt lat="43.84276" lon="6.22816">
        <ele>833</ele>
        <time>2022-06-09T18:41:24Z</time>
      </trkpt>
      <trkpt lat="43.84269" lon="6.22821">
        <ele>834</ele>
        <time>2022-06-09T18:41:26Z</time>
      </trkpt>
      <trkpt lat="43.8427" lon="6.22828">
        <ele>838</ele>
        <time>2022-06-09T18:41:28Z</time>
      </trkpt>
      <trkpt lat="43.84281" lon="6.2282">
        <ele>838</ele>
        <time>2022-06-09T18:41:30Z</time>
      </trkpt>
      <trkpt lat="43.84285" lon="6.22822">
        <ele>841</ele>
        <time>2022-06-09T18:41:31Z</time>
      </trkpt>
      <trkpt lat="43.84274" lon="6.22833">
        <ele>843</ele>
        <time>2022-06-09T18:41:35Z</time>
      </trkpt>
      <trkpt lat="43.84254" lon="6.22838">
        <ele>838</ele>
        <time>2022-06-09T18:41:39Z</time>
      </trkpt>
      <trkpt lat="43.84245" lon="6.22852">
        <ele>841</ele>
        <time>2022-06-09T18:41:42Z</time>
      </trkpt>
      <trkpt lat="43.84237" lon="6.22859">
        <ele>842</ele>
        <time>2022-06-09T18:41:45Z</time>
      </trkpt>
      <trkpt lat="43.84229" lon="6.22862">
        <ele>840</ele>
        <time>2022-06-09T18:41:47Z</time>
      </trkpt>
      <trkpt lat="43.84216" lon="6.22862">
        <ele>835</ele>
        <time>2022-06-09T18:41:50Z</time>
      </trkpt>
      <trkpt lat="43.84207" lon="6.22866">
        <ele>834</ele>
        <time>2022-06-09T18:41:52Z</time>
      </trkpt>
      <trkpt lat="43.84208" lon="6.2287">
        <ele>837</ele>
        <time>2022-06-09T18:41:53Z</time>
      </trkpt>
      <trkpt lat="43.84215" lon="6.2287">
        <ele>839</ele>
        <time>2022-06-09T18:41:54Z</time>
      </trkpt>
      <trkpt lat="43.84224" lon="6.22875">
        <ele>846</ele>
        <time>2022-06-09T18:41:56Z</time>
      </trkpt>
      <trkpt lat="43.84226" lon="6.22877">
        <ele>848</ele>
        <time>2022-06-09T18:41:57Z</time>
      </trkpt>
      <trkpt lat="43.84225" lon="6.22883">
        <ele>851</ele>
        <time>2022-06-09T18:41:58Z</time>
      </trkpt>
      <trkpt lat="43.84214" lon="6.22886">
        <ele>849</ele>
        <time>2022-06-09T18:42:01Z</time>
      </trkpt>
      <trkpt lat="43.84204" lon="6.22895">
        <ele>851</ele>
        <time>2022-06-09T18:42:03Z</time>
      </trkpt>
      <trkpt lat="43.84199" lon="6.22896">
        <ele>850</ele>
        <time>2022-06-09T18:42:05Z</time>
      </trkpt>
      <trkpt lat="43.84174" lon="6.2292">
        <ele>859</ele>
        <time>2022-06-09T18:42:12Z</time>
      </trkpt>
      <trkpt lat="43.84171" lon="6.22928">
        <ele>861</ele>
        <time>2022-06-09T18:42:13Z</time>
      </trkpt>
      <trkpt lat="43.84157" lon="6.22948">
        <ele>865</ele>
        <time>2022-06-09T18:42:18Z</time>
      </trkpt>
      <trkpt lat="43.8415" lon="6.22948">
        <ele>863</ele>
        <time>2022-06-09T18:42:20Z</time>
      </trkpt>
      <trkpt lat="43.84119" lon="6.22992">
        <ele>874</ele>
        <time>2022-06-09T18:42:30Z</time>
      </trkpt>
      <trkpt lat="43.84122" lon="6.22993">
        <ele>875</ele>
        <time>2022-06-09T18:42:31Z</time>
      </trkpt>
      <trkpt lat="43.84126" lon="6.22989">
        <ele>874</ele>
        <time>2022-06-09T18:42:32Z</time>
      </trkpt>
      <trkpt lat="43.84145" lon="6.22983">
        <ele>877</ele>
        <time>2022-06-09T18:42:36Z</time>
      </trkpt>
      <trkpt lat="43.8417" lon="6.2298">
        <ele>882</ele>
        <time>2022-06-09T18:42:42Z</time>
      </trkpt>
      <trkpt lat="43.8419" lon="6.22972">
        <ele>883</ele>
        <time>2022-06-09T18:42:47Z</time>
      </trkpt>
      <trkpt lat="43.84201" lon="6.22963">
        <ele>882</ele>
        <time>2022-06-09T18:42:50Z</time>
      </trkpt>
      <trkpt lat="43.84205" lon="6.22964">
        <ele>883</ele>
        <time>2022-06-09T18:42:51Z</time>
      </trkpt>
      <trkpt lat="43.84218" lon="6.22955">
        <ele>882</ele>
        <time>2022-06-09T18:42:54Z</time>
      </trkpt>
      <trkpt lat="43.84231" lon="6.22955">
        <ele>885</ele>
        <time>2022-06-09T18:42:57Z</time>
      </trkpt>
      <trkpt lat="43.84247" lon="6.22961">
        <ele>891</ele>
        <time>2022-06-09T18:43:01Z</time>
      </trkpt>
      <trkpt lat="43.84268" lon="6.22963">
        <ele>894</ele>
        <time>2022-06-09T18:43:06Z</time>
      </trkpt>
      <trkpt lat="43.84292" lon="6.22969">
        <ele>899</ele>
        <time>2022-06-09T18:43:12Z</time>
      </trkpt>
      <trkpt lat="43.84299" lon="6.22975">
        <ele>902</ele>
        <time>2022-06-09T18:43:14Z</time>
      </trkpt>
      <trkpt lat="43.84305" lon="6.22975">
        <ele>902</ele>
        <time>2022-06-09T18:43:15Z</time>
      </trkpt>
      <trkpt lat="43.84311" lon="6.22979">
        <ele>904</ele>
        <time>2022-06-09T18:43:17Z</time>
      </trkpt>
      <trkpt lat="43.8431" lon="6.22983">
        <ele>905</ele>
        <time>2022-06-09T18:43:18Z</time>
      </trkpt>
      <trkpt lat="43.84306" lon="6.22987">
        <ele>906</ele>
        <time>2022-06-09T18:43:19Z</time>
      </trkpt>
      <trkpt lat="43.843" lon="6.23001">
        <ele>909</ele>
        <time>2022-06-09T18:43:21Z</time>
      </trkpt>
      <trkpt lat="43.8429" lon="6.23013">
        <ele>909</ele>
        <time>2022-06-09T18:43:25Z</time>
      </trkpt>
      <trkpt lat="43.84259" lon="6.23031">
        <ele>908</ele>
        <time>2022-06-09T18:43:32Z</time>
      </trkpt>
      <trkpt lat="43.8425" lon="6.23032">
        <ele>908</ele>
        <time>2022-06-09T18:43:34Z</time>
      </trkpt>
      <trkpt lat="43.8425" lon="6.23086">
        <ele>911</ele>
        <time>2022-06-09T18:43:44Z</time>
      </trkpt>
      <trkpt lat="43.84238" lon="6.23125">
        <ele>903</ele>
        <time>2022-06-09T18:43:51Z</time>
      </trkpt>
      <trkpt lat="43.84239" lon="6.23128">
        <ele>902</ele>
        <time>2022-06-09T18:43:51Z</time>
      </trkpt>
      <trkpt lat="43.84244" lon="6.23127">
        <ele>902</ele>
        <time>2022-06-09T18:43:52Z</time>
      </trkpt>
      <trkpt lat="43.84262" lon="6.23092">
        <ele>910</ele>
        <time>2022-06-09T18:44:00Z</time>
      </trkpt>
      <trkpt lat="43.84268" lon="6.23086">
        <ele>912</ele>
        <time>2022-06-09T18:44:01Z</time>
      </trkpt>
      <trkpt lat="43.84282" lon="6.2308">
        <ele>912</ele>
        <time>2022-06-09T18:44:05Z</time>
      </trkpt>
      <trkpt lat="43.84292" lon="6.23082">
        <ele>912</ele>
        <time>2022-06-09T18:44:07Z</time>
      </trkpt>
      <trkpt lat="43.84308" lon="6.2313">
        <ele>903</ele>
        <time>2022-06-09T18:44:16Z</time>
      </trkpt>
      <trkpt lat="43.84314" lon="6.23136">
        <ele>902</ele>
        <time>2022-06-09T18:44:18Z</time>
      </trkpt>
      <trkpt lat="43.84336" lon="6.23148">
        <ele>901</ele>
        <time>2022-06-09T18:44:23Z</time>
      </trkpt>
      <trkpt lat="43.84369" lon="6.23156">
        <ele>905</ele>
        <time>2022-06-09T18:44:31Z</time>
      </trkpt>
      <trkpt lat="43.84378" lon="6.23156">
        <ele>906</ele>
        <time>2022-06-09T18:44:33Z</time>
      </trkpt>
      <trkpt lat="43.84396" lon="6.23144">
        <ele>912</ele>
        <time>2022-06-09T18:44:38Z</time>
      </trkpt>
      <trkpt lat="43.84407" lon="6.23143">
        <ele>914</ele>
        <time>2022-06-09T18:44:41Z</time>
      </trkpt>
      <trkpt lat="43.84416" lon="6.23152">
        <ele>913</ele>
        <time>2022-06-09T18:44:43Z</time>
      </trkpt>
      <trkpt lat="43.84436" lon="6.23191">
        <ele>910</ele>
        <time>2022-06-09T18:44:51Z</time>
      </trkpt>
      <trkpt lat="43.84442" lon="6.23226">
        <ele>907</ele>
        <time>2022-06-09T18:44:57Z</time>
      </trkpt>
      <trkpt lat="43.84429" lon="6.2326">
        <ele>901</ele>
        <time>2022-06-09T18:45:04Z</time>
      </trkpt>
      <trkpt lat="43.84427" lon="6.23294">
        <ele>903</ele>
        <time>2022-06-09T18:45:09Z</time>
      </trkpt>
      <trkpt lat="43.84424" lon="6.23308">
        <ele>903</ele>
        <time>2022-06-09T18:45:12Z</time>
      </trkpt>
      <trkpt lat="43.84392" lon="6.23359">
        <ele>900</ele>
        <time>2022-06-09T18:45:23Z</time>
      </trkpt>
      <trkpt lat="43.84382" lon="6.23394">
        <ele>902</ele>
        <time>2022-06-09T18:45:30Z</time>
      </trkpt>
      <trkpt lat="43.8437" lon="6.23415">
        <ele>902</ele>
        <time>2022-06-09T18:45:34Z</time>
      </trkpt>
      <trkpt lat="43.84368" lon="6.23425">
        <ele>901</ele>
        <time>2022-06-09T18:45:36Z</time>
      </trkpt>
      <trkpt lat="43.84397" lon="6.23467">
        <ele>909</ele>
        <time>2022-06-09T18:45:46Z</time>
      </trkpt>
      <trkpt lat="43.84404" lon="6.23486">
        <ele>910</ele>
        <time>2022-06-09T18:45:49Z</time>
      </trkpt>
      <trkpt lat="43.84405" lon="6.23496">
        <ele>910</ele>
        <time>2022-06-09T18:45:51Z</time>
      </trkpt>
      <trkpt lat="43.84399" lon="6.23525">
        <ele>910</ele>
        <time>2022-06-09T18:45:56Z</time>
      </trkpt>
      <trkpt lat="43.84392" lon="6.2354">
        <ele>909</ele>
        <time>2022-06-09T18:45:59Z</time>
      </trkpt>
      <trkpt lat="43.84394" lon="6.23551">
        <ele>910</ele>
        <time>2022-06-09T18:46:01Z</time>
      </trkpt>
      <trkpt lat="43.84393" lon="6.23567">
        <ele>910</ele>
        <time>2022-06-09T18:46:04Z</time>
      </trkpt>
      <trkpt lat="43.84419" lon="6.23672">
        <ele>914</ele>
        <time>2022-06-09T18:46:22Z</time>
      </trkpt>
      <trkpt lat="43.84424" lon="6.23688">
        <ele>914</ele>
        <time>2022-06-09T18:46:25Z</time>
      </trkpt>
      <trkpt lat="43.84431" lon="6.23702">
        <ele>915</ele>
        <time>2022-06-09T18:46:28Z</time>
      </trkpt>
      <trkpt lat="43.84435" lon="6.23704">
        <ele>914</ele>
        <time>2022-06-09T18:46:29Z</time>
      </trkpt>
      <trkpt lat="43.84443" lon="6.23739">
        <ele>916</ele>
        <time>2022-06-09T18:46:35Z</time>
      </trkpt>
      <trkpt lat="43.84464" lon="6.23803">
        <ele>922</ele>
        <time>2022-06-09T18:46:47Z</time>
      </trkpt>
      <trkpt lat="43.84468" lon="6.2382">
        <ele>924</ele>
        <time>2022-06-09T18:46:50Z</time>
      </trkpt>
      <trkpt lat="43.84471" lon="6.23853">
        <ele>928</ele>
        <time>2022-06-09T18:46:56Z</time>
      </trkpt>
      <trkpt lat="43.84484" lon="6.23887">
        <ele>932</ele>
        <time>2022-06-09T18:47:02Z</time>
      </trkpt>
      <trkpt lat="43.84485" lon="6.23909">
        <ele>935</ele>
        <time>2022-06-09T18:47:06Z</time>
      </trkpt>
      <trkpt lat="43.84498" lon="6.23935">
        <ele>936</ele>
        <time>2022-06-09T18:47:11Z</time>
      </trkpt>
      <trkpt lat="43.84513" lon="6.2395">
        <ele>936</ele>
        <time>2022-06-09T18:47:16Z</time>
      </trkpt>
      <trkpt lat="43.84517" lon="6.23996">
        <ele>937</ele>
        <time>2022-06-09T18:47:23Z</time>
      </trkpt>
      <trkpt lat="43.84523" lon="6.2402">
        <ele>939</ele>
        <time>2022-06-09T18:47:28Z</time>
      </trkpt>
      <trkpt lat="43.84536" lon="6.24124">
        <ele>945</ele>
        <time>2022-06-09T18:47:46Z</time>
      </trkpt>
      <trkpt lat="43.84546" lon="6.24159">
        <ele>947</ele>
        <time>2022-06-09T18:47:52Z</time>
      </trkpt>
      <trkpt lat="43.84557" lon="6.24223">
        <ele>949</ele>
        <time>2022-06-09T18:48:03Z</time>
      </trkpt>
      <trkpt lat="43.84571" lon="6.24266">
        <ele>951</ele>
        <time>2022-06-09T18:48:11Z</time>
      </trkpt>
      <trkpt lat="43.84572" lon="6.24307">
        <ele>952</ele>
        <time>2022-06-09T18:48:18Z</time>
      </trkpt>
      <trkpt lat="43.84564" lon="6.24342">
        <ele>952</ele>
        <time>2022-06-09T18:48:24Z</time>
      </trkpt>
      <trkpt lat="43.84553" lon="6.24374">
        <ele>952</ele>
        <time>2022-06-09T18:48:30Z</time>
      </trkpt>
      <trkpt lat="43.8455" lon="6.24401">
        <ele>953</ele>
        <time>2022-06-09T18:48:35Z</time>
      </trkpt>
      <trkpt lat="43.84542" lon="6.2443">
        <ele>952</ele>
        <time>2022-06-09T18:48:40Z</time>
      </trkpt>
      <trkpt lat="43.8454" lon="6.24472">
        <ele>950</ele>
        <time>2022-06-09T18:48:47Z</time>
      </trkpt>
      <trkpt lat="43.84545" lon="6.24502">
        <ele>949</ele>
        <time>2022-06-09T18:48:52Z</time>
      </trkpt>
      <trkpt lat="43.84557" lon="6.24538">
        <ele>946</ele>
        <time>2022-06-09T18:48:59Z</time>
      </trkpt>
      <trkpt lat="43.84588" lon="6.24597">
        <ele>946</ele>
        <time>2022-06-09T18:49:11Z</time>
      </trkpt>
      <trkpt lat="43.84599" lon="6.24627">
        <ele>945</ele>
        <time>2022-06-09T18:49:17Z</time>
      </trkpt>
      <trkpt lat="43.84626" lon="6.24681">
        <ele>944</ele>
        <time>2022-06-09T18:49:28Z</time>
      </trkpt>
      <trkpt lat="43.8467" lon="6.24749">
        <ele>948</ele>
        <time>2022-06-09T18:49:43Z</time>
      </trkpt>
      <trkpt lat="43.84673" lon="6.24758">
        <ele>948</ele>
        <time>2022-06-09T18:49:45Z</time>
      </trkpt>
      <trkpt lat="43.84673" lon="6.24763">
        <ele>949</ele>
        <time>2022-06-09T18:49:46Z</time>
      </trkpt>
      <trkpt lat="43.84669" lon="6.2477">
        <ele>949</ele>
        <time>2022-06-09T18:49:47Z</time>
      </trkpt>
      <trkpt lat="43.84604" lon="6.24843">
        <ele>942</ele>
        <time>2022-06-09T18:50:07Z</time>
      </trkpt>
      <trkpt lat="43.84585" lon="6.24861">
        <ele>941</ele>
        <time>2022-06-09T18:50:12Z</time>
      </trkpt>
      <trkpt lat="43.84576" lon="6.24882">
        <ele>942</ele>
        <time>2022-06-09T18:50:16Z</time>
      </trkpt>
      <trkpt lat="43.84593" lon="6.24875">
        <ele>944</ele>
        <time>2022-06-09T18:50:20Z</time>
      </trkpt>
      <trkpt lat="43.84604" lon="6.24874">
        <ele>945</ele>
        <time>2022-06-09T18:50:23Z</time>
      </trkpt>
      <trkpt lat="43.84628" lon="6.2486">
        <ele>948</ele>
        <time>2022-06-09T18:50:29Z</time>
      </trkpt>
      <trkpt lat="43.84659" lon="6.24847">
        <ele>952</ele>
        <time>2022-06-09T18:50:37Z</time>
      </trkpt>
      <trkpt lat="43.84671" lon="6.24838">
        <ele>953</ele>
        <time>2022-06-09T18:50:40Z</time>
      </trkpt>
      <trkpt lat="43.84704" lon="6.24822">
        <ele>957</ele>
        <time>2022-06-09T18:50:48Z</time>
      </trkpt>
      <trkpt lat="43.84717" lon="6.24818">
        <ele>959</ele>
        <time>2022-06-09T18:50:51Z</time>
      </trkpt>
      <trkpt lat="43.8474" lon="6.24803">
        <ele>962</ele>
        <time>2022-06-09T18:50:57Z</time>
      </trkpt>
      <trkpt lat="43.84753" lon="6.24799">
        <ele>963</ele>
        <time>2022-06-09T18:51:00Z</time>
      </trkpt>
      <trkpt lat="43.8478" lon="6.2478">
        <ele>966</ele>
        <time>2022-06-09T18:51:07Z</time>
      </trkpt>
      <trkpt lat="43.84828" lon="6.24757">
        <ele>971</ele>
        <time>2022-06-09T18:51:19Z</time>
      </trkpt>
      <trkpt lat="43.84853" lon="6.24753">
        <ele>972</ele>
        <time>2022-06-09T18:51:25Z</time>
      </trkpt>
      <trkpt lat="43.84901" lon="6.24753">
        <ele>973</ele>
        <time>2022-06-09T18:51:36Z</time>
      </trkpt>
      <trkpt lat="43.84917" lon="6.24749">
        <ele>973</ele>
        <time>2022-06-09T18:51:40Z</time>
      </trkpt>
      <trkpt lat="43.84925" lon="6.24743">
        <ele>972</ele>
        <time>2022-06-09T18:51:42Z</time>
      </trkpt>
      <trkpt lat="43.84941" lon="6.24738">
        <ele>971</ele>
        <time>2022-06-09T18:51:46Z</time>
      </trkpt>
      <trkpt lat="43.84952" lon="6.24726">
        <ele>970</ele>
        <time>2022-06-09T18:51:49Z</time>
      </trkpt>
      <trkpt lat="43.84956" lon="6.24728">
        <ele>970</ele>
        <time>2022-06-09T18:51:50Z</time>
      </trkpt>
      <trkpt lat="43.84946" lon="6.24734">
        <ele>971</ele>
        <time>2022-06-09T18:51:53Z</time>
      </trkpt>
      <trkpt lat="43.84935" lon="6.24737">
        <ele>972</ele>
        <time>2022-06-09T18:51:55Z</time>
      </trkpt>
      <trkpt lat="43.84911" lon="6.24751">
        <ele>973</ele>
        <time>2022-06-09T18:52:01Z</time>
      </trkpt>
      <trkpt lat="43.84905" lon="6.24761">
        <ele>973</ele>
        <time>2022-06-09T18:52:04Z</time>
      </trkpt>
      <trkpt lat="43.84836" lon="6.24833">
        <ele>974</ele>
        <time>2022-06-09T18:52:24Z</time>
      </trkpt>
      <trkpt lat="43.84833" lon="6.24848">
        <ele>974</ele>
        <time>2022-06-09T18:52:26Z</time>
      </trkpt>
      <trkpt lat="43.84834" lon="6.24855">
        <ele>975</ele>
        <time>2022-06-09T18:52:28Z</time>
      </trkpt>
      <trkpt lat="43.84853" lon="6.24887">
        <ele>976</ele>
        <time>2022-06-09T18:52:35Z</time>
      </trkpt>
      <trkpt lat="43.8486" lon="6.24904">
        <ele>977</ele>
        <time>2022-06-09T18:52:38Z</time>
      </trkpt>
      <trkpt lat="43.84873" lon="6.24922">
        <ele>979</ele>
        <time>2022-06-09T18:52:42Z</time>
      </trkpt>
      <trkpt lat="43.84899" lon="6.24939">
        <ele>984</ele>
        <time>2022-06-09T18:52:49Z</time>
      </trkpt>
      <trkpt lat="43.84976" lon="6.24971">
        <ele>996</ele>
        <time>2022-06-09T18:53:08Z</time>
      </trkpt>
      <trkpt lat="43.84994" lon="6.24973">
        <ele>998</ele>
        <time>2022-06-09T18:53:12Z</time>
      </trkpt>
      <trkpt lat="43.85056" lon="6.25004">
        <ele>1004</ele>
        <time>2022-06-09T18:53:27Z</time>
      </trkpt>
      <trkpt lat="43.8506" lon="6.25009">
        <ele>1005</ele>
        <time>2022-06-09T18:53:28Z</time>
      </trkpt>
      <trkpt lat="43.85068" lon="6.2501">
        <ele>1005</ele>
        <time>2022-06-09T18:53:30Z</time>
      </trkpt>
      <trkpt lat="43.85091" lon="6.25022">
        <ele>1007</ele>
        <time>2022-06-09T18:53:36Z</time>
      </trkpt>
      <trkpt lat="43.85108" lon="6.25035">
        <ele>1009</ele>
        <time>2022-06-09T18:53:41Z</time>
      </trkpt>
      <trkpt lat="43.85122" lon="6.25056">
        <ele>1012</ele>
        <time>2022-06-09T18:53:45Z</time>
      </trkpt>
      <trkpt lat="43.8514" lon="6.25072">
        <ele>1013</ele>
        <time>2022-06-09T18:53:50Z</time>
      </trkpt>
      <trkpt lat="43.85147" lon="6.25084">
        <ele>1015</ele>
        <time>2022-06-09T18:53:53Z</time>
      </trkpt>
      <trkpt lat="43.85153" lon="6.25103">
        <ele>1018</ele>
        <time>2022-06-09T18:53:57Z</time>
      </trkpt>
      <trkpt lat="43.85176" lon="6.25145">
        <ele>1022</ele>
        <time>2022-06-09T18:54:05Z</time>
      </trkpt>
      <trkpt lat="43.85179" lon="6.25157">
        <ele>1024</ele>
        <time>2022-06-09T18:54:08Z</time>
      </trkpt>
      <trkpt lat="43.85185" lon="6.25168">
        <ele>1024</ele>
        <time>2022-06-09T18:54:10Z</time>
      </trkpt>
      <trkpt lat="43.85192" lon="6.25201">
        <ele>1028</ele>
        <time>2022-06-09T18:54:16Z</time>
      </trkpt>
      <trkpt lat="43.85206" lon="6.2523">
        <ele>1029</ele>
        <time>2022-06-09T18:54:22Z</time>
      </trkpt>
      <trkpt lat="43.85213" lon="6.25255">
        <ele>1031</ele>
        <time>2022-06-09T18:54:26Z</time>
      </trkpt>
      <trkpt lat="43.85222" lon="6.2531">
        <ele>1037</ele>
        <time>2022-06-09T18:54:36Z</time>
      </trkpt>
      <trkpt lat="43.85222" lon="6.25329">
        <ele>1040</ele>
        <time>2022-06-09T18:54:39Z</time>
      </trkpt>
      <trkpt lat="43.85229" lon="6.25361">
        <ele>1044</ele>
        <time>2022-06-09T18:54:44Z</time>
      </trkpt>
      <trkpt lat="43.85253" lon="6.25385">
        <ele>1044</ele>
        <time>2022-06-09T18:54:51Z</time>
      </trkpt>
      <trkpt lat="43.8527" lon="6.25411">
        <ele>1049</ele>
        <time>2022-06-09T18:54:57Z</time>
      </trkpt>
      <trkpt lat="43.8531" lon="6.25442">
        <ele>1051</ele>
        <time>2022-06-09T18:55:08Z</time>
      </trkpt>
      <trkpt lat="43.85328" lon="6.25462">
        <ele>1052</ele>
        <time>2022-06-09T18:55:13Z</time>
      </trkpt>
      <trkpt lat="43.85345" lon="6.2549">
        <ele>1059</ele>
        <time>2022-06-09T18:55:19Z</time>
      </trkpt>
      <trkpt lat="43.85351" lon="6.25515">
        <ele>1062</ele>
        <time>2022-06-09T18:55:24Z</time>
      </trkpt>
      <trkpt lat="43.85362" lon="6.25543">
        <ele>1063</ele>
        <time>2022-06-09T18:55:29Z</time>
      </trkpt>
      <trkpt lat="43.85377" lon="6.25572">
        <ele>1065</ele>
        <time>2022-06-09T18:55:35Z</time>
      </trkpt>
      <trkpt lat="43.85387" lon="6.25582">
        <ele>1065</ele>
        <time>2022-06-09T18:55:38Z</time>
      </trkpt>
      <trkpt lat="43.85397" lon="6.25583">
        <ele>1066</ele>
        <time>2022-06-09T18:55:40Z</time>
      </trkpt>
      <trkpt lat="43.85435" lon="6.25605">
        <ele>1064</ele>
        <time>2022-06-09T18:55:50Z</time>
      </trkpt>
      <trkpt lat="43.85467" lon="6.25612">
        <ele>1067</ele>
        <time>2022-06-09T18:55:58Z</time>
      </trkpt>
      <trkpt lat="43.85491" lon="6.25622">
        <ele>1068</ele>
        <time>2022-06-09T18:56:04Z</time>
      </trkpt>
      <trkpt lat="43.85506" lon="6.25632">
        <ele>1068</ele>
        <time>2022-06-09T18:56:07Z</time>
      </trkpt>
      <trkpt lat="43.85521" lon="6.25649">
        <ele>1066</ele>
        <time>2022-06-09T18:56:12Z</time>
      </trkpt>
      <trkpt lat="43.85531" lon="6.25652">
        <ele>1066</ele>
        <time>2022-06-09T18:56:14Z</time>
      </trkpt>
      <trkpt lat="43.85538" lon="6.25651">
        <ele>1066</ele>
        <time>2022-06-09T18:56:16Z</time>
      </trkpt>
      <trkpt lat="43.85582" lon="6.25628">
        <ele>1070</ele>
        <time>2022-06-09T18:56:27Z</time>
      </trkpt>
      <trkpt lat="43.8564" lon="6.25593">
        <ele>1073</ele>
        <time>2022-06-09T18:56:42Z</time>
      </trkpt>
      <trkpt lat="43.85651" lon="6.25592">
        <ele>1073</ele>
        <time>2022-06-09T18:56:44Z</time>
      </trkpt>
      <trkpt lat="43.85668" lon="6.25595">
        <ele>1073</ele>
        <time>2022-06-09T18:56:48Z</time>
      </trkpt>
      <trkpt lat="43.85674" lon="6.25599">
        <ele>1073</ele>
        <time>2022-06-09T18:56:50Z</time>
      </trkpt>
      <trkpt lat="43.85681" lon="6.25599">
        <ele>1073</ele>
        <time>2022-06-09T18:56:51Z</time>
      </trkpt>
      <trkpt lat="43.85685" lon="6.25603">
        <ele>1073</ele>
        <time>2022-06-09T18:56:53Z</time>
      </trkpt>
      <trkpt lat="43.84585" lon="6.25176">
        <ele>946</ele>
        <time>2022-06-09T19:01:19Z</time>
      </trkpt>
      <trkpt lat="43.84582" lon="6.25177">
        <ele>946</ele>
        <time>2022-06-09T19:01:20Z</time>
      </trkpt>
      <trkpt lat="43.84581" lon="6.25168">
        <ele>946</ele>
        <time>2022-06-09T19:01:22Z</time>
      </trkpt>
      <trkpt lat="43.84571" lon="6.25166">
        <ele>944</ele>
        <time>2022-06-09T19:01:24Z</time>
      </trkpt>
      <trkpt lat="43.8457" lon="6.25163">
        <ele>944</ele>
        <time>2022-06-09T19:01:25Z</time>
      </trkpt>
      <trkpt lat="43.84575" lon="6.25161">
        <ele>945</ele>
        <time>2022-06-09T19:01:26Z</time>
      </trkpt>
      <trkpt lat="43.84581" lon="6.25167">
        <ele>946</ele>
        <time>2022-06-09T19:01:28Z</time>
      </trkpt>
    </trkseg>
  </trk>
</gpx>